Provisional Data: Meshoppen Creek near Kaiserville, PA


Please select a monitoring station.
Please select start date.
Please select start date.

Toggle Unit: C/F Toggle Unit: C/F
Sample Time Temperature (C) Temperature (F) Specific Conductivity (mS/cm) pH   Turbidity (NTU+) DO (mg/L)
5/17/2022 12:00:00 AM 17.2 62.96 0.144 7.39 11.36 8.67
5/17/2022 12:15:00 AM 17.1 62.78 0.144 7.4 4.61 8.69
5/17/2022 12:30:00 AM 17 62.6 0.144 7.33 11.62 8.72
5/17/2022 12:45:00 AM 16.9 62.42 0.144 7.39 10.42 8.75
5/17/2022 1:00:00 AM 16.79 62.222 0.144 7.36 11.22 8.77
5/17/2022 1:15:00 AM 16.68 62.024 0.144 7.37 11.38 8.79
5/17/2022 1:30:00 AM 16.58 61.844 0.144 7.36 6.3 8.81
5/17/2022 1:45:00 AM 16.47 61.646 0.144 7.37 11.69 8.83
5/17/2022 2:00:00 AM 16.37 61.466 0.144 7.34 11.13 8.86
5/17/2022 2:15:00 AM 16.26 61.268 0.144 7.36 11.27 8.88
5/17/2022 2:30:00 AM 16.16 61.088 0.144 7.36 10.89 8.9
5/17/2022 2:45:00 AM 16.07 60.926 0.144 7.36 11.64 8.92
5/17/2022 3:00:00 AM 15.98 60.764 0.144 7.35 10.72 8.94
5/17/2022 3:15:00 AM 15.89 60.602 0.144 7.35 4.14 8.97
5/17/2022 3:30:00 AM 15.8 60.44 0.144 7.34 3.71 8.99
5/17/2022 3:45:00 AM 15.71 60.278 0.144 7.35 11.72 9.01
5/17/2022 4:00:00 AM 15.63 60.134 0.144 7.35 11.68 9.03
5/17/2022 4:15:00 AM 15.54 59.972 0.144 7.34 11.2 9.05
5/17/2022 4:30:00 AM 15.46 59.828 0.144 7.34 11.93 9.07
5/17/2022 4:45:00 AM 15.38 59.684 0.143 7.3 11.58 9.09
5/17/2022 5:00:00 AM 15.31 59.558 0.143 7.34 11.34 9.12
5/17/2022 5:15:00 AM 15.22 59.396 0.143 7.3 11.6 9.13
5/17/2022 5:30:00 AM 15.14 59.252 0.143 7.34 3.97 9.15
5/17/2022 5:45:00 AM 15.06 59.108 0.143 7.3 11.38 9.18
5/17/2022 6:00:00 AM 14.98 58.964 0.143 7.35 11.33 9.21
5/17/2022 6:15:00 AM 14.9 58.82 0.143 7.29 5.63 9.26
5/17/2022 6:30:00 AM 14.84 58.712 0.143 7.37 4.8 9.32
5/17/2022 6:45:00 AM 14.8 58.64 0.143 7.35 10.99 9.41
5/17/2022 7:00:00 AM 14.76 58.568 0.143 7.38 11.2 9.51
5/17/2022 7:15:00 AM 14.72 58.496 0.143 7.44 11.62 9.6
5/17/2022 7:30:00 AM 14.72 58.496 0.143 7.48 11.11 9.76
5/17/2022 7:45:00 AM 14.72 58.496 0.142 7.49 11.37 9.78
5/17/2022 8:00:00 AM 14.73 58.514 0.142 7.53 11.68 9.87
5/17/2022 8:15:00 AM 14.81 58.658 0.142 7.55 11.38 9.99
5/17/2022 8:30:00 AM 14.93 58.874 0.142 7.62 11.51 10.11
5/17/2022 8:45:00 AM 15.06 59.108 0.142 7.7 11.26 10.19
5/17/2022 9:00:00 AM 15.24 59.432 0.142 7.79 11.9 10.24
5/17/2022 9:15:00 AM 15.37 59.666 0.142 7.85 10.9 10.28
5/17/2022 9:30:00 AM 15.52 59.936 0.142 7.9 3.8 10.34
5/17/2022 9:45:00 AM 15.57 60.026 0.142 7.96 11.73 10.34
5/17/2022 10:00:00 AM 15.61 60.098 0.142 8.02 11.3 10.34
5/17/2022 10:15:00 AM 15.73 60.314 0.142 8.09 10.11 10.38
5/17/2022 10:30:00 AM 15.9 60.62 0.141 8.17 10.99 10.41
5/17/2022 10:45:00 AM 16.12 61.016 0.141 8.23 10.05 10.4
5/17/2022 11:00:00 AM 16.4 61.52 0.141 8.31 10.4 10.44
5/17/2022 11:15:00 AM 16.63 61.934 0.141 8.37 9.07 10.42
5/17/2022 11:30:00 AM 16.87 62.366 0.141 8.42 7.09 10.37
5/17/2022 11:45:00 AM 17.03 62.654 0.141 8.46 3.62 10.3
5/17/2022 12:00:00 PM 17.23 63.014 0.141 8.5 11.3 10.26
5/17/2022 12:15:00 PM 17.4 63.32 0.14 8.55 11.16 10.24
5/17/2022 12:30:00 PM 17.54 63.572 0.14 8.56 11.68 10.14
5/17/2022 12:45:00 PM 17.86 64.148 0.14 8.62 6.96 10.17
5/17/2022 1:00:00 PM 18.12 64.616 0.14 8.66 11.75 10.19
5/17/2022 1:15:00 PM 18.32 64.976 0.14 8.7 11.92 10.12
5/17/2022 1:30:00 PM 18.56 65.408 0.141 8.75 3.3 10.1
5/17/2022 1:45:00 PM 18.82 65.876 0.141 8.8 11.09 10.07
5/17/2022 2:00:00 PM 19.06 66.308 0.141 8.83 11.26 10.02
5/17/2022 2:15:00 PM 19.3 66.74 0.141 8.85 10.4 9.96
5/17/2022 2:30:00 PM 19.51 67.118 0.141 8.87 9.85 9.9
5/17/2022 2:45:00 PM 19.62 67.316 0.141 8.89 9.96 9.85
5/17/2022 3:00:00 PM 19.75 67.55 0.141 8.9 10.89 9.81
5/17/2022 3:15:00 PM 19.84 67.712 0.141 8.92 9.45 9.76
5/17/2022 3:30:00 PM 19.9 67.82 0.141 8.91 10.07 9.74
5/17/2022 3:45:00 PM 19.94 67.892 0.141 8.91 11.12 9.68
5/17/2022 4:00:00 PM 19.94 67.892 0.141 8.91 9.97 9.63
5/17/2022 4:15:00 PM 19.9 67.82 0.141 8.9 3.06 9.57
5/17/2022 4:30:00 PM 19.85 67.73 0.141 8.88 11.47 9.56
5/17/2022 4:45:00 PM 19.79 67.622 0.141 8.87 11.01 9.52
5/17/2022 5:00:00 PM 19.65 67.37 0.141 8.83 10.19 9.47
5/17/2022 5:15:00 PM 19.5 67.1 0.141 8.79 10.35 9.43
5/17/2022 5:30:00 PM 19.38 66.884 0.141 8.75 10.4 9.41
5/17/2022 5:45:00 PM 19.21 66.578 0.141 8.72 9.47 9.38
5/17/2022 6:00:00 PM 19.02 66.236 0.141 8.63 9.46 9.34
5/17/2022 6:15:00 PM 18.8 65.84 0.142 8.56 10.9 9.29
5/17/2022 6:30:00 PM 18.6 65.48 0.142 8.44 10.49 9.23
5/17/2022 6:45:00 PM 18.42 65.156 0.142 8.33 11.01 9.18
5/17/2022 7:00:00 PM 18.23 64.814 0.142 8.2 10.33 9.11
5/17/2022 7:15:00 PM 18.02 64.436 0.142 8.03 11.39 9.06
5/17/2022 7:30:00 PM 17.84 64.112 0.142 7.91 9.4 9.02
5/17/2022 7:45:00 PM 17.67 63.806 0.142 7.85 10.51 8.99
5/17/2022 8:00:00 PM 17.51 63.518 0.142 7.75 10.32 8.95
5/17/2022 8:15:00 PM 17.37 63.266 0.143 7.71 10.28 8.91
5/17/2022 8:30:00 PM 17.25 63.05 0.143 7.62 10.43 8.87
5/17/2022 8:45:00 PM 17.15 62.87 0.143 7.57 9.78 8.84
5/17/2022 9:00:00 PM 17.07 62.726 0.143 7.56 10.53 8.83
5/17/2022 9:15:00 PM 16.99 62.582 0.143 7.54 9.93 8.82
5/17/2022 9:30:00 PM 16.91 62.438 0.143 7.52 10.58 8.82
5/17/2022 9:45:00 PM 16.84 62.312 0.143 7.46 10.98 8.82
5/17/2022 10:00:00 PM 16.77 62.186 0.143 7.49 10.65 8.82
5/17/2022 10:15:00 PM 16.69 62.042 0.143 7.48 10.51 8.83
5/17/2022 10:30:00 PM 16.6 61.88 0.143 7.44 11.17 8.84
5/17/2022 10:45:00 PM 16.5 61.7 0.143 7.41 10.83 8.86
5/17/2022 11:00:00 PM 16.41 61.538 0.143 7.41 10.37 8.88
5/17/2022 11:15:00 PM 16.31 61.358 0.143 7.4 10.95 8.9
5/17/2022 11:30:00 PM 16.21 61.178 0.143 7.43 11.29 8.92
5/17/2022 11:45:00 PM 16.12 61.016 0.143 7.43 11.01 8.94
5/18/2022 12:00:00 AM 16.03 60.854 0.143 7.42 11.23 8.96
5/18/2022 12:15:00 AM 15.94 60.692 0.143 7.42 10.91 8.98
5/18/2022 12:30:00 AM 15.85 60.53 0.143 7.4 10.94 9
5/18/2022 12:45:00 AM 15.74 60.332 0.143 7.41 10.47 9.02
5/18/2022 1:00:00 AM 15.64 60.152 0.143 7.4 11.18 9.05
5/18/2022 1:15:00 AM 15.53 59.954 0.143 7.39 11.55 9.07
5/18/2022 1:30:00 AM 15.43 59.774 0.144 7.4 4.47 9.1
5/18/2022 1:45:00 AM 15.32 59.576 0.144 7.4 4.05 9.13
5/18/2022 2:00:00 AM 15.21 59.378 0.144 7.39 11.28 9.15
5/18/2022 2:15:00 AM 15.09 59.162 0.144 7.39 11.13 9.18
5/18/2022 2:30:00 AM 14.99 58.982 0.144 7.4 12.02 9.2
5/18/2022 2:45:00 AM 14.88 58.784 0.144 7.39 11.79 9.24
5/18/2022 3:00:00 AM 14.77 58.586 0.144 7.38 11.13 9.26
5/18/2022 3:15:00 AM 14.66 58.388 0.144 7.33 11.01 9.28
5/18/2022 3:30:00 AM 14.55 58.19 0.144 7.38 10.55 9.31
5/18/2022 3:45:00 AM 14.45 58.01 0.144 7.32 11.03 9.34
5/18/2022 4:00:00 AM 14.34 57.812 0.144 7.37 11.54 9.36
5/18/2022 4:15:00 AM 14.24 57.632 0.144 7.38 11.85 9.39
5/18/2022 4:30:00 AM 14.14 57.452 0.144 7.38 11.26 9.41
5/18/2022 4:45:00 AM 14.04 57.272 0.144 7.37 3.85 9.43
5/18/2022 5:00:00 AM 13.94 57.092 0.144 7.36 11.46 9.46
5/18/2022 5:15:00 AM 13.85 56.93 0.144 7.36 9.16 9.48
5/18/2022 5:30:00 AM 13.98 57.164 0.143 7.33 11.29 9.43
5/18/2022 5:45:00 AM 13.88 56.984 0.143 7.36 11.79 9.46
5/18/2022 6:00:00 AM 13.79 56.822 0.143 7.36 11.82 9.51
5/18/2022 6:15:00 AM 13.7 56.66 0.143 7.37 10.7 9.56
5/18/2022 6:30:00 AM 13.62 56.516 0.143 7.38 3.82 9.63
5/18/2022 6:45:00 AM 13.55 56.39 0.143 7.4 10.74 9.7
5/18/2022 7:00:00 AM 13.49 56.282 0.143 7.42 11.53 9.81
5/18/2022 7:15:00 AM 13.46 56.228 0.143 7.39 10.76 9.95
5/18/2022 7:30:00 AM 13.47 56.246 0.143 7.5 11.23 10.1
5/18/2022 7:45:00 AM 13.5 56.3 0.143 7.56 11.81 10.24
5/18/2022 8:00:00 AM 13.55 56.39 0.143 7.62 10.1 10.36
5/18/2022 8:15:00 AM 13.61 56.498 0.143 7.67 10.54 10.46
5/18/2022 8:30:00 AM 13.69 56.642 0.143 7.74 10.71 10.54
5/18/2022 8:45:00 AM 13.79 56.822 0.143 7.78 9.57 10.61
5/18/2022 9:00:00 AM 13.89 57.002 0.143 7.87 10.41 10.68
5/18/2022 9:15:00 AM 14.03 57.254 0.143 7.94 10.04 10.74
5/18/2022 9:30:00 AM 14.13 57.434 0.143 8.01 10.72 10.78
5/18/2022 9:45:00 AM 14.26 57.668 0.143 8.08 11.12 10.81
5/18/2022 10:00:00 AM 14.42 57.956 0.143 8.16 11.39 10.86
5/18/2022 10:15:00 AM 14.56 58.208 0.143 8.22 11.47 10.88
5/18/2022 10:30:00 AM 14.78 58.604 0.142 8.28 10.38 10.9
5/18/2022 10:45:00 AM 15 59 0.142 8.37 10.12 10.91
5/18/2022 11:00:00 AM 15.24 59.432 0.142 8.43 11.76 10.91
5/18/2022 11:15:00 AM 15.49 59.882 0.142 8.52 9.83 10.89
5/18/2022 11:30:00 AM 15.74 60.332 0.142 8.56 9.32 10.88
5/18/2022 11:45:00 AM 15.98 60.764 0.141 8.63 9.37 10.86
5/18/2022 12:00:00 PM 16.25 61.25 0.141 8.7 9.61 10.84
5/18/2022 12:15:00 PM 16.5 61.7 0.141 8.77 9.73 10.79
5/18/2022 12:30:00 PM 16.79 62.222 0.141 8.8 9.85 10.76
5/18/2022 12:45:00 PM 17.05 62.69 0.14 8.88 10.53 10.72
5/18/2022 1:00:00 PM 17.27 63.086 0.14 8.92 9.18 10.67
5/18/2022 1:15:00 PM 17.52 63.536 0.14 8.97 10.31 10.62
5/18/2022 1:30:00 PM 17.67 63.806 0.14 9.01 9.21 10.57
5/18/2022 1:45:00 PM 17.78 64.004 0.139 9.04 7.98 10.51
5/18/2022 2:00:00 PM 17.88 64.184 0.139 9.08 9.48 10.49
5/18/2022 2:15:00 PM 17.97 64.346 0.139 9.11 9.48 10.48
5/18/2022 2:30:00 PM 18.02 64.436 0.139 9.13 10.44 10.44
5/18/2022 2:45:00 PM 18.07 64.526 0.139 9.16 9.75 10.39
5/18/2022 3:00:00 PM 18.18 64.724 0.139 9.18 8.93 10.36
5/18/2022 3:15:00 PM 18.34 65.012 0.139 9.2 9.86 10.34
5/18/2022 3:30:00 PM 18.44 65.192 0.139 9.22 8.95 10.28
5/18/2022 3:45:00 PM 18.49 65.282 0.139 9.23 10.01 10.21
5/18/2022 4:00:00 PM 18.5 65.3 0.138 9.24 9.33 10.15
5/18/2022 4:15:00 PM 18.46 65.228 0.138 9.25 10.09 10.1
5/18/2022 4:30:00 PM 18.41 65.138 0.138 9.24 9.67 10.05
5/18/2022 4:45:00 PM 18.32 64.976 0.138 9.22 10.49 9.91
5/18/2022 5:00:00 PM 18.2 64.76 0.139 9.16 10.19 9.69
5/18/2022 5:15:00 PM 18.06 64.508 0.139 9.1 8.3 9.52
5/18/2022 5:30:00 PM 17.9 64.22 0.139 9 10.55 9.38
5/18/2022 5:45:00 PM 17.74 63.932 0.139 8.88 8.52 9.29
5/18/2022 6:00:00 PM 17.6 63.68 0.14 8.74 9.26 9.22
5/18/2022 6:15:00 PM 17.49 63.482 0.14 8.61 9.15 9.18
5/18/2022 6:30:00 PM 17.41 63.338 0.14 8.5 8.45 9.27
5/18/2022 6:45:00 PM 17.32 63.176 0.14 8.38 9.68 9.29
5/18/2022 7:00:00 PM 17.24 63.032 0.141 8.32 9.87 9.3
5/18/2022 7:15:00 PM 17.16 62.888 0.141 8.25 10.34 9.29
5/18/2022 7:30:00 PM 17.06 62.708 0.142 8.13 9.59 9.2
5/18/2022 7:45:00 PM 16.95 62.51 0.142 8.01 10.79 9.14
5/18/2022 8:00:00 PM 16.84 62.312 0.143 7.9 9.69 9.08
5/18/2022 8:15:00 PM 16.73 62.114 0.143 7.79 10.72 9.02
5/18/2022 8:30:00 PM 16.64 61.952 0.144 7.73 9.68 8.98
5/18/2022 8:45:00 PM 16.55 61.79 0.144 7.68 9.48 8.95
5/18/2022 9:00:00 PM 16.47 61.646 0.144 7.62 9.75 8.92
5/18/2022 9:15:00 PM 16.4 61.52 0.145 7.6 2.92 8.91
5/18/2022 9:30:00 PM 16.33 61.394 0.145 7.57 10.26 8.91
5/18/2022 9:45:00 PM 16.26 61.268 0.145 7.55 10.5 8.91
5/18/2022 10:00:00 PM 16.2 61.16 0.145 7.54 8.8 8.92
5/18/2022 10:15:00 PM 16.14 61.052 0.145 7.49 9.44 8.92
5/18/2022 10:30:00 PM 16.09 60.962 0.146 7.51 11.04 8.93
5/18/2022 10:45:00 PM 16.03 60.854 0.145 7.48 10.82 8.93
5/18/2022 11:00:00 PM 15.98 60.764 0.146 7.49 10.45 8.94
5/18/2022 11:15:00 PM 15.92 60.656 0.146 7.49 10.58 8.95
5/18/2022 11:30:00 PM 15.87 60.566 0.146 7.47 10.56 8.96
5/18/2022 11:45:00 PM 15.82 60.476 0.145 7.45 10.7 8.97
5/19/2022 12:00:00 AM 15.76 60.368 0.145 7.46 11.03 8.98
5/19/2022 12:15:00 AM 15.71 60.278 0.145 7.45 12.03 8.99
5/19/2022 12:30:00 AM 15.66 60.188 0.145 7.45 10.67 9
5/19/2022 12:45:00 AM 15.61 60.098 0.145 7.41 3.85 9.01
5/19/2022 1:00:00 AM 15.56 60.008 0.144 7.38 2.65 9.01
5/19/2022 1:15:00 AM 15.52 59.936 0.144 7.44 10.1 9.02
5/19/2022 1:30:00 AM 15.47 59.846 0.144 7.43 9.99 9.02
5/19/2022 1:45:00 AM 15.44 59.792 0.144 7.42 3.07 9.03
5/19/2022 2:00:00 AM 15.39 59.702 0.144 7.4 11.36 9.03
5/19/2022 2:15:00 AM 15.36 59.648 0.144 7.42 11.74 9.04
5/19/2022 2:30:00 AM 15.32 59.576 0.144 7.42 10.77 9.04
5/19/2022 2:45:00 AM 15.29 59.522 0.144 7.39 11.5 9.05
5/19/2022 3:00:00 AM 15.25 59.45 0.144 7.38 3.23 9.05
5/19/2022 3:15:00 AM 15.22 59.396 0.144 7.39 11.15 9.06
5/19/2022 3:30:00 AM 15.18 59.324 0.144 7.37 11.27 9.07
5/19/2022 3:45:00 AM 15.15 59.27 0.144 7.4 11.47 9.08
5/19/2022 4:00:00 AM 15.12 59.216 0.144 7.41 11.68 9.08
5/19/2022 4:15:00 AM 15.09 59.162 0.144 7.4 11.67 9.09
5/19/2022 4:30:00 AM 15.06 59.108 0.144 7.37 3.48 9.1
5/19/2022 4:45:00 AM 15.03 59.054 0.144 7.41 3.22 9.1
5/19/2022 5:00:00 AM 15 59 0.144 7.41 10.93 9.12
5/19/2022 5:15:00 AM 14.97 58.946 0.144 7.4 10.94 9.12
5/19/2022 5:30:00 AM 14.94 58.892 0.144 7.4 10.84 9.12
5/19/2022 5:45:00 AM 14.91 58.838 0.144 7.41 7.66 9.14
5/19/2022 6:00:00 AM 14.88 58.784 0.144 7.37 10.2 9.15
5/19/2022 6:15:00 AM 14.86 58.748 0.144 7.41 10.57 9.18
5/19/2022 6:30:00 AM 14.84 58.712 0.144 7.41 10.39 9.2
5/19/2022 6:45:00 AM 14.82 58.676 0.144 7.38 10.1 9.24
5/19/2022 7:00:00 AM 14.82 58.676 0.144 7.44 10.27 9.35
5/19/2022 7:15:00 AM 14.82 58.676 0.144 7.44 9.82 9.46
5/19/2022 7:30:00 AM 14.81 58.658 0.144 7.5 10.39 9.5
5/19/2022 7:45:00 AM 14.81 58.658 0.144 7.52 10.36 9.52
5/19/2022 8:00:00 AM 14.8 58.64 0.144 7.53 10.2 9.52
5/19/2022 8:15:00 AM 14.78 58.604 0.144 7.5 10.78 9.53
5/19/2022 8:30:00 AM 14.76 58.568 0.144 7.54 9.96 9.54
5/19/2022 8:45:00 AM 14.77 58.586 0.144 7.57 10.19 9.68
5/19/2022 9:00:00 AM 14.77 58.586 0.144 7.57 10.94 9.78
5/19/2022 9:15:00 AM 14.79 58.622 0.144 7.64 10.62 9.84
5/19/2022 9:30:00 AM 14.8 58.64 0.144 7.65 3.37 9.9
5/19/2022 9:45:00 AM 14.83 58.694 0.144 7.72 9.98 9.98
5/19/2022 10:00:00 AM 14.87 58.766 0.144 7.74 9.84 10.1
5/19/2022 10:15:00 AM 14.91 58.838 0.144 7.84 10.16 10.19
5/19/2022 10:30:00 AM 15 59 0.143 7.95 9.74 10.34
5/19/2022 10:45:00 AM 15.05 59.09 0.143 8 9.9 10.29
5/19/2022 11:00:00 AM 15.14 59.252 0.143 8.08 9.66 10.38
5/19/2022 11:15:00 AM 15.22 59.396 0.143 8.17 10 10.48
5/19/2022 11:30:00 AM 15.27 59.486 0.143 8.21 10.19 10.46
5/19/2022 11:45:00 AM 15.38 59.684 0.143 8.34 9.93 10.53
5/19/2022 12:00:00 PM 15.45 59.81 0.143 8.41 10.83 10.56
5/19/2022 12:15:00 PM 15.47 59.846 0.143 8.41 10.78 10.43
5/19/2022 12:30:00 PM 15.52 59.936 0.143 8.46 9.88 10.42
5/19/2022 12:45:00 PM 15.53 59.954 0.143 8.47 10.78 10.4
5/19/2022 1:00:00 PM 15.59 60.062 0.143 8.52 10.73 10.49
5/19/2022 1:15:00 PM 15.61 60.098 0.143 8.52 10.11 10.36
5/19/2022 1:30:00 PM 15.67 60.206 0.143 8.55 10.75 10.37
5/19/2022 1:45:00 PM 15.75 60.35 0.143 8.6 10 10.49
5/19/2022 2:00:00 PM 15.82 60.476 0.143 8.61 10.53 10.49
5/19/2022 2:15:00 PM 16.06 60.908 0.142 8.69 10.05 10.56
5/19/2022 2:30:00 PM 16.38 61.484 0.142 8.78 10.62 10.59
5/19/2022 2:45:00 PM 16.66 61.988 0.142 8.84 10.52 10.58
5/19/2022 3:00:00 PM 17.03 62.654 0.142 8.89 11.06 10.53
5/19/2022 3:15:00 PM 17.38 63.284 0.142 8.92 11.81 10.47
5/19/2022 3:30:00 PM 17.68 63.824 0.142 8.97 10.9 10.36
5/19/2022 3:45:00 PM 17.9 64.22 0.141 9 9.14 10.3
5/19/2022 4:00:00 PM 18.12 64.616 0.141 9.01 10.56 10.23
5/19/2022 4:15:00 PM 18.31 64.958 0.141 9.03 10.4 10.21
5/19/2022 4:30:00 PM 18.37 65.066 0.141 9.03 9.4 10.06
5/19/2022 4:45:00 PM 18.46 65.228 0.141 9.02 9.63 9.98
5/19/2022 5:00:00 PM 18.31 64.958 0.141 8.93 10.63 9.63
5/19/2022 5:15:00 PM 18.25 64.85 0.141 8.88 10.54 9.63
5/19/2022 5:30:00 PM 18.22 64.796 0.141 8.83 10.31 9.64
5/19/2022 5:45:00 PM 18.21 64.778 0.141 8.8 10.69 9.61
5/19/2022 6:00:00 PM 18.18 64.724 0.141 8.78 10.05 9.57
5/19/2022 6:15:00 PM 18.09 64.562 0.141 8.73 9.66 9.51
5/19/2022 6:30:00 PM 17.97 64.346 0.142 8.64 9.34 9.44
5/19/2022 6:45:00 PM 17.84 64.112 0.142 8.54 10.58 9.35
5/19/2022 7:00:00 PM 17.72 63.896 0.142 8.41 10.41 9.27
5/19/2022 7:15:00 PM 17.58 63.644 0.143 8.26 11.52 9.21
5/19/2022 7:30:00 PM 17.44 63.392 0.143 8.11 10.09 9.15
5/19/2022 7:45:00 PM 17.3 63.14 0.144 7.98 10.9 9.1
5/19/2022 8:00:00 PM 17.17 62.906 0.144 7.88 11.17 9.05
5/19/2022 8:15:00 PM 17.05 62.69 0.145 7.79 11.44 8.99
5/19/2022 8:30:00 PM 16.94 62.492 0.145 7.71 10.83 8.94
5/19/2022 8:45:00 PM 16.84 62.312 0.145 7.63 3.15 8.89
5/19/2022 9:00:00 PM 16.75 62.15 0.145 7.61 11.58 8.87
5/19/2022 9:15:00 PM 16.66 61.988 0.146 7.57 11.96 8.85
5/19/2022 9:30:00 PM 16.57 61.826 0.146 7.55 3.39 8.85
5/19/2022 9:45:00 PM 16.47 61.646 0.146 7.53 11.3 8.87
5/19/2022 10:00:00 PM 16.37 61.466 0.146 7.52 3.6 8.88
5/19/2022 10:15:00 PM 16.28 61.304 0.147 7.48 3.47 8.89
5/19/2022 10:30:00 PM 16.18 61.124 0.147 7.49 10.89 8.91
5/19/2022 10:45:00 PM 16.09 60.962 0.147 7.48 10.91 8.93
5/19/2022 11:00:00 PM 16 60.8 0.147 7.47 11.12 8.94
5/19/2022 11:15:00 PM 15.91 60.638 0.147 7.43 10.93 8.96
5/19/2022 11:30:00 PM 15.82 60.476 0.147 7.45 10.53 8.98
5/19/2022 11:45:00 PM 15.73 60.314 0.147 7.46 11.6 8.99
5/20/2022 12:00:00 AM 15.65 60.17 0.147 7.42 3.05 9.01
5/20/2022 12:15:00 AM 15.58 60.044 0.147 7.44 10.93 9.03
5/20/2022 12:30:00 AM 15.51 59.918 0.147 7.43 10.83 9.04
5/20/2022 12:45:00 AM 15.44 59.792 0.147 7.43 11.21 9.06
5/20/2022 1:00:00 AM 15.37 59.666 0.146 7.41 10.15 9.08
5/20/2022 1:15:00 AM 15.3 59.54 0.146 7.42 3.02 9.09
5/20/2022 1:30:00 AM 15.23 59.414 0.146 7.38 3.3 9.11
5/20/2022 1:45:00 AM 15.15 59.27 0.146 7.4 3.65 9.13
5/20/2022 2:00:00 AM 15.08 59.144 0.146 7.4 11.48 9.14
5/20/2022 2:15:00 AM 15 59 0.146 7.41 3.26 9.16
5/20/2022 2:30:00 AM 14.92 58.856 0.146 7.35 11.09 9.19
5/20/2022 2:45:00 AM 14.84 58.712 0.145 7.33 12.29 9.2
5/20/2022 3:00:00 AM 14.77 58.586 0.145 7.35 10.68 9.22
5/20/2022 3:15:00 AM 14.7 58.46 0.145 7.39 3.48 9.23
5/20/2022 3:30:00 AM 14.63 58.334 0.145 7.34 5.18 9.25
5/20/2022 3:45:00 AM 14.56 58.208 0.144 7.39 11.58 9.27
5/20/2022 4:00:00 AM 14.5 58.1 0.144 7.39 3.7 9.29
5/20/2022 4:15:00 AM 14.44 57.992 0.144 7.39 3.5 9.31
5/20/2022 4:30:00 AM 14.38 57.884 0.143 7.37 4.29 9.32
5/20/2022 4:45:00 AM 14.33 57.794 0.143 7.35 3.32 9.34
5/20/2022 5:00:00 AM 14.28 57.704 0.143 7.38 3.52 9.35
5/20/2022 5:15:00 AM 14.23 57.614 0.143 7.39 3.06 9.36
5/20/2022 5:30:00 AM 14.19 57.542 0.142 7.38 3.82 9.37
5/20/2022 5:45:00 AM 14.14 57.452 0.142 7.37 3.82 9.39
5/20/2022 6:00:00 AM 14.09 57.362 0.142 7.38 2.92 9.43
5/20/2022 6:15:00 AM 14.06 57.308 0.142 7.36 11.29 9.48
5/20/2022 6:30:00 AM 14.03 57.254 0.142 7.38 2.89 9.57
5/20/2022 6:45:00 AM 14.02 57.236 0.141 7.42 11.83 9.68
5/20/2022 7:00:00 AM 14.02 57.236 0.141 7.47 11.14 9.8
5/20/2022 7:15:00 AM 14.05 57.29 0.141 7.5 10.89 9.92
5/20/2022 7:30:00 AM 14.09 57.362 0.141 7.56 10.08 10.05
5/20/2022 7:45:00 AM 14.14 57.452 0.14 7.6 11.01 10.16
5/20/2022 8:00:00 AM 14.19 57.542 0.14 7.63 11.32 10.24
5/20/2022 8:15:00 AM 14.27 57.686 0.14 7.72 10.85 10.32
5/20/2022 8:30:00 AM 14.3 57.74 0.14 7.74 10.76 10.24
5/20/2022 8:45:00 AM 14.35 57.83 0.14 7.76 10.41 10.24
5/20/2022 9:00:00 AM 14.42 57.956 0.14 7.82 4.18 10.34
5/20/2022 9:15:00 AM 14.59 58.262 0.14 7.9 3.12 10.5
5/20/2022 9:30:00 AM 14.69 58.442 0.14 7.98 3.34 10.51
5/20/2022 9:45:00 AM 14.78 58.604 0.14 8.02 3.9 10.45
5/20/2022 10:00:00 AM 14.81 58.658 0.14 8 2.7 10.42
5/20/2022 10:15:00 AM 14.89 58.802 0.14 8.09 2.56 10.49
5/20/2022 10:30:00 AM 14.97 58.946 0.14 8.14 3.02 10.49
5/20/2022 10:45:00 AM 15.08 59.144 0.14 8.22 3.22 10.54
5/20/2022 11:00:00 AM 15.12 59.216 0.141 8.23 11.32 10.41
5/20/2022 11:15:00 AM 15.21 59.378 0.141 8.27 10.71 10.47
5/20/2022 11:30:00 AM 15.32 59.576 0.141 8.34 3.04 10.56
5/20/2022 11:45:00 AM 15.42 59.756 0.141 8.39 3.36 10.52
5/20/2022 12:00:00 PM 15.48 59.864 0.141 8.35 10.73 10.35
5/20/2022 12:15:00 PM 15.57 60.026 0.141 8.42 11.22 10.44
5/20/2022 12:30:00 PM 15.71 60.278 0.141 8.48 11.61 10.56
5/20/2022 12:45:00 PM 15.94 60.692 0.141 8.57 10.71 10.64
5/20/2022 1:00:00 PM 16.23 61.214 0.14 8.67 11.51 10.68
5/20/2022 1:15:00 PM 16.62 61.916 0.14 8.76 9.58 10.69
5/20/2022 1:30:00 PM 16.96 62.528 0.14 8.82 11.21 10.67
5/20/2022 1:45:00 PM 17.3 63.14 0.14 8.89 10.64 10.61
5/20/2022 2:00:00 PM 17.49 63.482 0.14 8.92 10.43 10.48
5/20/2022 2:15:00 PM 17.63 63.734 0.14 8.94 6.23 10.36
5/20/2022 2:30:00 PM 17.64 63.752 0.14 8.91 11.12 10.22
5/20/2022 2:45:00 PM 17.79 64.022 0.14 8.95 9.87 10.29
5/20/2022 3:00:00 PM 17.88 64.184 0.14 8.97 10.05 10.28
5/20/2022 3:15:00 PM 17.93 64.274 0.14 8.98 10.58 10.22
5/20/2022 3:30:00 PM 17.95 64.31 0.14 9 10.43 10.2
5/20/2022 3:45:00 PM 17.98 64.364 0.139 9.02 10.31 10.19
5/20/2022 4:00:00 PM 18.04 64.472 0.139 9.03 10.7 10.12
5/20/2022 4:15:00 PM 18.08 64.544 0.139 9.01 10.83 9.99
5/20/2022 4:30:00 PM 18.11 64.598 0.139 9.01 10.75 9.9
5/20/2022 4:45:00 PM 18.1 64.58 0.139 8.97 10.36 9.83
5/20/2022 5:00:00 PM 18.07 64.526 0.139 8.92 11.31 9.72
5/20/2022 5:15:00 PM 18.02 64.436 0.139 8.84 11.05 9.53
5/20/2022 5:30:00 PM 17.97 64.346 0.138 8.72 9.98 9.36
5/20/2022 5:45:00 PM 17.88 64.184 0.138 8.54 9.89 9.2
5/20/2022 6:00:00 PM 17.8 64.04 0.138 8.34 10.98 9.1
5/20/2022 6:15:00 PM 17.73 63.914 0.138 8.15 11.65 9.05
5/20/2022 6:30:00 PM 17.67 63.806 0.138 8.01 11.16 9.03
5/20/2022 6:45:00 PM 17.63 63.734 0.138 7.91 2.84 9.04
5/20/2022 7:00:00 PM 17.6 63.68 0.138 7.86 3.44 9.05
5/20/2022 7:15:00 PM 17.56 63.608 0.139 7.81 3.91 9.02
5/20/2022 7:30:00 PM 17.53 63.554 0.139 7.77 3.57 8.98
5/20/2022 7:45:00 PM 17.49 63.482 0.139 7.7 3.78 8.95
5/20/2022 8:00:00 PM 17.45 63.41 0.139 7.66 3.21 8.93
5/20/2022 8:15:00 PM 17.4 63.32 0.14 7.61 3.34 8.89
5/20/2022 8:30:00 PM 17.34 63.212 0.14 7.57 11.84 8.85
5/20/2022 8:45:00 PM 17.28 63.104 0.14 7.54 11.7 8.81
5/20/2022 9:00:00 PM 17.23 63.014 0.14 7.52 3.22 8.79
5/20/2022 9:15:00 PM 17.18 62.924 0.14 7.43 3.59 8.78
5/20/2022 9:30:00 PM 17.13 62.834 0.14 7.47 3.62 8.77
5/20/2022 9:45:00 PM 17.08 62.744 0.14 7.45 11.26 8.77
5/20/2022 10:00:00 PM 17.04 62.672 0.14 7.42 3.54 8.76
5/20/2022 10:15:00 PM 16.99 62.582 0.14 7.42 4.34 8.76
5/20/2022 10:30:00 PM 16.95 62.51 0.14 7.37 3.89 8.77
5/20/2022 10:45:00 PM 16.91 62.438 0.14 7.35 3.15 8.77
5/20/2022 11:00:00 PM 16.87 62.366 0.141 7.35 3.1 8.78
5/20/2022 11:15:00 PM 16.82 62.276 0.141 7.37 2.92 8.79
5/20/2022 11:30:00 PM 16.79 62.222 0.141 7.39 3.71 8.79
5/20/2022 11:45:00 PM 16.75 62.15 0.141 7.37 3.88 8.8
5/21/2022 12:00:00 AM 16.72 62.096 0.141 7.39 3.87 8.81
5/21/2022 12:15:00 AM 16.69 62.042 0.141 7.37 5.19 8.81
5/21/2022 12:30:00 AM 16.67 62.006 0.141 7.38 4.07 8.82
5/21/2022 12:45:00 AM 16.65 61.97 0.142 7.37 3.41 8.82
5/21/2022 1:00:00 AM 16.63 61.934 0.142 7.37 4.11 8.83
5/21/2022 1:15:00 AM 16.61 61.898 0.141 7.36 3.86 8.84
5/21/2022 1:30:00 AM 16.58 61.844 0.141 7.34 6.42 8.84
5/21/2022 1:45:00 AM 16.56 61.808 0.141 7.35 3.99 8.84
5/21/2022 2:00:00 AM 16.53 61.754 0.141 7.26 4.03 8.85
5/21/2022 2:15:00 AM 16.51 61.718 0.141 7.34 4.35 8.85
5/21/2022 2:30:00 AM 16.48 61.664 0.141 7.35 4.34 8.86
5/21/2022 2:45:00 AM 16.45 61.61 0.141 7.35 4.13 8.87
5/21/2022 3:00:00 AM 16.42 61.556 0.141 7.33 4.57 8.87
5/21/2022 3:15:00 AM 16.39 61.502 0.14 7.3 4.81 8.88
5/21/2022 3:30:00 AM 16.36 61.448 0.141 7.34 4.17 8.89
5/21/2022 3:45:00 AM 16.32 61.376 0.141 7.34 3.96 8.9
5/21/2022 4:00:00 AM 16.29 61.322 0.141 7.32 3.62 8.91
5/21/2022 4:15:00 AM 16.25 61.25 0.141 7.33 4.14 8.91
5/21/2022 4:30:00 AM 16.22 61.196 0.141 7.34 4.05 8.92
5/21/2022 4:45:00 AM 16.19 61.142 0.141 7.32 3.91 8.93
5/21/2022 5:00:00 AM 16.16 61.088 0.141 7.34 6 8.94
5/21/2022 5:15:00 AM 16.13 61.034 0.141 7.32 3.57 8.95
5/21/2022 5:30:00 AM 16.1 60.98 0.142 7.34 4.17 8.95
5/21/2022 5:45:00 AM 16.08 60.944 0.142 7.31 3.35 8.96
5/21/2022 6:00:00 AM 16.05 60.89 0.142 7.33 3.89 8.98
5/21/2022 6:15:00 AM 16.03 60.854 0.142 7.31 3.71 9.03
5/21/2022 6:30:00 AM 16.01 60.818 0.142 7.3 4.56 9.08
5/21/2022 6:45:00 AM 16.01 60.818 0.143 7.37 3.63 9.17
5/21/2022 7:00:00 AM 16 60.8 0.143 7.39 4.4 9.24
5/21/2022 7:15:00 AM 16.02 60.836 0.143 7.41 4.03 9.35
5/21/2022 7:30:00 AM 16.05 60.89 0.143 7.47 3.53 9.5
5/21/2022 7:45:00 AM 16.09 60.962 0.143 7.5 3.09 9.63
5/21/2022 8:00:00 AM 16.16 61.088 0.143 7.59 9.38 9.79
5/21/2022 8:15:00 AM 16.26 61.268 0.143 7.66 9.03 9.94
5/21/2022 8:30:00 AM 16.38 61.484 0.143 7.74 9.33 10.05
5/21/2022 8:45:00 AM 16.53 61.754 0.143 7.81 8.71 10.14
5/21/2022 9:00:00 AM 16.68 62.024 0.143 7.87 8.66 10.21
5/21/2022 9:15:00 AM 16.83 62.294 0.143 7.94 8.33 10.26
5/21/2022 9:30:00 AM 17 62.6 0.143 8.04 7.72 10.31
5/21/2022 9:45:00 AM 17.18 62.924 0.143 8.13 7.75 10.34
5/21/2022 10:00:00 AM 17.37 63.266 0.143 8.25 7.8 10.37
5/21/2022 10:15:00 AM 17.59 63.662 0.143 8.36 7.75 10.4
5/21/2022 10:30:00 AM 17.85 64.13 0.143 8.44 9.33 10.42
5/21/2022 10:45:00 AM 18.1 64.58 0.143 8.53 5.86 10.43
5/21/2022 11:00:00 AM 18.38 65.084 0.143 8.61 6.48 10.42
5/21/2022 11:15:00 AM 18.68 65.624 0.143 8.68 7.31 10.4
5/21/2022 11:30:00 AM 19 66.2 0.142 8.75 6.62 10.38
5/21/2022 11:45:00 AM 19.32 66.776 0.142 8.81 6.02 10.35
5/21/2022 12:00:00 PM 19.65 67.37 0.142 8.85 6.82 10.3
5/21/2022 12:15:00 PM 20.01 68.018 0.142 8.91 7.83 10.26
5/21/2022 12:30:00 PM 20.39 68.702 0.142 8.96 6.83 10.22
5/21/2022 12:45:00 PM 20.75 69.35 0.141 8.99 6.54 10.14
5/21/2022 1:00:00 PM 21.12 70.016 0.141 9.04 6.33 10.08
5/21/2022 1:15:00 PM 21.48 70.664 0.141 9.06 5.8 10.01
5/21/2022 1:30:00 PM 21.82 71.276 0.141 9.11 6.1 9.94
5/21/2022 1:45:00 PM 22.14 71.852 0.141 9.12 5.67 9.87
5/21/2022 2:00:00 PM 22.45 72.41 0.141 9.16 5.3 9.78
5/21/2022 2:15:00 PM 22.75 72.95 0.141 9.18 5.26 9.71
5/21/2022 2:30:00 PM 23.03 73.454 0.141 9.2 5.83 9.63
5/21/2022 2:45:00 PM 23.27 73.886 0.141 9.21 5.75 9.55
5/21/2022 3:00:00 PM 23.47 74.246 0.141 9.22 6.57 9.46
5/21/2022 3:15:00 PM 23.65 74.57 0.141 9.23 6.28 9.39
5/21/2022 3:30:00 PM 23.82 74.876 0.141 9.24 5.71 9.34
5/21/2022 3:45:00 PM 23.94 75.092 0.141 9.24 6.6 9.23
5/21/2022 4:00:00 PM 24 75.2 0.141 9.22 5.75 9.13
5/21/2022 4:15:00 PM 24 75.2 0.141 9.21 5.18 9.06
5/21/2022 4:30:00 PM 24 75.2 0.141 9.19 7.26 9.01
5/21/2022 4:45:00 PM 23.96 75.128 0.141 9.16 5.71 8.96
5/21/2022 5:00:00 PM 23.91 75.038 0.141 9.13 10.13 8.88
5/21/2022 5:15:00 PM 23.84 74.912 0.141 9.1 6.35 8.82
5/21/2022 5:30:00 PM 23.7 74.66 0.142 9.06 6.9 8.75
5/21/2022 5:45:00 PM 23.53 74.354 0.142 9 6.67 8.64
5/21/2022 6:00:00 PM 23.35 74.03 0.142 8.92 4.98 8.56
5/21/2022 6:15:00 PM 23.21 73.778 0.142 8.85 6 8.52
5/21/2022 6:30:00 PM 23.07 73.526 0.142 8.76 7.47 8.46
5/21/2022 6:45:00 PM 22.94 73.292 0.143 8.68 6.11 8.42
5/21/2022 7:00:00 PM 22.8 73.04 0.143 8.56 5.52 8.36
5/21/2022 7:15:00 PM 22.66 72.788 0.144 8.4 5.35 8.28
5/21/2022 7:30:00 PM 22.52 72.536 0.144 8.24 5.33 8.22
5/21/2022 7:45:00 PM 22.38 72.284 0.145 8.05 5.81 8.16
5/21/2022 8:00:00 PM 22.24 72.032 0.145 7.91 6.01 8.09
5/21/2022 8:15:00 PM 22.1 71.78 0.145 7.77 5.41 8.02
5/21/2022 8:30:00 PM 21.97 71.546 0.146 7.68 5.42 7.96
5/21/2022 8:45:00 PM 21.85 71.33 0.146 7.6 6.18 7.93
5/21/2022 9:00:00 PM 21.75 71.15 0.146 7.56 6.11 7.9
5/21/2022 9:15:00 PM 21.66 70.988 0.146 7.49 7.14 7.89
5/21/2022 9:30:00 PM 21.58 70.844 0.146 7.47 5.62 7.87
5/21/2022 9:45:00 PM 21.51 70.718 0.146 7.43 5.74 7.88
5/21/2022 10:00:00 PM 21.45 70.61 0.146 7.44 6.55 7.88
5/21/2022 10:15:00 PM 21.39 70.502 0.146 7.41 6.62 7.88
5/21/2022 10:30:00 PM 21.34 70.412 0.147 7.41 5.7 7.89
5/21/2022 10:45:00 PM 21.29 70.32201 0.146 7.4 5.7 7.9
5/21/2022 11:00:00 PM 21.24 70.232 0.147 7.36 5.37 7.89
5/21/2022 11:15:00 PM 21.2 70.16 0.147 7.33 5.98 7.91
5/21/2022 11:30:00 PM 21.15 70.07 0.147 7.32 6.35 7.91
5/21/2022 11:45:00 PM 21.11 69.998 0.147 7.36 6.62 7.92
5/22/2022 12:00:00 AM 21.06 69.908 0.147 7.37 6.49 7.93
5/22/2022 12:15:00 AM 21.01 69.818 0.147 7.36 5.81 7.93
5/22/2022 12:30:00 AM 20.97 69.746 0.147 7.36 5.28 7.94
5/22/2022 12:45:00 AM 20.93 69.674 0.147 7.36 8.45 7.95
5/22/2022 1:00:00 AM 20.89 69.602 0.147 7.34 6.24 7.95
5/22/2022 1:15:00 AM 20.84 69.512 0.147 7.35 5.51 7.97
5/22/2022 1:30:00 AM 20.79 69.422 0.147 7.35 6.38 7.97
5/22/2022 1:45:00 AM 20.74 69.332 0.147 7.34 5.8 7.99
5/22/2022 2:00:00 AM 20.7 69.26 0.147 7.28 5.31 7.99
5/22/2022 2:15:00 AM 20.66 69.188 0.147 7.3 6.28 8.01
5/22/2022 2:30:00 AM 20.62 69.116 0.147 7.33 6.67 8.01
5/22/2022 2:45:00 AM 20.58 69.044 0.148 7.31 5.66 8.02
5/22/2022 3:00:00 AM 20.53 68.954 0.148 7.33 5.86 8.03
5/22/2022 3:15:00 AM 20.49 68.882 0.148 7.33 6.4 8.03
5/22/2022 3:30:00 AM 20.44 68.792 0.148 7.31 6.43 8.04
5/22/2022 3:45:00 AM 20.39 68.702 0.148 7.34 5.66 8.05
5/22/2022 4:00:00 AM 20.33 68.594 0.148 7.34 7.14 8.06
5/22/2022 4:15:00 AM 20.26 68.468 0.148 7.35 7.22 8.08
5/22/2022 4:30:00 AM 20.19 68.342 0.148 7.35 6.33 8.08
5/22/2022 4:45:00 AM 20.12 68.216 0.147 7.29 6.8 8.1
5/22/2022 5:00:00 AM 20.04 68.07201 0.147 7.33 6.29 8.11
5/22/2022 5:15:00 AM 19.97 67.946 0.147 7.3 6.82 8.13
5/22/2022 5:30:00 AM 19.89 67.802 0.147 7.28 5.77 8.14
5/22/2022 5:45:00 AM 19.82 67.676 0.147 7.29 5.7 8.17
5/22/2022 6:00:00 AM 19.74 67.532 0.147 7.34 6.42 8.2
5/22/2022 6:15:00 AM 19.7 67.46 0.147 7.35 6.41 8.28
5/22/2022 6:30:00 AM 19.67 67.406 0.147 7.31 6.45 8.38
5/22/2022 6:45:00 AM 19.64 67.352 0.147 7.4 5.99 8.46
5/22/2022 7:00:00 AM 19.63 67.334 0.146 7.37 6.61 8.56
5/22/2022 7:15:00 AM 19.63 67.334 0.146 7.47 7.45 8.7
5/22/2022 7:30:00 AM 19.62 67.316 0.146 7.47 6.13 8.77
5/22/2022 7:45:00 AM 19.68 67.424 0.146 7.58 7.43 9
5/22/2022 8:00:00 AM 19.75 67.55 0.146 7.64 7.53 9.15
5/22/2022 8:15:00 AM 19.81 67.658 0.146 7.67 5.65 9.19
5/22/2022 8:30:00 AM 19.93 67.874 0.145 7.74 5.73 9.33
5/22/2022 8:45:00 AM 20.04 68.07201 0.145 7.88 6.83 9.44
5/22/2022 9:00:00 AM 20.15 68.27 0.145 7.98 6.02 9.51
5/22/2022 9:15:00 AM 20.27 68.486 0.145 8.04 5.82 9.53
5/22/2022 9:30:00 AM 20.44 68.792 0.145 8.09 5.61 9.63
5/22/2022 9:45:00 AM 20.52 68.936 0.145 8.17 6.2 9.63
5/22/2022 10:00:00 AM 20.6 69.08 0.145 8.31 6.44 9.67
5/22/2022 10:15:00 AM 20.66 69.188 0.144 8.37 4.98 9.68
5/22/2022 10:30:00 AM 20.69 69.242 0.144 8.43 6.04 9.62
5/22/2022 10:45:00 AM 20.75 69.35 0.144 8.47 5.52 9.61
5/22/2022 11:00:00 AM 20.85 69.53 0.144 8.52 5.98 9.69
5/22/2022 11:15:00 AM 20.99 69.782 0.144 8.62 5.31 9.77
5/22/2022 11:30:00 AM 21.14 70.052 0.143 8.67 5.2 9.8
5/22/2022 11:45:00 AM 21.44 70.592 0.143 8.76 5.44 9.83
5/22/2022 12:00:00 PM 21.6 70.88 0.143 8.82 5.47 9.81
5/22/2022 12:15:00 PM 21.85 71.33 0.143 8.87 5.39 9.81
5/22/2022 12:30:00 PM 22.25 72.05 0.143 8.94 5.5 9.8
5/22/2022 12:45:00 PM 22.6 72.68 0.142 8.98 5.73 9.73
5/22/2022 1:00:00 PM 22.98 73.364 0.142 9.02 5.75 9.67
5/22/2022 1:15:00 PM 23.35 74.03 0.142 9.08 4.98 9.6
5/22/2022 1:30:00 PM 23.69 74.642 0.142 9.09 5.3 9.54
5/22/2022 1:45:00 PM 23.93 75.074 0.142 9.13 6.11 9.46
5/22/2022 2:00:00 PM 24.21 75.578 0.142 9.15 5.22 9.42
5/22/2022 2:15:00 PM 24.38 75.884 0.142 9.17 6.04 9.32
5/22/2022 2:30:00 PM 24.42 75.956 0.142 9.16 6.13 9.16
5/22/2022 2:45:00 PM 24.48 76.064 0.142 9.15 5.07 9.08
5/22/2022 3:00:00 PM 24.61 76.298 0.142 9.17 6.29 9.13
5/22/2022 3:15:00 PM 24.55 76.19 0.142 9.15 5.13 8.96
5/22/2022 3:30:00 PM 24.45 76.01 0.142 9.08 4.33 8.54
5/22/2022 3:45:00 PM 24.38 75.884 0.142 9.05 5.2 8.6
5/22/2022 4:00:00 PM 24.16 75.488 0.142 8.99 5.81 8.61
5/22/2022 4:15:00 PM 24.06 75.308 0.142 8.96 5.95 8.7
5/22/2022 4:30:00 PM 23.95 75.11 0.142 8.91 5.71 8.53
5/22/2022 4:45:00 PM 23.83 74.894 0.142 8.85 4.94 8.26
5/22/2022 5:00:00 PM 23.63 74.534 0.142 8.73 5.87 8.19
5/22/2022 5:15:00 PM 23.54 74.372 0.143 8.65 5.69 8.35
5/22/2022 5:30:00 PM 23.49 74.282 0.143 8.57 6.24 8.47
5/22/2022 5:45:00 PM 23.44 74.192 0.142 8.57 6.38 8.45
5/22/2022 6:00:00 PM 23.38 74.084 0.143 8.53 5.92 8.4
5/22/2022 6:15:00 PM 23.26 73.868 0.144 8.46 5.68 8.23
5/22/2022 6:30:00 PM 23.07 73.526 0.144 8.3 6.67 8.11
5/22/2022 6:45:00 PM 22.88 73.184 0.145 8.13 6.37 8.14
5/22/2022 7:00:00 PM 22.7 72.86 0.146 7.97 6.33 8.11
5/22/2022 7:15:00 PM 22.53 72.554 0.146 7.91 7.38 8.15
5/22/2022 7:30:00 PM 22.37 72.266 0.146 7.85 5.79 8.15
5/22/2022 7:45:00 PM 22.2 71.96 0.147 7.8 5.91 8.16
5/22/2022 8:00:00 PM 22.04 71.672 0.147 7.76 6.06 8.13
5/22/2022 8:15:00 PM 21.89 71.402 0.147 7.69 7.74 8.07
5/22/2022 8:30:00 PM 21.73 71.114 0.147 7.6 5.93 8.03
5/22/2022 8:45:00 PM 21.57 70.826 0.147 7.57 6.94 8
5/22/2022 9:00:00 PM 21.42 70.556 0.147 7.56 6.03 7.98
5/22/2022 9:15:00 PM 21.27 70.286 0.147 7.54 7.07 7.98
5/22/2022 9:30:00 PM 21.11 69.998 0.148 7.52 7.12 7.99
5/22/2022 9:45:00 PM 20.96 69.728 0.148 7.5 7.58 8.01
5/22/2022 10:00:00 PM 20.82 69.476 0.148 7.48 7.3 8.02
5/22/2022 10:15:00 PM 20.67 69.206 0.148 7.47 6.95 8.05
5/22/2022 10:30:00 PM 20.53 68.954 0.148 7.47 6.2 8.07
5/22/2022 10:45:00 PM 20.41 68.738 0.148 7.46 6.8 8.09
5/22/2022 11:00:00 PM 20.29 68.522 0.148 7.44 7.01 8.11
5/22/2022 11:15:00 PM 20.16 68.288 0.148 7.41 6.8 8.14
5/22/2022 11:30:00 PM 20.04 68.07201 0.148 7.36 6.71 8.16
5/22/2022 11:45:00 PM 19.9 67.82 0.148 7.44 7 8.19
5/23/2022 12:00:00 AM 19.77 67.586 0.148 7.43 6.98 8.21
5/23/2022 12:15:00 AM 19.64 67.352 0.148 7.43 7.91 8.23
5/23/2022 12:30:00 AM 19.49 67.082 0.148 7.43 7.14 8.26
5/23/2022 12:45:00 AM 19.36 66.848 0.148 7.42 6.91 8.29
5/23/2022 1:00:00 AM 19.23 66.614 0.148 7.34 6.95 8.32
5/23/2022 1:15:00 AM 19.1 66.38 0.148 7.32 6.2 8.34
5/23/2022 1:30:00 AM 18.97 66.146 0.148 7.41 6.81 8.37
5/23/2022 1:45:00 AM 18.84 65.912 0.149 7.35 7.3 8.4
5/23/2022 2:00:00 AM 18.73 65.714 0.148 7.35 6.78 8.43
5/23/2022 2:15:00 AM 18.61 65.498 0.148 7.4 6.98 8.46
5/23/2022 2:30:00 AM 18.49 65.282 0.148 7.43 6.99 8.48
5/23/2022 2:45:00 AM 18.38 65.084 0.148 7.38 6.95 8.51
5/23/2022 3:00:00 AM 18.27 64.886 0.148 7.37 8.65 8.53
5/23/2022 3:15:00 AM 18.16 64.688 0.148 7.32 7.4 8.55
5/23/2022 3:30:00 AM 18.06 64.508 0.148 7.31 7.45 8.58
5/23/2022 3:45:00 AM 17.96 64.328 0.147 7.4 8.4 8.6
5/23/2022 4:00:00 AM 17.86 64.148 0.147 7.37 7.6 8.63
5/23/2022 4:15:00 AM 17.77 63.986 0.147 7.3 7.68 8.64
5/23/2022 4:30:00 AM 17.68 63.824 0.147 7.36 7.45 8.66
5/23/2022 4:45:00 AM 17.61 63.698 0.147 7.39 7.01 8.69
5/23/2022 5:00:00 AM 17.53 63.554 0.147 7.37 8.51 8.7
5/23/2022 5:15:00 AM 17.45 63.41 0.147 7.37 8.17 8.72
5/23/2022 5:30:00 AM 17.36 63.248 0.147 7.36 8.38 8.72
5/23/2022 5:45:00 AM 17.28 63.104 0.146 7.37 8.97 8.76
5/23/2022 6:00:00 AM 17.19 62.942 0.146 7.38 8.47 8.8
5/23/2022 6:15:00 AM 17.11 62.798 0.146 7.4 8.5 8.86
5/23/2022 6:30:00 AM 17.04 62.672 0.146 7.35 7.51 8.94
5/23/2022 6:45:00 AM 16.98 62.564 0.146 7.43 7.14 9.04
5/23/2022 7:00:00 AM 16.94 62.492 0.146 7.46 8.09 9.13
5/23/2022 7:15:00 AM 16.89 62.402 0.145 7.5 8.08 9.25
5/23/2022 7:30:00 AM 16.86 62.348 0.145 7.53 7.88 9.34
5/23/2022 7:45:00 AM 16.85 62.33 0.145 7.56 7.41 9.48
5/23/2022 8:00:00 AM 16.82 62.276 0.145 7.61 8.82 9.5
5/23/2022 8:15:00 AM 16.83 62.294 0.145 7.66 7.71 9.61
5/23/2022 8:30:00 AM 16.84 62.312 0.145 7.69 6.82 9.7
5/23/2022 8:45:00 AM 16.88 62.384 0.145 7.72 7.25 9.82
5/23/2022 9:00:00 AM 17.03 62.654 0.144 7.85 6.74 9.92
5/23/2022 9:15:00 AM 17.23 63.014 0.144 7.95 7.76 10
5/23/2022 9:30:00 AM 17.35 63.23 0.144 8.02 7.26 10.02
5/23/2022 9:45:00 AM 17.39 63.302 0.144 8.01 7.15 10.04
5/23/2022 10:00:00 AM 17.48 63.464 0.144 8.13 7.01 10.09
5/23/2022 10:15:00 AM 17.53 63.554 0.143 8.18 6.45 10.08
5/23/2022 10:30:00 AM 17.52 63.536 0.144 8.19 7.53 10.07
5/23/2022 10:45:00 AM 17.68 63.824 0.143 8.25 7.01 10.16
5/23/2022 11:00:00 AM 17.83 64.094 0.143 8.32 6.72 10.17
5/23/2022 11:15:00 AM 17.99 64.382 0.143 8.44 6.19 10.23
5/23/2022 11:30:00 AM 18.19 64.742 0.143 8.52 6.58 10.27
5/23/2022 11:45:00 AM 18.42 65.156 0.143 8.6 6.96 10.27
5/23/2022 12:00:00 PM 18.7 65.66 0.142 8.64 7.11 10.23
5/23/2022 12:15:00 PM 18.93 66.074 0.142 8.74 6.44 10.24
5/23/2022 12:30:00 PM 19.15 66.47 0.142 8.8 6.07 10.21
5/23/2022 12:45:00 PM 19.33 66.794 0.142 8.86 6.96 10.16
5/23/2022 1:00:00 PM 19.42 66.956 0.142 8.9 6.67 10.1
5/23/2022 1:15:00 PM 19.55 67.19 0.142 8.95 6.61 10.11
5/23/2022 1:30:00 PM 19.68 67.424 0.142 8.99 7.42 10.1
5/23/2022 1:45:00 PM 19.77 67.586 0.142 9.02 7.07 10.06
5/23/2022 2:00:00 PM 19.81 67.658 0.142 9.01 6.48 10
5/23/2022 2:15:00 PM 19.9 67.82 0.142 9.04 7.01 9.99
5/23/2022 2:30:00 PM 19.95 67.91 0.143 9.08 8.38 9.97
5/23/2022 2:45:00 PM 19.96 67.92799 0.143 9.08 6.59 9.88
5/23/2022 3:00:00 PM 19.97 67.946 0.143 9.09 6.96 9.82
5/23/2022 3:15:00 PM 19.93 67.874 0.143 9.07 6.32 9.76
5/23/2022 3:30:00 PM 19.92 67.856 0.143 9.07 6.5 9.77
5/23/2022 3:45:00 PM 19.86 67.748 0.143 9.08 8.16 9.72
5/23/2022 4:00:00 PM 19.79 67.622 0.143 9.05 6.25 9.68
5/23/2022 4:15:00 PM 19.69 67.442 0.143 9.02 8.05 9.6
5/23/2022 4:30:00 PM 19.59 67.262 0.142 9.01 6.86 9.55
5/23/2022 4:45:00 PM 19.51 67.118 0.142 8.98 6.99 9.53
5/23/2022 5:00:00 PM 19.43 66.974 0.142 8.92 7.09 9.49
5/23/2022 5:15:00 PM 19.34 66.812 0.142 8.91 6.63 9.44
5/23/2022 5:30:00 PM 19.27 66.686 0.142 8.85 6.84 9.42
5/23/2022 5:45:00 PM 19.2 66.56 0.142 8.83 6.91 9.4
5/23/2022 6:00:00 PM 19.15 66.47 0.142 8.77 7.51 9.35
5/23/2022 6:15:00 PM 19.08 66.344 0.142 8.7 6.92 9.29
5/23/2022 6:30:00 PM 19.02 66.236 0.142 8.6 6.88 9.22
5/23/2022 6:45:00 PM 18.95 66.11 0.142 8.52 6.69 9.15
5/23/2022 7:00:00 PM 18.88 65.984 0.142 8.38 6.69 9.07
5/23/2022 7:15:00 PM 18.8 65.84 0.142 8.25 7.25 9
5/23/2022 7:30:00 PM 18.73 65.714 0.142 8.1 7.6 8.92
5/23/2022 7:45:00 PM 18.65 65.57 0.142 7.94 7.23 8.86
5/23/2022 8:00:00 PM 18.58 65.444 0.142 7.85 6.87 8.8
5/23/2022 8:15:00 PM 18.5 65.3 0.142 7.76 7.05 8.76
5/23/2022 8:30:00 PM 18.42 65.156 0.143 7.7 7.32 8.72
5/23/2022 8:45:00 PM 18.34 65.012 0.143 7.65 7.27 8.7
5/23/2022 9:00:00 PM 18.26 64.868 0.143 7.55 6.62 8.68
5/23/2022 9:15:00 PM 18.19 64.742 0.143 7.56 7.44 8.67
5/23/2022 9:30:00 PM 18.11 64.598 0.143 7.53 6.03 8.67
5/23/2022 9:45:00 PM 18.04 64.472 0.143 7.53 7.13 8.67
5/23/2022 10:00:00 PM 17.97 64.346 0.143 7.51 7.42 8.68
5/23/2022 10:15:00 PM 17.9 64.22 0.142 7.46 8.67 8.68
5/23/2022 10:30:00 PM 17.84 64.112 0.142 7.48 7.24 8.69
5/23/2022 10:45:00 PM 17.78 64.004 0.142 7.47 7.04 8.7
5/23/2022 11:00:00 PM 17.72 63.896 0.142 7.4 7.35 8.71
5/23/2022 11:15:00 PM 17.66 63.788 0.142 7.46 7.03 8.72
5/23/2022 11:30:00 PM 17.59 63.662 0.142 7.44 7.16 8.73
5/23/2022 11:45:00 PM 17.53 63.554 0.142 7.37 7.99 8.74
5/24/2022 12:00:00 AM 17.46 63.428 0.142 7.43 7.23 8.75
5/24/2022 12:15:00 AM 17.39 63.302 0.142 7.43 7.23 8.77
5/24/2022 12:30:00 AM 17.33 63.194 0.142 7.39 7.36 8.78
5/24/2022 12:45:00 AM 17.27 63.086 0.142 7.42 7.21 8.8
5/24/2022 1:00:00 AM 17.21 62.978 0.142 7.4 6.68 8.81
5/24/2022 1:15:00 AM 17.15 62.87 0.142 7.35 7.27 8.81
5/24/2022 1:30:00 AM 17.09 62.762 0.142 7.37 7.05 8.83
5/24/2022 1:45:00 AM 17.03 62.654 0.141 7.35 7.45 8.85
5/24/2022 2:00:00 AM 16.97 62.546 0.141 7.35 8.23 8.85
5/24/2022 2:15:00 AM 16.9 62.42 0.142 7.33 7.86 8.87
5/24/2022 2:30:00 AM 16.82 62.276 0.142 7.37 7.51 8.89
5/24/2022 2:45:00 AM 16.75 62.15 0.142 7.35 7.34 8.9
5/24/2022 3:00:00 AM 16.67 62.006 0.142 7.32 7.33 8.92
5/24/2022 3:15:00 AM 16.6 61.88 0.142 7.34 7.1 8.93
5/24/2022 3:30:00 AM 16.53 61.754 0.142 7.32 7.12 8.95
5/24/2022 3:45:00 AM 16.46 61.628 0.142 7.39 7.25 8.97
5/24/2022 4:00:00 AM 16.38 61.484 0.142 7.31 8.03 8.98
5/24/2022 4:15:00 AM 16.3 61.34 0.142 7.35 7.11 9
5/24/2022 4:30:00 AM 16.22 61.196 0.142 7.36 7.37 9.01
5/24/2022 4:45:00 AM 16.14 61.052 0.143 7.38 7.7 9.04
5/24/2022 5:00:00 AM 16.07 60.926 0.143 7.37 7.45 9.04
5/24/2022 5:15:00 AM 16.01 60.818 0.143 7.38 8.33 9.07
5/24/2022 5:30:00 AM 15.95 60.71 0.143 7.37 9.63 9.09
5/24/2022 5:45:00 AM 15.87 60.566 0.143 7.38 7.9 9.1
5/24/2022 6:00:00 AM 15.79 60.422 0.144 7.35 7.09 9.14
5/24/2022 6:15:00 AM 15.72 60.296 0.144 7.39 7.01 9.19
5/24/2022 6:30:00 AM 15.66 60.188 0.144 7.38 8.24 9.26
5/24/2022 6:45:00 AM 15.63 60.134 0.144 7.42 8.17 9.34
5/24/2022 7:00:00 AM 15.6 60.08 0.144 7.46 7.85 9.44
5/24/2022 7:15:00 AM 15.6 60.08 0.145 7.5 7.67 9.57
5/24/2022 7:30:00 AM 15.63 60.134 0.144 7.55 7.56 9.73
5/24/2022 7:45:00 AM 15.66 60.188 0.145 7.6 9.13 9.83
5/24/2022 8:00:00 AM 15.69 60.242 0.145 7.65 7.39 9.88
5/24/2022 8:15:00 AM 15.74 60.332 0.145 7.69 8.33 9.99
5/24/2022 8:30:00 AM 15.77 60.386 0.145 7.71 7.84 10.01
5/24/2022 8:45:00 AM 15.82 60.476 0.145 7.78 7.34 10.05
5/24/2022 9:00:00 AM 15.85 60.53 0.145 7.85 7.22 10.08
5/24/2022 9:15:00 AM 15.88 60.584 0.145 7.88 6.75 10.11
5/24/2022 9:30:00 AM 15.94 60.692 0.145 7.96 6.68 10.2
5/24/2022 9:45:00 AM 16.02 60.836 0.145 8.04 7.23 10.3
5/24/2022 10:00:00 AM 16.06 60.908 0.145 8.1 6.34 10.28
5/24/2022 10:15:00 AM 16.13 61.034 0.144 8.17 6.56 10.28
5/24/2022 10:30:00 AM 16.21 61.178 0.144 8.25 6.76 10.36
5/24/2022 10:45:00 AM 16.29 61.322 0.144 8.33 6.57 10.41
5/24/2022 11:00:00 AM 16.37 61.466 0.144 8.41 7.24 10.44
5/24/2022 11:15:00 AM 16.46 61.628 0.144 8.47 5.85 10.45
5/24/2022 11:30:00 AM 16.55 61.79 0.143 8.55 5.93 10.44
5/24/2022 11:45:00 AM 16.61 61.898 0.143 8.6 6.61 10.39
5/24/2022 12:00:00 PM 16.65 61.97 0.143 8.64 5.68 10.37
5/24/2022 12:15:00 PM 16.69 62.042 0.143 8.67 8.68 10.36
5/24/2022 12:30:00 PM 16.74 62.132 0.143 8.68 5.96 10.38
5/24/2022 12:45:00 PM 16.79 62.222 0.143 8.72 7.05 10.39
5/24/2022 1:00:00 PM 16.84 62.312 0.142 8.78 7.21 10.38
5/24/2022 1:15:00 PM 16.92 62.456 0.142 8.8 6.22 10.4
5/24/2022 1:30:00 PM 16.99 62.582 0.142 8.86 7.25 10.41
5/24/2022 1:45:00 PM 17.05 62.69 0.142 8.89 5.79 10.35
5/24/2022 2:00:00 PM 17.08 62.744 0.141 8.88 5.56 10.24
5/24/2022 2:15:00 PM 17.08 62.744 0.142 8.89 6.52 10.12
5/24/2022 2:30:00 PM 17.05 62.69 0.142 8.84 6.71 9.96
5/24/2022 2:45:00 PM 17.05 62.69 0.142 8.81 8.53 10.02
5/24/2022 3:00:00 PM 17.09 62.762 0.142 8.8 6.16 10.13
5/24/2022 3:15:00 PM 17.12 62.816 0.142 8.82 6.34 10.14
5/24/2022 3:30:00 PM 17.17 62.906 0.141 8.85 5.77 10.12
5/24/2022 3:45:00 PM 17.17 62.906 0.141 8.85 5.74 10
5/24/2022 4:00:00 PM 17.15 62.87 0.141 8.84 5.49 9.96
5/24/2022 4:15:00 PM 17.13 62.834 0.141 8.81 6.27 9.97
5/24/2022 4:30:00 PM 17.16 62.888 0.141 8.82 7.1 10.04
5/24/2022 4:45:00 PM 17.21 62.978 0.141 8.84 8 10.06
5/24/2022 5:00:00 PM 17.24 63.032 0.141 8.85 6.35 10.02
5/24/2022 5:15:00 PM 17.31 63.158 0.141 8.87 5.46 10.06
5/24/2022 5:30:00 PM 17.37 63.266 0.141 8.87 5.64 10.01
5/24/2022 5:45:00 PM 17.43 63.374 0.141 8.87 5.32 9.97
5/24/2022 6:00:00 PM 17.46 63.428 0.141 8.85 5.87 9.94
5/24/2022 6:15:00 PM 17.42 63.356 0.141 8.85 5.79 9.86
5/24/2022 6:30:00 PM 17.35 63.23 0.141 8.77 6.25 9.8
5/24/2022 6:45:00 PM 17.29 63.122 0.142 8.71 6.65 9.71
5/24/2022 7:00:00 PM 17.24 63.032 0.142 8.63 7.49 9.63
5/24/2022 7:15:00 PM 17.18 62.924 0.142 8.53 5.6 9.54
5/24/2022 7:30:00 PM 17.11 62.798 0.143 8.35 6.61 9.45
5/24/2022 7:45:00 PM 17.05 62.69 0.143 8.22 6 9.36
5/24/2022 8:00:00 PM 16.99 62.582 0.143 8.07 6.22 9.29
5/24/2022 8:15:00 PM 16.95 62.51 0.144 7.95 6.13 9.22
5/24/2022 8:30:00 PM 16.9 62.42 0.144 7.84 5.92 9.16
5/24/2022 8:45:00 PM 16.84 62.312 0.145 7.72 5.73 9.11
5/24/2022 9:00:00 PM 16.79 62.222 0.145 7.69 5.82 9.07
5/24/2022 9:15:00 PM 16.73 62.114 0.145 7.65 6.04 9.04
5/24/2022 9:30:00 PM 16.67 62.006 0.146 7.61 6.35 9.03
5/24/2022 9:45:00 PM 16.6 61.88 0.146 7.55 5.61 9.03
5/24/2022 10:00:00 PM 16.52 61.736 0.146 7.56 5.75 9.02
5/24/2022 10:15:00 PM 16.43 61.574 0.147 7.52 6.26 9.03
5/24/2022 10:30:00 PM 16.36 61.448 0.147 7.52 6.2 9.04
5/24/2022 10:45:00 PM 16.29 61.322 0.147 7.51 6.76 9.04
5/24/2022 11:00:00 PM 16.22 61.196 0.147 7.48 5.71 9.06
5/24/2022 11:15:00 PM 16.16 61.088 0.147 7.49 5.92 9.06
5/24/2022 11:30:00 PM 16.1 60.98 0.147 7.47 5.92 9.08
5/24/2022 11:45:00 PM 16.03 60.854 0.147 7.48 7.03 9.09
5/25/2022 12:00:00 AM 15.97 60.746 0.147 7.46 6.11 9.1
5/25/2022 12:15:00 AM 15.92 60.656 0.148 7.46 5.99 9.11
5/25/2022 12:30:00 AM 15.86 60.548 0.147 7.37 5.7 9.12
5/25/2022 12:45:00 AM 15.81 60.458 0.148 7.37 6.17 9.13
5/25/2022 1:00:00 AM 15.75 60.35 0.148 7.44 5.92 9.15
5/25/2022 1:15:00 AM 15.69 60.242 0.148 7.44 6.27 9.16
5/25/2022 1:30:00 AM 15.62 60.116 0.148 7.42 6.43 9.17
5/25/2022 1:45:00 AM 15.54 59.972 0.148 7.42 6.81 9.19
5/25/2022 2:00:00 AM 15.47 59.846 0.148 7.42 5.62 9.21
5/25/2022 2:15:00 AM 15.38 59.684 0.148 7.35 5.88 9.23
5/25/2022 2:30:00 AM 15.3 59.54 0.148 7.42 6.05 9.24
5/25/2022 2:45:00 AM 15.22 59.396 0.148 7.41 6.21 9.26
5/25/2022 3:00:00 AM 15.16 59.288 0.148 7.41 6.31 9.28
5/25/2022 3:15:00 AM 15.1 59.18 0.148 7.41 6.47 9.3
5/25/2022 3:30:00 AM 15.06 59.108 0.148 7.34 6.35 9.31
5/25/2022 3:45:00 AM 15.02 59.036 0.148 7.37 6.53 9.32
5/25/2022 4:00:00 AM 14.98 58.964 0.148 7.35 6.05 9.34
5/25/2022 4:15:00 AM 14.92 58.856 0.148 7.38 6.3 9.34
5/25/2022 4:30:00 AM 14.87 58.766 0.148 7.4 6.09 9.36
5/25/2022 4:45:00 AM 14.8 58.64 0.148 7.38 6.57 9.38
5/25/2022 5:00:00 AM 14.74 58.532 0.148 7.39 6.59 9.39
5/25/2022 5:15:00 AM 14.68 58.424 0.148 7.32 6.03 9.4
5/25/2022 5:30:00 AM 14.62 58.316 0.148 7.37 6.96 9.42
5/25/2022 5:45:00 AM 14.58 58.244 0.148 7.39 6.41 9.44
5/25/2022 6:00:00 AM 14.54 58.172 0.148 7.4 6.44 9.48
5/25/2022 6:15:00 AM 14.52 58.136 0.148 7.32 6.24 9.52
5/25/2022 6:30:00 AM 14.5 58.1 0.148 7.36 6.69 9.59
5/25/2022 6:45:00 AM 14.49 58.082 0.148 7.43 5.57 9.64
5/25/2022 7:00:00 AM 14.48 58.064 0.147 7.46 5.82 9.72
5/25/2022 7:15:00 AM 14.49 58.082 0.147 7.46 6.01 9.8
5/25/2022 7:30:00 AM 14.51 58.118 0.147 7.43 6.94 9.89
5/25/2022 7:45:00 AM 14.54 58.172 0.147 7.46 5.84 9.98
5/25/2022 8:00:00 AM 14.58 58.244 0.147 7.59 5.7 10.09
5/25/2022 8:15:00 AM 14.63 58.334 0.147 7.64 5.87 10.18
5/25/2022 8:30:00 AM 14.69 58.442 0.146 7.68 5.39 10.3
5/25/2022 8:45:00 AM 14.77 58.586 0.146 7.78 5.68 10.41
5/25/2022 9:00:00 AM 14.85 58.73 0.146 7.86 5.19 10.52
5/25/2022 9:15:00 AM 14.97 58.946 0.146 7.97 5.96 10.62
5/25/2022 9:30:00 AM 15.11 59.198 0.145 8.01 5.85 10.7
5/25/2022 9:45:00 AM 15.25 59.45 0.145 8.16 6.44 10.75
5/25/2022 10:00:00 AM 15.37 59.666 0.145 8.23 5.99 10.76
5/25/2022 10:15:00 AM 15.5 59.9 0.144 8.34 5.74 10.78
5/25/2022 10:30:00 AM 15.65 60.17 0.144 8.43 5.73 10.83
5/25/2022 10:45:00 AM 15.79 60.422 0.144 8.53 5.87 10.85
5/25/2022 11:00:00 AM 16.12 61.016 0.143 8.66 5.25 10.9
5/25/2022 11:15:00 AM 16.48 61.664 0.143 8.75 5.46 10.88
5/25/2022 11:30:00 AM 16.87 62.366 0.143 8.83 5.72 10.82
5/25/2022 11:45:00 AM 17.28 63.104 0.143 8.88 5.8 10.74
5/25/2022 12:00:00 PM 17.66 63.788 0.142 8.94 5.14 10.66
5/25/2022 12:15:00 PM 18 64.4 0.142 8.99 5.02 10.57
5/25/2022 12:30:00 PM 18.33 64.994 0.142 9 5.65 10.51
5/25/2022 12:45:00 PM 18.65 65.57 0.142 9.03 5.44 10.45
5/25/2022 1:00:00 PM 18.97 66.146 0.142 9.1 5.86 10.37
5/25/2022 1:15:00 PM 19.3 66.74 0.142 9.12 5.5 10.29
5/25/2022 1:30:00 PM 19.57 67.226 0.142 9.16 5.82 10.22
5/25/2022 1:45:00 PM 19.85 67.73 0.142 9.2 5.61 10.14
5/25/2022 2:00:00 PM 20.19 68.342 0.141 9.22 5.57 10.08
5/25/2022 2:15:00 PM 20.44 68.792 0.141 9.22 6.03 10.01
5/25/2022 2:30:00 PM 20.67 69.206 0.141 9.27 5.48 9.94
5/25/2022 2:45:00 PM 20.87 69.566 0.141 9.27 5.54 9.88
5/25/2022 3:00:00 PM 21.02 69.836 0.141 9.3 6.46 9.84
5/25/2022 3:15:00 PM 21.11 69.998 0.141 9.31 6.79 9.79
5/25/2022 3:30:00 PM 21.28 70.304 0.141 9.3 5.57 9.71
5/25/2022 3:45:00 PM 21.31 70.358 0.141 9.32 5.8 9.66
5/25/2022 4:00:00 PM 21.34 70.412 0.141 9.33 6.16 9.6
5/25/2022 4:15:00 PM 21.37 70.466 0.141 9.32 5.91 9.55
5/25/2022 4:30:00 PM 21.31 70.358 0.141 9.33 5.44 9.47
5/25/2022 4:45:00 PM 21.3 70.34 0.141 9.32 5.14 9.42
5/25/2022 5:00:00 PM 21.23 70.214 0.141 9.31 5.21 9.35
5/25/2022 5:15:00 PM 21.12 70.016 0.142 9.29 5.1 9.31
5/25/2022 5:30:00 PM 21.02 69.836 0.142 9.27 5.56 9.24
5/25/2022 5:45:00 PM 20.89 69.602 0.142 9.24 5.15 9.19
5/25/2022 6:00:00 PM 20.76 69.368 0.142 9.19 5.92 9.12
5/25/2022 6:15:00 PM 20.6 69.08 0.142 9.15 6.47 9.03
5/25/2022 6:30:00 PM 20.44 68.792 0.143 9.08 5.24 8.96
5/25/2022 6:45:00 PM 20.28 68.504 0.143 9.02 5.97 8.9
5/25/2022 7:00:00 PM 20.1 68.18 0.144 8.93 5.39 8.84
5/25/2022 7:15:00 PM 19.94 67.892 0.144 8.83 5.2 8.78
5/25/2022 7:30:00 PM 19.79 67.622 0.145 8.7 5.78 8.73
5/25/2022 7:45:00 PM 19.63 67.334 0.145 8.57 5.61 8.7
5/25/2022 8:00:00 PM 19.47 67.046 0.146 8.38 5.42 8.66
5/25/2022 8:15:00 PM 19.3 66.74 0.147 8.22 6.3 8.61
5/25/2022 8:30:00 PM 19.14 66.452 0.148 8.05 5.66 8.57
5/25/2022 8:45:00 PM 19 66.2 0.148 7.91 5.96 8.53
5/25/2022 9:00:00 PM 18.86 65.948 0.149 7.82 6.54 8.51
5/25/2022 9:15:00 PM 18.72 65.696 0.149 7.74 7.02 8.5
5/25/2022 9:30:00 PM 18.61 65.498 0.15 7.66 5.85 8.5
5/25/2022 9:45:00 PM 18.5 65.3 0.15 7.65 5.99 8.5
5/25/2022 10:00:00 PM 18.4 65.12 0.15 7.61 8.7 8.51
5/25/2022 10:15:00 PM 18.31 64.958 0.151 7.59 6.49 8.52
5/25/2022 10:30:00 PM 18.24 64.832 0.151 7.58 6.32 8.53
5/25/2022 10:45:00 PM 18.17 64.706 0.151 7.56 6.51 8.54
5/25/2022 11:00:00 PM 18.1 64.58 0.151 7.53 6.23 8.55
5/25/2022 11:15:00 PM 18.03 64.454 0.151 7.48 6.02 8.56
5/25/2022 11:30:00 PM 17.97 64.346 0.151 7.52 6 8.57
5/25/2022 11:45:00 PM 17.88 64.184 0.151 7.49 6.4 8.58
5/26/2022 12:00:00 AM 17.8 64.04 0.152 7.51 6.65 8.6
5/26/2022 12:15:00 AM 17.72 63.896 0.152 7.44 6.39 8.6
5/26/2022 12:30:00 AM 17.63 63.734 0.152 7.5 6.39 8.62
5/26/2022 12:45:00 AM 17.55 63.59 0.152 7.45 6.68 8.64
5/26/2022 1:00:00 AM 17.47 63.446 0.152 7.49 6.07 8.66
5/26/2022 1:15:00 AM 17.4 63.32 0.152 7.41 5.61 8.67
5/26/2022 1:30:00 AM 17.33 63.194 0.152 7.48 6.67 8.69
5/26/2022 1:45:00 AM 17.26 63.068 0.152 7.48 5.96 8.7
5/26/2022 2:00:00 AM 17.19 62.942 0.151 7.47 6.39 8.72
5/26/2022 2:15:00 AM 17.12 62.816 0.152 7.42 6.18 8.73
5/26/2022 2:30:00 AM 17.05 62.69 0.151 7.38 6.44 8.75
5/26/2022 2:45:00 AM 16.98 62.564 0.151 7.46 6.05 8.76
5/26/2022 3:00:00 AM 16.9 62.42 0.151 7.41 7.7 8.77
5/26/2022 3:15:00 AM 16.83 62.294 0.151 7.41 5.91 8.79
5/26/2022 3:30:00 AM 16.75 62.15 0.151 7.43 6.1 8.81
5/26/2022 3:45:00 AM 16.69 62.042 0.151 7.42 6.06 8.83
5/26/2022 4:00:00 AM 16.62 61.916 0.151 7.43 5.89 8.84
5/26/2022 4:15:00 AM 16.54 61.772 0.151 7.38 6.48 8.87
5/26/2022 4:30:00 AM 16.49 61.682 0.151 7.44 5.82 8.88
5/26/2022 4:45:00 AM 16.43 61.574 0.151 7.44 6.03 8.89
5/26/2022 5:00:00 AM 16.37 61.466 0.151 7.45 6.49 8.9
5/26/2022 5:15:00 AM 16.29 61.322 0.151 7.43 6.46 8.91
5/26/2022 5:30:00 AM 16.21 61.178 0.151 7.37 6.71 8.93
5/26/2022 5:45:00 AM 16.15 61.07 0.151 7.4 5.81 8.96
5/26/2022 6:00:00 AM 16.09 60.962 0.15 7.44 5.88 9
5/26/2022 6:15:00 AM 16.04 60.872 0.15 7.4 6.69 9.05
5/26/2022 6:30:00 AM 16.01 60.818 0.15 7.43 6.49 9.1
5/26/2022 6:45:00 AM 15.99 60.782 0.15 7.47 6.12 9.16
5/26/2022 7:00:00 AM 15.98 60.764 0.15 7.5 6.04 9.27
5/26/2022 7:15:00 AM 15.99 60.782 0.15 7.5 6.79 9.44
5/26/2022 7:30:00 AM 15.98 60.764 0.149 7.57 6.23 9.56
5/26/2022 7:45:00 AM 16.01 60.818 0.149 7.6 6.33 9.7
5/26/2022 8:00:00 AM 16.05 60.89 0.148 7.68 6.38 9.84
5/26/2022 8:15:00 AM 16.13 61.034 0.148 7.74 6.47 9.97
5/26/2022 8:30:00 AM 16.24 61.232 0.148 7.83 6.79 10.1
5/26/2022 8:45:00 AM 16.29 61.322 0.148 7.86 6.09 10.11
5/26/2022 9:00:00 AM 16.33 61.394 0.147 7.94 6.42 10.13
5/26/2022 9:15:00 AM 16.33 61.394 0.147 7.93 5.97 10.12
5/26/2022 9:30:00 AM 16.34 61.412 0.147 8.01 5.72 10.19
5/26/2022 9:45:00 AM 16.41 61.538 0.147 8.1 5.82 10.28
5/26/2022 10:00:00 AM 16.52 61.736 0.146 8.18 5.76 10.36
5/26/2022 10:15:00 AM 16.71 62.078 0.146 8.28 6.14 10.42
5/26/2022 10:30:00 AM 16.89 62.402 0.146 8.37 5.84 10.45
5/26/2022 10:45:00 AM 17.14 62.852 0.145 8.46 5.97 10.48
5/26/2022 11:00:00 AM 17.45 63.41 0.145 8.5 5.58 10.48
5/26/2022 11:15:00 AM 17.76 63.968 0.144 8.62 6.1 10.48
5/26/2022 11:30:00 AM 18.09 64.562 0.144 8.67 5.9 10.45
5/26/2022 11:45:00 AM 18.39 65.102 0.144 8.76 5.75 10.4
5/26/2022 12:00:00 PM 18.76 65.768 0.143 8.82 5.36 10.35
5/26/2022 12:15:00 PM 19.13 66.434 0.143 8.89 5.39 10.28
5/26/2022 12:30:00 PM 19.43 66.974 0.143 8.91 5.89 10.2
5/26/2022 12:45:00 PM 19.65 67.37 0.143 8.97 5.89 10.11
5/26/2022 1:00:00 PM 19.92 67.856 0.142 9 5.17 10.05
5/26/2022 1:15:00 PM 20.13 68.234 0.142 9.07 5.92 9.98
5/26/2022 1:30:00 PM 20.17 68.306 0.142 9.08 5.48 9.78
5/26/2022 1:45:00 PM 20.23 68.414 0.142 9.1 5.18 9.64
5/26/2022 2:00:00 PM 20.26 68.468 0.141 9.12 5.54 9.63
5/26/2022 2:15:00 PM 20.22 68.396 0.141 9.12 5.75 9.59
5/26/2022 2:30:00 PM 20.24 68.432 0.141 9.14 6.01 9.62
5/26/2022 2:45:00 PM 20.31 68.558 0.141 9.16 5.7 9.64
5/26/2022 3:00:00 PM 20.49 68.882 0.141 9.18 4.89 9.66
5/26/2022 3:15:00 PM 20.6 69.08 0.141 9.18 6.44 9.62
5/26/2022 3:30:00 PM 20.6 69.08 0.141 9.19 5.31 9.55
5/26/2022 3:45:00 PM 20.61 69.098 0.141 9.22 5.08 9.45
5/26/2022 4:00:00 PM 20.56 69.008 0.141 9.21 5.37 9.3
5/26/2022 4:15:00 PM 20.5 68.9 0.141 9.19 5.55 9.16
5/26/2022 4:30:00 PM 20.42 68.756 0.141 9.16 5.32 9.07
5/26/2022 4:45:00 PM 20.32 68.576 0.141 9.12 5.26 8.96
5/26/2022 5:00:00 PM 20.21 68.378 0.141 9.04 5.92 8.86
5/26/2022 5:15:00 PM 20.13 68.234 0.142 9 6.06 8.79
5/26/2022 5:30:00 PM 20.06 68.108 0.142 8.92 5.53 8.75
5/26/2022 5:45:00 PM 19.99 67.982 0.142 8.85 5.91 8.71
5/26/2022 6:00:00 PM 19.94 67.892 0.143 8.74 5.12 8.66
5/26/2022 6:15:00 PM 19.89 67.802 0.144 8.66 6.05 8.61
5/26/2022 6:30:00 PM 19.84 67.712 0.144 8.55 5.41 8.57
5/26/2022 6:45:00 PM 19.78 67.604 0.145 8.4 5.16 8.52
5/26/2022 7:00:00 PM 19.72 67.496 0.146 8.27 5.61 8.48
5/26/2022 7:15:00 PM 19.65 67.37 0.146 8.13 6.11 8.46
5/26/2022 7:30:00 PM 19.56 67.208 0.147 7.97 6.63 8.42
5/26/2022 7:45:00 PM 19.48 67.064 0.148 7.89 6.2 8.39
5/26/2022 8:00:00 PM 19.38 66.884 0.149 7.81 5.53 8.35
5/26/2022 8:15:00 PM 19.29 66.722 0.149 7.77 5.47 8.34
5/26/2022 8:30:00 PM 19.19 66.542 0.15 7.68 5.81 8.32
5/26/2022 8:45:00 PM 19.11 66.398 0.15 7.67 5.32 8.3
5/26/2022 9:00:00 PM 19.02 66.236 0.151 7.64 5.74 8.31
5/26/2022 9:15:00 PM 18.94 66.092 0.152 7.56 5.51 8.3
5/26/2022 9:30:00 PM 18.86 65.948 0.152 7.57 6.01 8.31
5/26/2022 9:45:00 PM 18.8 65.84 0.153 7.57 5.83 8.31
5/26/2022 10:00:00 PM 18.74 65.732 0.153 7.56 6.88 8.33
5/26/2022 10:15:00 PM 18.68 65.624 0.153 7.54 6.99 8.33
5/26/2022 10:30:00 PM 18.62 65.516 0.154 7.53 5.76 8.34
5/26/2022 10:45:00 PM 18.57 65.426 0.154 7.48 6.16 8.35
5/26/2022 11:00:00 PM 18.52 65.336 0.154 7.48 5.99 8.34
5/26/2022 11:15:00 PM 18.46 65.228 0.154 7.46 5.64 8.36
5/26/2022 11:30:00 PM 18.41 65.138 0.155 7.51 6.99 8.37
5/26/2022 11:45:00 PM 18.35 65.03 0.155 7.49 6.28 8.38
5/27/2022 12:00:00 AM 18.3 64.94 0.155 7.5 5.32 8.39
5/27/2022 12:15:00 AM 18.24 64.832 0.155 7.5 6.48 8.4
5/27/2022 12:30:00 AM 18.2 64.76 0.155 7.49 6.15 8.41
5/27/2022 12:45:00 AM 18.16 64.688 0.155 7.47 6.81 8.42
5/27/2022 1:00:00 AM 18.12 64.616 0.155 7.49 6.21 8.43
5/27/2022 1:15:00 AM 18.09 64.562 0.155 7.41 5.2 8.44
5/27/2022 1:30:00 AM 18.06 64.508 0.154 7.47 6.2 8.44
5/27/2022 1:45:00 AM 18.04 64.472 0.154 7.48 5.26 8.46
5/27/2022 2:00:00 AM 18.02 64.436 0.154 7.42 5.77 8.46
5/27/2022 2:15:00 AM 18 64.4 0.154 7.4 6.16 8.46
5/27/2022 2:30:00 AM 17.99 64.382 0.154 7.45 6.25 8.46
5/27/2022 2:45:00 AM 17.98 64.364 0.154 7.42 7.6 8.46
5/27/2022 3:00:00 AM 17.97 64.346 0.154 7.41 6.59 8.46
5/27/2022 3:15:00 AM 17.96 64.328 0.154 7.41 6.96 8.46
5/27/2022 3:30:00 AM 17.96 64.328 0.154 7.45 6.1 8.47
5/27/2022 3:45:00 AM 17.95 64.31 0.154 7.45 6.2 8.47
5/27/2022 4:00:00 AM 17.94 64.292 0.154 7.42 5.81 8.47
5/27/2022 4:15:00 AM 17.93 64.274 0.153 7.37 6.85 8.47
5/27/2022 4:30:00 AM 17.92 64.256 0.153 7.38 6.13 8.47
5/27/2022 4:45:00 AM 17.91 64.238 0.153 7.4 7.71 8.48
5/27/2022 5:00:00 AM 17.9 64.22 0.153 7.44 6.14 8.47
5/27/2022 5:15:00 AM 17.89 64.202 0.153 7.45 5.88 8.48
5/27/2022 5:30:00 AM 17.88 64.184 0.153 7.43 5.98 8.48
5/27/2022 5:45:00 AM 17.87 64.166 0.153 7.43 6.57 8.48
5/27/2022 6:00:00 AM 17.84 64.112 0.153 7.37 6.68 8.5
5/27/2022 6:15:00 AM 17.83 64.094 0.153 7.44 6.48 8.52
5/27/2022 6:30:00 AM 17.82 64.076 0.153 7.44 6.05 8.56
5/27/2022 6:45:00 AM 17.82 64.076 0.153 7.4 6.99 8.63
5/27/2022 7:00:00 AM 17.83 64.094 0.153 7.49 5.91 8.68
5/27/2022 7:15:00 AM 17.84 64.112 0.153 7.49 6.01 8.71
5/27/2022 7:30:00 AM 17.86 64.148 0.153 7.49 5.95 8.73
5/27/2022 7:45:00 AM 17.91 64.238 0.152 7.54 6.86 8.85
5/27/2022 8:00:00 AM 17.92 64.256 0.152 7.52 6.02 8.88
5/27/2022 8:15:00 AM 17.95 64.31 0.152 7.54 6.36 8.87
5/27/2022 8:30:00 AM 17.98 64.364 0.152 7.55 5.47 8.88
5/27/2022 8:45:00 AM 18.03 64.454 0.152 7.59 5.96 8.98
5/27/2022 9:00:00 AM 18.06 64.508 0.152 7.58 5.44 9.02
5/27/2022 9:15:00 AM 18.11 64.598 0.151 7.64 5.93 9.05
5/27/2022 9:30:00 AM 18.16 64.688 0.151 7.61 5.9 9.09
5/27/2022 9:45:00 AM 18.2 64.76 0.151 7.67 5.5 9.08
5/27/2022 10:00:00 AM 18.24 64.832 0.151 7.66 6.02 9.08
5/27/2022 10:15:00 AM 18.3 64.94 0.151 7.71 5.92 9.14
5/27/2022 10:30:00 AM 18.4 65.12 0.15 7.76 5.17 9.31
5/27/2022 10:45:00 AM 18.49 65.282 0.15 7.84 6.21 9.42
5/27/2022 11:00:00 AM 18.6 65.48 0.15 7.84 5.57 9.48
5/27/2022 11:15:00 AM 18.71 65.67799 0.149 7.92 5.71 9.47
5/27/2022 11:30:00 AM 18.79 65.82201 0.149 7.96 6.27 9.37
5/27/2022 11:45:00 AM 18.96 66.128 0.149 8.05 5.64 9.5
5/27/2022 12:00:00 PM 19.07 66.326 0.148 8.12 5.64 9.58
5/27/2022 12:15:00 PM 19.17 66.506 0.148 8.2 5.7 9.61
5/27/2022 12:30:00 PM 19.29 66.722 0.148 8.26 5.39 9.58
5/27/2022 12:45:00 PM 19.37 66.866 0.148 8.29 5.92 9.48
5/27/2022 1:00:00 PM 19.47 67.046 0.147 8.35 5.75 9.47
5/27/2022 1:15:00 PM 19.57 67.226 0.147 8.37 6.1 9.51
5/27/2022 1:30:00 PM 19.73 67.514 0.147 8.46 5.77 9.61
5/27/2022 1:45:00 PM 19.76 67.568 0.147 8.52 5.72 9.45
5/27/2022 2:00:00 PM 19.79 67.622 0.147 8.49 6.09 9.25
5/27/2022 2:15:00 PM 19.82 67.676 0.147 8.47 5.39 9.11
5/27/2022 2:30:00 PM 19.8 67.64 0.147 8.4 5.58 9.01
5/27/2022 2:45:00 PM 19.74 67.532 0.147 8.34 5.83 8.88
5/27/2022 3:00:00 PM 19.68 67.424 0.147 8.23 5.78 8.78
5/27/2022 3:15:00 PM 19.63 67.334 0.146 8.12 5.73 8.71
5/27/2022 3:30:00 PM 19.59 67.262 0.147 8.02 6.26 8.69
5/27/2022 3:45:00 PM 19.57 67.226 0.147 7.97 6.16 8.72
5/27/2022 4:00:00 PM 19.56 67.208 0.147 7.94 6.75 8.74
5/27/2022 4:15:00 PM 19.57 67.226 0.146 7.94 5.93 8.85
5/27/2022 4:30:00 PM 19.6 67.28 0.146 7.98 5.58 8.95
5/27/2022 4:45:00 PM 19.65 67.37 0.146 8 5.88 9.02
5/27/2022 5:00:00 PM 19.68 67.424 0.146 8 5.78 9.03
5/27/2022 5:15:00 PM 19.71 67.478 0.146 8.07 6.31 9.01
5/27/2022 5:30:00 PM 19.75 67.55 0.146 8.11 5.36 9.04
5/27/2022 5:45:00 PM 19.77 67.586 0.147 8.12 5.65 9.05
5/27/2022 6:00:00 PM 19.78 67.604 0.147 8.15 5.81 9.04
5/27/2022 6:15:00 PM 19.78 67.604 0.147 8.1 5.83 8.99
5/27/2022 6:30:00 PM 19.78 67.604 0.147 8.15 5.83 8.97
5/27/2022 6:45:00 PM 19.76 67.568 0.147 8.12 5.65 8.88
5/27/2022 7:00:00 PM 19.72 67.496 0.148 8.07 6.33 8.78
5/27/2022 7:15:00 PM 19.69 67.442 0.148 8.01 5.63 8.73
5/27/2022 7:30:00 PM 19.64 67.352 0.149 7.94 6.8 8.64
5/27/2022 7:45:00 PM 19.58 67.244 0.149 7.83 5.53 8.57
5/27/2022 8:00:00 PM 19.53 67.154 0.15 7.74 5.98 8.51
5/27/2022 8:15:00 PM 19.47 67.046 0.15 7.74 5.73 8.45
5/27/2022 8:30:00 PM 19.39 66.902 0.15 7.69 7.02 8.38
5/27/2022 8:45:00 PM 19.31 66.758 0.151 7.65 5.86 8.34
5/27/2022 9:00:00 PM 19.22 66.596 0.151 7.55 5.74 8.3
5/27/2022 9:15:00 PM 19.13 66.434 0.151 7.55 9.17 8.28
5/27/2022 9:30:00 PM 19.04 66.272 0.152 7.55 6.67 8.27
5/27/2022 9:45:00 PM 18.95 66.11 0.152 7.51 6.93 8.26
5/27/2022 10:00:00 PM 18.87 65.966 0.152 7.45 6.81 8.27
5/27/2022 10:15:00 PM 18.8 65.84 0.152 7.49 6.79 8.28
5/27/2022 10:30:00 PM 18.73 65.714 0.153 7.44 6.7 8.28
5/27/2022 10:45:00 PM 18.66 65.588 0.153 7.42 7.41 8.28
5/27/2022 11:00:00 PM 18.59 65.462 0.153 7.4 7.86 8.3
5/27/2022 11:15:00 PM 18.53 65.354 0.154 7.45 8.95 8.3
5/27/2022 11:30:00 PM 18.46 65.228 0.154 7.38 6.83 8.31
5/27/2022 11:45:00 PM 18.4 65.12 0.154 7.41 6.55 8.32
5/28/2022 12:00:00 AM 18.34 65.012 0.154 7.39 6.37 8.34
5/28/2022 12:15:00 AM 18.28 64.904 0.154 7.44 7.98 8.34
5/28/2022 12:30:00 AM 18.23 64.814 0.155 7.44 6.13 8.35
5/28/2022 12:45:00 AM 18.18 64.724 0.155 7.42 6.34 8.36
5/28/2022 1:00:00 AM 18.13 64.634 0.155 7.35 6.37 8.37
5/28/2022 1:15:00 AM 18.09 64.562 0.155 7.43 6.64 8.38
5/28/2022 1:30:00 AM 18.04 64.472 0.155 7.42 7.49 8.39
5/28/2022 1:45:00 AM 18 64.4 0.155 7.43 7 8.4
5/28/2022 2:00:00 AM 17.96 64.328 0.155 7.41 6.81 8.4
5/28/2022 2:15:00 AM 17.92 64.256 0.155 7.41 6.31 8.42
5/28/2022 2:30:00 AM 17.88 64.184 0.155 7.41 7.38 8.43
5/28/2022 2:45:00 AM 17.84 64.112 0.155 7.37 7.99 8.43
5/28/2022 3:00:00 AM 17.81 64.058 0.155 7.37 5.8 8.44
5/28/2022 3:15:00 AM 17.76 63.968 0.154 7.4 7.22 8.44
5/28/2022 3:30:00 AM 17.72 63.896 0.155 7.37 6.28 8.46
5/28/2022 3:45:00 AM 17.67 63.806 0.155 7.4 6.35 8.46
5/28/2022 4:00:00 AM 17.62 63.716 0.155 7.38 5.48 8.48
5/28/2022 4:15:00 AM 17.57 63.626 0.155 7.39 6.36 8.48
5/28/2022 4:30:00 AM 17.52 63.536 0.155 7.36 6.76 8.5
5/28/2022 4:45:00 AM 17.47 63.446 0.155 7.39 6.6 8.51
5/28/2022 5:00:00 AM 17.43 63.374 0.155 7.35 6.34 8.51
5/28/2022 5:15:00 AM 17.39 63.302 0.155 7.39 6.42 8.52
5/28/2022 5:30:00 AM 17.35 63.23 0.155 7.4 6.97 8.54
5/28/2022 5:45:00 AM 17.32 63.176 0.155 7.4 6.35 8.56
5/28/2022 6:00:00 AM 17.29 63.122 0.155 7.35 6.59 8.59
5/28/2022 6:15:00 AM 17.27 63.086 0.154 7.35 6.66 8.62
5/28/2022 6:30:00 AM 17.25 63.05 0.155 7.39 6.24 8.65
5/28/2022 6:45:00 AM 17.22 62.996 0.154 7.41 6.23 8.66
5/28/2022 7:00:00 AM 17.22 62.996 0.154 7.43 7.2 8.73
5/28/2022 7:15:00 AM 17.21 62.978 0.154 7.45 6.1 8.8
5/28/2022 7:30:00 AM 17.2 62.96 0.154 7.47 5.93 8.87
5/28/2022 7:45:00 AM 17.23 63.014 0.154 7.48 5.87 8.99
5/28/2022 8:00:00 AM 17.29 63.122 0.154 7.5 6.05 9.13
5/28/2022 8:15:00 AM 17.34 63.212 0.154 7.52 5.89 9.21
5/28/2022 8:30:00 AM 17.41 63.338 0.153 7.61 5.84 9.26
5/28/2022 8:45:00 AM 17.46 63.428 0.153 7.64 7.04 9.24
5/28/2022 9:00:00 AM 17.52 63.536 0.153 7.66 5.83 9.26
5/28/2022 9:15:00 AM 17.53 63.554 0.153 7.67 5.95 9.19
5/28/2022 9:30:00 AM 17.57 63.626 0.153 7.67 7.37 9.24
5/28/2022 9:45:00 AM 17.65 63.77 0.152 7.74 5.82 9.4
5/28/2022 10:00:00 AM 17.73 63.914 0.152 7.79 5.49 9.5
5/28/2022 10:15:00 AM 17.83 64.094 0.152 7.84 5.52 9.58
5/28/2022 10:30:00 AM 17.97 64.346 0.151 7.9 5.98 9.6
5/28/2022 10:45:00 AM 18.11 64.598 0.151 7.97 5.78 9.65
5/28/2022 11:00:00 AM 18.31 64.958 0.151 8.04 5.7 9.71
5/28/2022 11:15:00 AM 18.43 65.174 0.151 8.09 5.58 9.71
5/28/2022 11:30:00 AM 18.63 65.534 0.15 8.15 5.52 9.68
5/28/2022 11:45:00 AM 18.75 65.75 0.15 8.17 6.35 9.58
5/28/2022 12:00:00 PM 19.19 66.542 0.15 8.25 5.8 9.67
5/28/2022 12:15:00 PM 19.35 66.83 0.149 8.28 6.23 9.66
5/28/2022 12:30:00 PM 19.45 67.01 0.149 8.32 6.35 9.59
5/28/2022 12:45:00 PM 19.53 67.154 0.149 8.35 6.15 9.4
5/28/2022 1:00:00 PM 19.51 67.118 0.149 8.33 6.83 9.26
5/28/2022 1:15:00 PM 19.58 67.244 0.149 8.38 5.51 9.36
5/28/2022 1:30:00 PM 19.62 67.316 0.149 8.39 5.21 9.36
5/28/2022 1:45:00 PM 19.87 67.766 0.149 8.44 5.42 9.45
5/28/2022 2:00:00 PM 19.88 67.784 0.148 8.46 5.11 9.44
5/28/2022 2:15:00 PM 20.02 68.036 0.148 8.51 5.49 9.39
5/28/2022 2:30:00 PM 20.17 68.306 0.148 8.54 5.46 9.37
5/28/2022 2:45:00 PM 20.34 68.612 0.148 8.59 4.95 9.38
5/28/2022 3:00:00 PM 20.52 68.936 0.148 8.65 5.47 9.36
5/28/2022 3:15:00 PM 20.57 69.026 0.148 8.68 5.6 9.3
5/28/2022 3:30:00 PM 20.57 69.026 0.148 8.67 5.69 9.12
5/28/2022 3:45:00 PM 20.7 69.26 0.148 8.69 5.97 9.11
5/28/2022 4:00:00 PM 20.66 69.188 0.148 8.69 5.35 9.07
5/28/2022 4:15:00 PM 20.59 69.062 0.148 8.67 5.68 8.99
5/28/2022 4:30:00 PM 20.55 68.99 0.148 8.67 5.78 9.01
5/28/2022 4:45:00 PM 20.52 68.936 0.148 8.64 5.33 9.02
5/28/2022 5:00:00 PM 20.6 69.08 0.148 8.65 6.16 9.03
5/28/2022 5:15:00 PM 20.62 69.116 0.148 8.63 5.48 8.97
5/28/2022 5:30:00 PM 20.7 69.26 0.148 8.62 5.84 8.96
5/28/2022 5:45:00 PM 20.65 69.17 0.149 8.6 6.53 8.9
5/28/2022 6:00:00 PM 20.53 68.954 0.149 8.52 6 8.86
5/28/2022 6:15:00 PM 20.37 68.666 0.149 8.48 6.13 8.76
5/28/2022 6:30:00 PM 20.24 68.432 0.149 8.37 6.24 8.69
5/28/2022 6:45:00 PM 20.13 68.234 0.15 8.25 6.21 8.63
5/28/2022 7:00:00 PM 20.02 68.036 0.15 8.21 5.57 8.6
5/28/2022 7:15:00 PM 19.88 67.784 0.15 8.1 5.47 8.56
5/28/2022 7:30:00 PM 19.72 67.496 0.151 7.98 5.59 8.53
5/28/2022 7:45:00 PM 19.58 67.244 0.151 7.9 6.12 8.49
5/28/2022 8:00:00 PM 19.47 67.046 0.152 7.83 5.51 8.46
5/28/2022 8:15:00 PM 19.35 66.83 0.152 7.75 6.31 8.42
5/28/2022 8:30:00 PM 19.21 66.578 0.153 7.71 5.94 8.39
5/28/2022 8:45:00 PM 19.07 66.326 0.153 7.67 7.4 8.37
5/28/2022 9:00:00 PM 18.93 66.074 0.154 7.62 6.36 8.37
5/28/2022 9:15:00 PM 18.79 65.82201 0.154 7.6 6.39 8.36
5/28/2022 9:30:00 PM 18.65 65.57 0.154 7.51 5.63 8.37
5/28/2022 9:45:00 PM 18.53 65.354 0.154 7.5 6.39 8.39
5/28/2022 10:00:00 PM 18.4 65.12 0.155 7.5 6.31 8.4
5/28/2022 10:15:00 PM 18.27 64.886 0.155 7.44 6.26 8.42
5/28/2022 10:30:00 PM 18.15 64.67 0.155 7.51 8.26 8.45
5/28/2022 10:45:00 PM 18.04 64.472 0.155 7.45 6.84 8.47
5/28/2022 11:00:00 PM 17.92 64.256 0.155 7.47 6.95 8.49
5/28/2022 11:15:00 PM 17.81 64.058 0.156 7.48 7.78 8.51
5/28/2022 11:30:00 PM 17.7 63.86 0.156 7.46 7.05 8.54
5/28/2022 11:45:00 PM 17.59 63.662 0.156 7.47 5.87 8.55
5/29/2022 12:00:00 AM 17.49 63.482 0.156 7.46 5.99 8.58
5/29/2022 12:15:00 AM 17.39 63.302 0.156 7.44 5.7 8.6
5/29/2022 12:30:00 AM 17.28 63.104 0.156 7.46 6.77 8.62
5/29/2022 12:45:00 AM 17.18 62.924 0.156 7.37 6.71 8.65
5/29/2022 1:00:00 AM 17.09 62.762 0.156 7.45 7.15 8.66
5/29/2022 1:15:00 AM 16.99 62.582 0.156 7.43 6.26 8.69
5/29/2022 1:30:00 AM 16.89 62.402 0.156 7.42 7.62 8.71
5/29/2022 1:45:00 AM 16.8 62.24 0.156 7.41 5.93 8.73
5/29/2022 2:00:00 AM 16.71 62.078 0.156 7.38 6.57 8.75
5/29/2022 2:15:00 AM 16.62 61.916 0.156 7.42 7.83 8.77
5/29/2022 2:30:00 AM 16.54 61.772 0.156 7.41 6.76 8.8
5/29/2022 2:45:00 AM 16.46 61.628 0.155 7.35 6.74 8.82
5/29/2022 3:00:00 AM 16.39 61.502 0.156 7.35 6.5 8.84
5/29/2022 3:15:00 AM 16.32 61.376 0.155 7.37 6.77 8.86
5/29/2022 3:30:00 AM 16.26 61.268 0.155 7.32 7.11 8.87
5/29/2022 3:45:00 AM 16.2 61.16 0.155 7.42 8.05 8.89
5/29/2022 4:00:00 AM 16.15 61.07 0.155 7.42 7.32 8.91
5/29/2022 4:15:00 AM 16.09 60.962 0.155 7.42 6.97 8.92
5/29/2022 4:30:00 AM 16.03 60.854 0.155 7.41 6.09 8.94
5/29/2022 4:45:00 AM 15.96 60.728 0.155 7.41 6.71 8.96
5/29/2022 5:00:00 AM 15.89 60.602 0.155 7.35 6.5 8.98
5/29/2022 5:15:00 AM 15.82 60.476 0.155 7.41 6.4 9
5/29/2022 5:30:00 AM 15.76 60.368 0.155 7.39 6.29 9.02
5/29/2022 5:45:00 AM 15.7 60.26 0.155 7.4 5.79 9.04
5/29/2022 6:00:00 AM 15.66 60.188 0.155 7.41 6.79 9.07
5/29/2022 6:15:00 AM 15.61 60.098 0.155 7.41 6.54 9.11
5/29/2022 6:30:00 AM 15.57 60.026 0.154 7.42 7.08 9.16
5/29/2022 6:45:00 AM 15.55 59.99 0.154 7.42 5.94 9.21
5/29/2022 7:00:00 AM 15.53 59.954 0.154 7.45 5.94 9.28
5/29/2022 7:15:00 AM 15.52 59.936 0.154 7.47 6.45 9.35
5/29/2022 7:30:00 AM 15.53 59.954 0.154 7.48 6.19 9.44
5/29/2022 7:45:00 AM 15.54 59.972 0.154 7.46 6.1 9.52
5/29/2022 8:00:00 AM 15.59 60.062 0.153 7.5 5.75 9.61
5/29/2022 8:15:00 AM 15.64 60.152 0.153 7.55 6.17 9.67
5/29/2022 8:30:00 AM 15.71 60.278 0.153 7.6 5.94 9.73
5/29/2022 8:45:00 AM 15.8 60.44 0.153 7.65 5.18 9.81
5/29/2022 9:00:00 AM 15.91 60.638 0.152 7.7 5.47 9.87
5/29/2022 9:15:00 AM 16.03 60.854 0.152 7.7 5.65 9.92
5/29/2022 9:30:00 AM 16.18 61.124 0.151 7.73 5.4 9.97
5/29/2022 9:45:00 AM 16.38 61.484 0.151 7.82 5.91 10.03
5/29/2022 10:00:00 AM 16.71 62.078 0.151 7.85 5.28 10.04
5/29/2022 10:15:00 AM 16.98 62.564 0.15 7.96 5.26 10.03
5/29/2022 10:30:00 AM 17.34 63.212 0.15 7.98 5.26 10.02
5/29/2022 10:45:00 AM 17.74 63.932 0.15 8.04 5.16 10
5/29/2022 11:00:00 AM 18.08 64.544 0.15 8.13 5.84 9.97
5/29/2022 11:15:00 AM 18.39 65.102 0.15 8.15 6.16 9.93
5/29/2022 11:30:00 AM 18.69 65.642 0.15 8.23 6.13 9.89
5/29/2022 11:45:00 AM 19 66.2 0.149 8.23 5.79 9.84
5/29/2022 12:00:00 PM 19.3 66.74 0.149 8.29 6.5 9.79
5/29/2022 12:15:00 PM 19.59 67.262 0.149 8.35 5.66 9.73
5/29/2022 12:30:00 PM 19.94 67.892 0.149 8.4 5.69 9.69
5/29/2022 12:45:00 PM 20.21 68.378 0.149 8.46 5.47 9.63
5/29/2022 1:00:00 PM 20.47 68.846 0.148 8.49 6.06 9.52
5/29/2022 1:15:00 PM 20.9 69.62 0.148 8.54 6.9 9.51
5/29/2022 1:30:00 PM 21.21 70.17799 0.148 8.55 5.54 9.44
5/29/2022 1:45:00 PM 21.53 70.754 0.148 8.6 5.65 9.38
5/29/2022 2:00:00 PM 21.79 71.222 0.148 8.69 5.32 9.28
5/29/2022 2:15:00 PM 22.1 71.78 0.148 8.7 5.36 9.21
5/29/2022 2:30:00 PM 22.37 72.266 0.148 8.75 5.12 9.16
5/29/2022 2:45:00 PM 22.52 72.536 0.148 8.76 6.91 9.07
5/29/2022 3:00:00 PM 22.72 72.896 0.147 8.78 5.67 9.02
5/29/2022 3:15:00 PM 22.87 73.166 0.147 8.8 5.83 8.96
5/29/2022 3:30:00 PM 22.95 73.31 0.147 8.78 5.74 8.9
5/29/2022 3:45:00 PM 23 73.4 0.147 8.79 5.7 8.83
5/29/2022 4:00:00 PM 22.99 73.382 0.147 8.8 5.88 8.76
5/29/2022 4:15:00 PM 22.89 73.202 0.147 8.77 6.78 8.67
5/29/2022 4:30:00 PM 22.84 73.112 0.148 8.73 5.71 8.61
5/29/2022 4:45:00 PM 22.89 73.202 0.148 8.73 7.81 8.63
5/29/2022 5:00:00 PM 22.86 73.148 0.148 8.68 8.04 8.59
5/29/2022 5:15:00 PM 22.74 72.932 0.148 8.64 5.77 8.45
5/29/2022 5:30:00 PM 22.63 72.734 0.148 8.6 5.67 8.4
5/29/2022 5:45:00 PM 22.55 72.59 0.149 8.51 6.02 8.41
5/29/2022 6:00:00 PM 22.4 72.32 0.149 8.46 6.5 8.37
5/29/2022 6:15:00 PM 22.27 72.086 0.149 8.34 5.45 8.32
5/29/2022 6:30:00 PM 22.14 71.852 0.15 8.27 5.63 8.27
5/29/2022 6:45:00 PM 21.99 71.582 0.151 8.16 6.3 8.22
5/29/2022 7:00:00 PM 21.83 71.294 0.151 8.06 6.77 8.18
5/29/2022 7:15:00 PM 21.66 70.988 0.152 7.92 6.32 8.14
5/29/2022 7:30:00 PM 21.51 70.718 0.152 7.87 6.09 8.12
5/29/2022 7:45:00 PM 21.37 70.466 0.153 7.79 5.63 8.09
5/29/2022 8:00:00 PM 21.22 70.196 0.153 7.72 6.22 8.07
5/29/2022 8:15:00 PM 21.07 69.926 0.154 7.64 6.79 8.05
5/29/2022 8:30:00 PM 20.92 69.656 0.155 7.61 7.97 8.03
5/29/2022 8:45:00 PM 20.76 69.368 0.155 7.61 8.85 8.02
5/29/2022 9:00:00 PM 20.6 69.08 0.156 7.57 9.63 8.02
5/29/2022 9:15:00 PM 20.43 68.774 0.156 7.53 7.38 8.03
5/29/2022 9:30:00 PM 20.27 68.486 0.156 7.52 6.69 8.05
5/29/2022 9:45:00 PM 20.12 68.216 0.156 7.46 8.04 8.06
5/29/2022 10:00:00 PM 19.97 67.946 0.157 7.44 6.11 8.08
5/29/2022 10:15:00 PM 19.83 67.694 0.157 7.47 6.24 8.11
5/29/2022 10:30:00 PM 19.69 67.442 0.157 7.42 6.57 8.13
5/29/2022 10:45:00 PM 19.55 67.19 0.157 7.47 6.94 8.15
5/29/2022 11:00:00 PM 19.43 66.974 0.157 7.4 6.83 8.18
5/29/2022 11:15:00 PM 19.3 66.74 0.157 7.44 7.48 8.2
5/29/2022 11:30:00 PM 19.18 66.524 0.157 7.44 6.97 8.22
5/29/2022 11:45:00 PM 19.07 66.326 0.157 7.45 5.93 8.24
5/30/2022 12:00:00 AM 18.96 66.128 0.157 7.38 6.33 8.27
5/30/2022 12:15:00 AM 18.86 65.948 0.157 7.39 7.2 8.29
5/30/2022 12:30:00 AM 18.75 65.75 0.157 7.39 7.61 8.31
5/30/2022 12:45:00 AM 18.65 65.57 0.157 7.38 6.68 8.33
5/30/2022 1:00:00 AM 18.55 65.39 0.157 7.36 7.03 8.35
5/30/2022 1:15:00 AM 18.46 65.228 0.157 7.43 6.28 8.37
5/30/2022 1:30:00 AM 18.36 65.048 0.157 7.37 7.02 8.39
5/30/2022 1:45:00 AM 18.26 64.868 0.157 7.43 7.49 8.41
5/30/2022 2:00:00 AM 18.17 64.706 0.157 7.38 6.22 8.43
5/30/2022 2:15:00 AM 18.07 64.526 0.156 7.39 6.17 8.45
5/30/2022 2:30:00 AM 17.99 64.382 0.156 7.41 6.4 8.47
5/30/2022 2:45:00 AM 17.9 64.22 0.156 7.39 7.24 8.48
5/30/2022 3:00:00 AM 17.81 64.058 0.156 7.35 6.47 8.51
5/30/2022 3:15:00 AM 17.72 63.896 0.156 7.38 6.75 8.52
5/30/2022 3:30:00 AM 17.64 63.752 0.156 7.41 6.56 8.55
5/30/2022 3:45:00 AM 17.55 63.59 0.156 7.35 6.48 8.56
5/30/2022 4:00:00 AM 17.46 63.428 0.156 7.41 8.53 8.57
5/30/2022 4:15:00 AM 17.38 63.284 0.156 7.4 6.6 8.6
5/30/2022 4:30:00 AM 17.3 63.14 0.156 7.37 6.67 8.62
5/30/2022 4:45:00 AM 17.21 62.978 0.156 7.33 6.72 8.63
5/30/2022 5:00:00 AM 17.12 62.816 0.156 7.31 6.38 8.66
5/30/2022 5:15:00 AM 17.04 62.672 0.156 7.39 6.1 8.67
5/30/2022 5:30:00 AM 16.96 62.528 0.156 7.39 6.62 8.69
5/30/2022 5:45:00 AM 16.87 62.366 0.156 7.37 6.55 8.73
5/30/2022 6:00:00 AM 16.79 62.222 0.156 7.4 6.16 8.76
5/30/2022 6:15:00 AM 16.72 62.096 0.156 7.4 5.76 8.81
5/30/2022 6:30:00 AM 16.67 62.006 0.156 7.38 6.17 8.87
5/30/2022 6:45:00 AM 16.62 61.916 0.156 7.41 6.36 8.93
5/30/2022 7:00:00 AM 16.59 61.862 0.156 7.43 5.91 8.97
5/30/2022 7:15:00 AM 16.59 61.862 0.156 7.4 5.5 9.1
5/30/2022 7:30:00 AM 16.6 61.88 0.156 7.46 5.78 9.2
5/30/2022 7:45:00 AM 16.66 61.988 0.156 7.49 6.62 9.29
5/30/2022 8:00:00 AM 16.75 62.15 0.155 7.47 5.63 9.39
5/30/2022 8:15:00 AM 16.87 62.366 0.155 7.54 5.42 9.46
5/30/2022 8:30:00 AM 17.01 62.618 0.155 7.6 5.97 9.53
5/30/2022 8:45:00 AM 17.17 62.906 0.154 7.59 5.44 9.56
5/30/2022 9:00:00 AM 17.36 63.248 0.154 7.65 5.63 9.6
5/30/2022 9:15:00 AM 17.57 63.626 0.154 7.67 5.59 9.62
5/30/2022 9:30:00 AM 17.79 64.022 0.154 7.75 6.24 9.68
5/30/2022 9:45:00 AM 17.97 64.346 0.154 7.79 6.23 9.71
5/30/2022 10:00:00 AM 18.09 64.562 0.154 7.83 5.47 9.69
5/30/2022 10:15:00 AM 18.19 64.742 0.153 7.86 6.02 9.65
5/30/2022 10:30:00 AM 18.25 64.85 0.153 7.88 5.72 9.64
5/30/2022 10:45:00 AM 18.35 65.03 0.153 7.88 5.53 9.71
5/30/2022 11:00:00 AM 18.44 65.192 0.153 7.95 5.36 9.73
5/30/2022 11:15:00 AM 18.52 65.336 0.152 7.97 6.22 9.69
5/30/2022 11:30:00 AM 18.83 65.894 0.152 8.03 5.91 9.76
5/30/2022 11:45:00 AM 19.1 66.38 0.151 8.13 5.47 9.8
5/30/2022 12:00:00 PM 19.28 66.704 0.151 8.18 5.96 9.78
5/30/2022 12:15:00 PM 19.49 67.082 0.151 8.23 5.38 9.72
5/30/2022 12:30:00 PM 19.9 67.82 0.151 8.27 6.05 9.66
5/30/2022 12:45:00 PM 20.34 68.612 0.15 8.31 5.49 9.62
5/30/2022 1:00:00 PM 20.71 69.278 0.15 8.37 5.87 9.57
5/30/2022 1:15:00 PM 21.09 69.962 0.15 8.42 5.91 9.5
5/30/2022 1:30:00 PM 21.5 70.7 0.15 8.43 5.96 9.43
5/30/2022 1:45:00 PM 21.93 71.474 0.149 8.52 5.42 9.34
5/30/2022 2:00:00 PM 22.34 72.212 0.149 8.58 5.49 9.25
5/30/2022 2:15:00 PM 22.7 72.86 0.149 8.61 5.66 9.15
5/30/2022 2:30:00 PM 23.05 73.49 0.149 8.65 6.13 9.08
5/30/2022 2:45:00 PM 23.37 74.066 0.148 8.69 7.54 8.99
5/30/2022 3:00:00 PM 23.66 74.588 0.148 8.7 5.96 8.9
5/30/2022 3:15:00 PM 23.92 75.056 0.148 8.73 6.02 8.81
5/30/2022 3:30:00 PM 24.15 75.47 0.148 8.71 6.61 8.72
5/30/2022 3:45:00 PM 24.34 75.812 0.148 8.75 5.12 8.65
5/30/2022 4:00:00 PM 24.5 76.1 0.148 8.72 5.42 8.58
5/30/2022 4:15:00 PM 24.62 76.316 0.148 8.76 5.85 8.5
5/30/2022 4:30:00 PM 24.69 76.442 0.148 8.73 5.93 8.43
5/30/2022 4:45:00 PM 24.72 76.496 0.148 8.72 5.67 8.37
5/30/2022 5:00:00 PM 24.71 76.478 0.148 8.7 5.95 8.32
5/30/2022 5:15:00 PM 24.66 76.388 0.149 8.61 6.26 8.26
5/30/2022 5:30:00 PM 24.58 76.244 0.149 8.61 5.8 8.19
5/30/2022 5:45:00 PM 24.46 76.028 0.149 8.5 5.42 8.13
5/30/2022 6:00:00 PM 24.32 75.776 0.15 8.46 6.79 8.06
5/30/2022 6:15:00 PM 24.16 75.488 0.15 8.36 8.51 7.99
5/30/2022 6:30:00 PM 24 75.2 0.15 8.23 5.76 7.94
5/30/2022 6:45:00 PM 23.85 74.93 0.151 8.12 5.38 7.87
5/30/2022 7:00:00 PM 23.7 74.66 0.152 8.01 5.25 7.82
5/30/2022 7:15:00 PM 23.55 74.39 0.152 7.9 6.49 7.77
5/30/2022 7:30:00 PM 23.39 74.102 0.153 7.82 6.13 7.76
5/30/2022 7:45:00 PM 23.25 73.85 0.153 7.73 6.97 7.72
5/30/2022 8:00:00 PM 23.11 73.598 0.154 7.69 6.42 7.68
5/30/2022 8:15:00 PM 22.97 73.346 0.155 7.65 5.44 7.65
5/30/2022 8:30:00 PM 22.84 73.112 0.155 7.61 6.34 7.62
5/30/2022 8:45:00 PM 22.7 72.86 0.156 7.49 7.13 7.6
5/30/2022 9:00:00 PM 22.55 72.59 0.157 7.54 5.76 7.59
5/30/2022 9:15:00 PM 22.4 72.32 0.157 7.47 5.96 7.58
5/30/2022 9:30:00 PM 22.25 72.05 0.158 7.49 8.52 7.59
5/30/2022 9:45:00 PM 22.09 71.762 0.159 7.43 6.06 7.61
5/30/2022 10:00:00 PM 21.94 71.492 0.159 7.47 6.64 7.64
5/30/2022 10:15:00 PM 21.8 71.24 0.159 7.43 5.58 7.65
5/30/2022 10:30:00 PM 21.66 70.988 0.16 7.36 6.09 7.68
5/30/2022 10:45:00 PM 21.52 70.736 0.16 7.37 5.85 7.71
5/30/2022 11:00:00 PM 21.39 70.502 0.16 7.44 6.71 7.75
5/30/2022 11:15:00 PM 21.27 70.286 0.16 7.35 6.1 7.77
5/30/2022 11:30:00 PM 21.15 70.07 0.16 7.36 6.77 7.79
5/30/2022 11:45:00 PM 21.04 69.872 0.16 7.34 6.12 7.81
5/31/2022 12:00:00 AM 20.93 69.674 0.16 7.32 6.92 7.84
5/31/2022 12:15:00 AM 20.83 69.494 0.16 7.36 7.24 7.86
5/31/2022 12:30:00 AM 20.74 69.332 0.16 7.38 6.69 7.87
5/31/2022 12:45:00 AM 20.65 69.17 0.16 7.41 6.69 7.9
5/31/2022 1:00:00 AM 20.57 69.026 0.16 7.41 6.5 7.92
5/31/2022 1:15:00 AM 20.48 68.864 0.16 7.41 7.16 7.93
5/31/2022 1:30:00 AM 20.4 68.72 0.16 7.39 6.43 7.96
5/31/2022 1:45:00 AM 20.32 68.576 0.16 7.32 7.26 7.97
5/31/2022 2:00:00 AM 20.23 68.414 0.16 7.4 6.17 7.99
5/31/2022 2:15:00 AM 20.15 68.27 0.16 7.32 6.31 8.01
5/31/2022 2:30:00 AM 20.07 68.126 0.16 7.39 6.77 8.03
5/31/2022 2:45:00 AM 20 68 0.16 7.36 6.17 8.04
5/31/2022 3:00:00 AM 19.92 67.856 0.16 7.37 7.76 8.05
5/31/2022 3:15:00 AM 19.84 67.712 0.159 7.33 6.35 8.07
5/31/2022 3:30:00 AM 19.77 67.586 0.159 7.38 6.94 8.09
5/31/2022 3:45:00 AM 19.69 67.442 0.159 7.38 7.22 8.11
5/31/2022 4:00:00 AM 19.62 67.316 0.159 7.38 6.29 8.12
5/31/2022 4:15:00 AM 19.55 67.19 0.159 7.29 7.25 8.14
5/31/2022 4:30:00 AM 19.48 67.064 0.159 7.37 7.58 8.16
5/31/2022 4:45:00 AM 19.4 66.92 0.159 7.38 6.27 8.18
5/31/2022 5:00:00 AM 19.33 66.794 0.159 7.36 6.25 8.2
5/31/2022 5:15:00 AM 19.25 66.65 0.159 7.37 8.22 8.2
5/31/2022 5:30:00 AM 19.18 66.524 0.159 7.37 8.29 8.22
5/31/2022 5:45:00 AM 19.1 66.38 0.158 7.33 6.62 8.25
5/31/2022 6:00:00 AM 19.03 66.254 0.158 7.36 6.06 8.29
5/31/2022 6:15:00 AM 18.97 66.146 0.158 7.38 7.93 8.33
5/31/2022 6:30:00 AM 18.92 66.056 0.158 7.38 6.12 8.37
5/31/2022 6:45:00 AM 18.87 65.966 0.158 7.38 7.36 8.42
5/31/2022 7:00:00 AM 18.84 65.912 0.158 7.4 6.51 8.47
5/31/2022 7:15:00 AM 18.83 65.894 0.158 7.4 6.16 8.58
5/31/2022 7:30:00 AM 18.85 65.93 0.157 7.44 5.41 8.67
5/31/2022 7:45:00 AM 18.9 66.02 0.157 7.45 6.84 8.76
5/31/2022 8:00:00 AM 18.98 66.164 0.157 7.47 5.53 8.85
5/31/2022 8:15:00 AM 19.09 66.362 0.157 7.52 5.5 8.93
5/31/2022 8:30:00 AM 19.22 66.596 0.156 7.5 5.95 8.99
5/31/2022 8:45:00 AM 19.39 66.902 0.156 7.51 7.03 9.04
5/31/2022 9:00:00 AM 19.57 67.226 0.156 7.62 5.98 9.07
5/31/2022 9:15:00 AM 19.76 67.568 0.156 7.6 5.33 9.09
5/31/2022 9:30:00 AM 19.97 67.946 0.156 7.7 5.7 9.11
5/31/2022 9:45:00 AM 20.18 68.324 0.156 7.68 6.09 9.13
5/31/2022 10:00:00 AM 20.41 68.738 0.156 7.75 5.6 9.15
5/31/2022 10:15:00 AM 20.65 69.17 0.156 7.81 5.37 9.16
5/31/2022 10:30:00 AM 20.92 69.656 0.155 7.86 5.51 9.19
5/31/2022 10:45:00 AM 21.21 70.17799 0.155 7.91 6.02 9.2
5/31/2022 11:00:00 AM 21.49 70.682 0.155 7.93 5.79 9.19
5/31/2022 11:15:00 AM 21.79 71.222 0.155 7.94 5.84 9.19
5/31/2022 11:30:00 AM 22.08 71.744 0.155 8 5.95 9.17
5/31/2022 11:45:00 AM 22.4 72.32 0.155 8.03 5.13 9.15
5/31/2022 12:00:00 PM 22.69 72.842 0.155 8.08 5.51 9.1
5/31/2022 12:15:00 PM 23.05 73.49 0.154 8.11 5.61 9.09
5/31/2022 12:30:00 PM 23.41 74.138 0.154 8.14 11.25 9.01
5/31/2022 12:45:00 PM 23.77 74.786 0.154 8.18 5.47 8.97
5/31/2022 1:00:00 PM 24.11 75.398 0.154 8.24 5.45 8.88
5/31/2022 1:15:00 PM 24.33 75.794 0.153 8.22 6.8 8.76
5/31/2022 1:30:00 PM 24.67 76.406 0.153 8.3 5.23 8.74
5/31/2022 1:45:00 PM 24.98 76.964 0.153 8.3 5.36 8.68
5/31/2022 2:00:00 PM 25.27 77.486 0.153 8.32 5.4 8.63
5/31/2022 2:15:00 PM 25.56 78.008 0.152 8.41 5.77 8.59
5/31/2022 2:30:00 PM 25.59 78.062 0.152 8.4 6.05 8.38
5/31/2022 2:45:00 PM 25.85 78.53 0.152 8.38 5.37 8.36
5/31/2022 3:00:00 PM 26.04 78.872 0.152 8.42 5.19 8.34
5/31/2022 3:15:00 PM 26.22 79.196 0.152 8.46 6.53 8.33
5/31/2022 3:30:00 PM 26.36 79.448 0.152 8.43 5.37 8.27
5/31/2022 3:45:00 PM 26.52 79.736 0.151 8.49 6.14 8.22
5/31/2022 4:00:00 PM 26.64 79.952 0.151 8.49 5.98 8.17
5/31/2022 4:15:00 PM 26.72 80.096 0.151 8.5 6.53 8.1
5/31/2022 4:30:00 PM 26.75 80.15 0.151 8.48 5.95 8.04
5/31/2022 4:45:00 PM 26.73 80.114 0.151 8.43 5.65 7.96
5/31/2022 5:00:00 PM 26.69 80.042 0.152 8.41 6.17 7.92
5/31/2022 5:15:00 PM 26.6 79.88 0.152 8.39 6.02 7.85
5/31/2022 5:30:00 PM 26.5 79.7 0.152 8.34 5.9 7.79
5/31/2022 5:45:00 PM 26.36 79.448 0.152 8.25 6.28 7.72
5/31/2022 6:00:00 PM 26.2 79.16 0.152 8.17 6.58 7.67
5/31/2022 6:15:00 PM 26.02 78.836 0.153 8.08 6.42 7.6
5/31/2022 6:30:00 PM 25.83 78.494 0.153 7.98 6.04 7.57
5/31/2022 6:45:00 PM 25.64 78.152 0.154 7.9 5.76 7.52
5/31/2022 7:00:00 PM 25.46 77.828 0.154 7.8 6.28 7.49
5/31/2022 7:15:00 PM 25.3 77.54 0.155 7.76 6.14 7.48
5/31/2022 7:30:00 PM 25.14 77.252 0.155 7.7 6.14 7.45
5/31/2022 7:45:00 PM 25.01 77.018 0.156 7.66 6.99 7.4
5/31/2022 8:00:00 PM 24.88 76.784 0.156 7.57 6.77 7.38
5/31/2022 8:15:00 PM 24.73 76.514 0.157 7.57 6.14 7.36
5/31/2022 8:30:00 PM 24.58 76.244 0.158 7.56 6.63 7.34
5/31/2022 8:45:00 PM 24.41 75.938 0.158 7.47 6.58 7.33
5/31/2022 9:00:00 PM 24.23 75.614 0.159 7.49 6.78 7.33
5/31/2022 9:15:00 PM 24.06 75.308 0.159 7.48 6.12 7.34
5/31/2022 9:30:00 PM 23.88 74.984 0.16 7.42 6.65 7.35
5/31/2022 9:45:00 PM 23.72 74.696 0.16 7.42 7.27 7.37
5/31/2022 10:00:00 PM 23.55 74.39 0.16 7.45 6.7 7.39
5/31/2022 10:15:00 PM 23.39 74.102 0.16 7.43 7.54 7.41
5/31/2022 10:30:00 PM 23.24 73.832 0.16 7.36 6.92 7.44
5/31/2022 10:45:00 PM 23.1 73.58 0.16 7.37 6.85 7.46
5/31/2022 11:00:00 PM 22.97 73.346 0.16 7.37 7.25 7.49
5/31/2022 11:15:00 PM 22.85 73.13 0.16 7.43 6.65 7.51
5/31/2022 11:30:00 PM 22.74 72.932 0.16 7.42 7.03 7.53
5/31/2022 11:45:00 PM 22.58 72.644 0.156 7.38 13.16 7.6
6/1/2022 12:00:00 AM 22.54 72.57201 0.158 7.42 8.62 7.58
6/1/2022 12:15:00 AM 22.46 72.42799 0.157 7.42 8.61 7.6
6/1/2022 12:30:00 AM 22.38 72.284 0.156 7.42 6.72 7.63
6/1/2022 12:45:00 AM 22.32 72.176 0.156 7.41 7.45 7.62
6/1/2022 1:00:00 AM 22.25 72.05 0.156 7.41 7.36 7.62
6/1/2022 1:15:00 AM 22.19 71.942 0.156 7.36 7.43 7.63
6/1/2022 1:30:00 AM 22.11 71.798 0.156 7.35 6.82 7.64
6/1/2022 1:45:00 AM 22.03 71.654 0.156 7.4 6.87 7.66
6/1/2022 2:00:00 AM 21.96 71.528 0.156 7.34 7.35 7.68
6/1/2022 2:15:00 AM 21.88 71.384 0.156 7.39 9.23 7.7
6/1/2022 2:30:00 AM 21.8 71.24 0.156 7.33 8.7 7.7
6/1/2022 2:45:00 AM 21.74 71.132 0.156 7.38 8.03 7.7
6/1/2022 3:00:00 AM 21.68 71.024 0.155 7.32 8.52 7.69
6/1/2022 3:15:00 AM 21.63 70.934 0.155 7.29 7.16 7.7
6/1/2022 3:30:00 AM 21.58 70.844 0.155 7.26 9.75 7.7
6/1/2022 3:45:00 AM 21.52 70.736 0.155 7.35 6.84 7.71
6/1/2022 4:00:00 AM 21.47 70.646 0.155 7.34 8.63 7.73
6/1/2022 4:15:00 AM 21.41 70.538 0.155 7.36 8.07 7.74
6/1/2022 4:30:00 AM 21.36 70.448 0.155 7.31 6.95 7.77
6/1/2022 4:45:00 AM 21.31 70.358 0.155 7.33 6.81 7.78
6/1/2022 5:00:00 AM 21.26 70.268 0.155 7.36 8.45 7.79
6/1/2022 5:15:00 AM 21.2 70.16 0.155 7.37 8.29 7.8
6/1/2022 5:30:00 AM 21.15 70.07 0.155 7.36 8.16 7.82
6/1/2022 5:45:00 AM 21.1 69.98 0.155 7.33 7.37 7.83
6/1/2022 6:00:00 AM 21.05 69.89 0.155 7.32 6.51 7.86
6/1/2022 6:15:00 AM 21 69.8 0.154 7.37 6.1 7.9
6/1/2022 6:30:00 AM 20.94 69.692 0.154 7.38 6.23 7.93
6/1/2022 6:45:00 AM 20.9 69.62 0.154 7.35 8.63 7.97
6/1/2022 7:00:00 AM 20.87 69.566 0.154 7.4 6.24 8.03
6/1/2022 7:15:00 AM 20.85 69.53 0.154 7.34 6.51 8.1
6/1/2022 7:30:00 AM 20.85 69.53 0.154 7.37 6.07 8.18
6/1/2022 7:45:00 AM 20.86 69.548 0.154 7.44 6.49 8.23
6/1/2022 8:00:00 AM 20.86 69.548 0.154 7.44 5.82 8.24
6/1/2022 8:15:00 AM 20.91 69.638 0.154 7.49 6.3 8.36
6/1/2022 8:30:00 AM 20.97 69.746 0.154 7.52 6.09 8.45
6/1/2022 8:45:00 AM 21.07 69.926 0.154 7.56 5.8 8.55
6/1/2022 9:00:00 AM 21.11 69.998 0.154 7.57 6.15 8.55
6/1/2022 9:15:00 AM 21.3 70.34 0.154 7.62 5.73 8.63
6/1/2022 9:30:00 AM 21.51 70.718 0.154 7.64 6.42 8.69
6/1/2022 9:45:00 AM 21.71 71.078 0.154 7.66 5.76 8.75
6/1/2022 10:00:00 AM 21.95 71.51 0.154 7.72 5.98 8.78
6/1/2022 10:15:00 AM 22.13 71.834 0.154 7.77 7.19 8.77
6/1/2022 10:30:00 AM 22.28 72.104 0.154 7.73 6.12 8.72
6/1/2022 10:45:00 AM 22.44 72.392 0.154 7.76 6.07 8.71
6/1/2022 11:00:00 AM 22.57 72.626 0.154 7.8 5.76 8.77
6/1/2022 11:15:00 AM 22.81 73.058 0.154 7.82 5.26 8.82
6/1/2022 11:30:00 AM 23.08 73.544 0.154 7.94 5.59 8.86
6/1/2022 11:45:00 AM 23.36 74.048 0.154 7.98 5.65 8.87
6/1/2022 12:00:00 PM 23.69 74.642 0.154 8.02 5.8 8.84
6/1/2022 12:15:00 PM 24.03 75.254 0.153 8.06 7.33 8.79
6/1/2022 12:30:00 PM 24.36 75.848 0.153 8.08 6.79 8.75
6/1/2022 12:45:00 PM 24.67 76.406 0.153 8.08 5.54 8.73
6/1/2022 1:00:00 PM 24.98 76.964 0.153 8.15 5.61 8.67
6/1/2022 1:15:00 PM 25.22 77.396 0.152 8.2 5.76 8.6
6/1/2022 1:30:00 PM 25.33 77.594 0.152 8.18 6.03 8.41
6/1/2022 1:45:00 PM 25.36 77.648 0.152 8.08 6.92 8.08
6/1/2022 2:00:00 PM 25.49 77.882 0.152 8.13 6.37 8.13
6/1/2022 2:15:00 PM 25.56 78.008 0.152 8.13 6.15 8.23
6/1/2022 2:30:00 PM 25.54 77.972 0.152 8.17 6.1 8.21
6/1/2022 2:45:00 PM 25.67 78.206 0.151 8.18 5.76 8.28
6/1/2022 3:00:00 PM 25.75 78.35 0.151 8.18 6.3 8.26
6/1/2022 3:15:00 PM 25.84 78.512 0.151 8.25 6.31 8.24
6/1/2022 3:30:00 PM 26 78.8 0.151 8.3 6.07 8.27
6/1/2022 3:45:00 PM 26.16 79.088 0.151 8.3 6.97 8.24
6/1/2022 4:00:00 PM 26.23 79.214 0.151 8.32 6.16 8.15
6/1/2022 4:15:00 PM 26.07 78.926 0.151 8.26 6.29 7.82
6/1/2022 4:30:00 PM 25.97 78.746 0.151 8.13 6.5 7.64
6/1/2022 4:45:00 PM 25.67 78.206 0.151 8.03 5.74 7.49
6/1/2022 5:00:00 PM 25.36 77.648 0.151 7.9 6.66 7.46
6/1/2022 5:15:00 PM 25 77 0.149 7.73 9.51 7.47
6/1/2022 5:30:00 PM -99999.99 -179968 -99999.99 -99999.99 -99999.99 -99999.99
6/1/2022 5:45:00 PM -99999.99 -179968 -99999.99 -99999.99 -99999.99 -99999.99
6/1/2022 6:00:00 PM -99999.99 -179968 -99999.99 -99999.99 -99999.99 -99999.99
6/1/2022 6:15:00 PM -99999.99 -179968 -99999.99 -99999.99 -99999.99 -99999.99
6/1/2022 6:30:00 PM -99999.99 -179968 -99999.99 -99999.99 -99999.99 -99999.99
6/1/2022 6:45:00 PM -99999.99 -179968 -99999.99 -99999.99 -99999.99 -99999.99
6/1/2022 7:00:00 PM -99999.99 -179968 -99999.99 -99999.99 -99999.99 -99999.99
6/1/2022 7:15:00 PM -99999.99 -179968 -99999.99 -99999.99 -99999.99 -99999.99
6/1/2022 7:30:00 PM -99999.99 -179968 -99999.99 -99999.99 -99999.99 -99999.99
6/1/2022 7:45:00 PM -99999.99 -179968 -99999.99 -99999.99 -99999.99 -99999.99
6/1/2022 8:00:00 PM -99999.99 -179968 -99999.99 -99999.99 -99999.99 -99999.99
6/1/2022 8:15:00 PM -99999.99 -179968 -99999.99 -99999.99 -99999.99 -99999.99
6/1/2022 8:30:00 PM -99999.99 -179968 -99999.99 -99999.99 -99999.99 -99999.99
6/1/2022 8:45:00 PM -99999.99 -179968 -99999.99 -99999.99 -99999.99 -99999.99
6/1/2022 9:00:00 PM -99999.99 -179968 -99999.99 -99999.99 -99999.99 -99999.99
6/1/2022 9:15:00 PM -99999.99 -179968 -99999.99 -99999.99 -99999.99 -99999.99
6/1/2022 9:30:00 PM -99999.99 -179968 -99999.99 -99999.99 -99999.99 -99999.99
6/1/2022 9:45:00 PM -99999.99 -179968 -99999.99 -99999.99 -99999.99 -99999.99
6/1/2022 10:00:00 PM -99999.99 -179968 -99999.99 -99999.99 -99999.99 -99999.99
6/1/2022 10:15:00 PM -99999.99 -179968 -99999.99 -99999.99 -99999.99 -99999.99
6/1/2022 10:30:00 PM -99999.99 -179968 -99999.99 -99999.99 -99999.99 -99999.99
6/1/2022 10:45:00 PM -99999.99 -179968 -99999.99 -99999.99 -99999.99 -99999.99
6/1/2022 11:00:00 PM -99999.99 -179968 -99999.99 -99999.99 -99999.99 -99999.99
6/1/2022 11:15:00 PM -99999.99 -179968 -99999.99 -99999.99 -99999.99 -99999.99
6/1/2022 11:30:00 PM -99999.99 -179968 -99999.99 -99999.99 -99999.99 -99999.99
6/1/2022 11:45:00 PM -99999.99 -179968 -99999.99 -99999.99 -99999.99 -99999.99
6/2/2022 12:00:00 AM -99999.99 -179968 -99999.99 -99999.99 -99999.99 -99999.99
6/2/2022 12:15:00 AM -99999.99 -179968 -99999.99 -99999.99 -99999.99 -99999.99
6/2/2022 12:30:00 AM -99999.99 -179968 -99999.99 -99999.99 -99999.99 -99999.99
6/2/2022 12:45:00 AM -99999.99 -179968 -99999.99 -99999.99 -99999.99 -99999.99
6/2/2022 1:00:00 AM -99999.99 -179968 -99999.99 -99999.99 -99999.99 -99999.99
6/2/2022 1:15:00 AM -99999.99 -179968 -99999.99 -99999.99 -99999.99 -99999.99
6/2/2022 1:30:00 AM -99999.99 -179968 -99999.99 -99999.99 -99999.99 -99999.99
6/2/2022 1:45:00 AM -99999.99 -179968 -99999.99 -99999.99 -99999.99 -99999.99
6/2/2022 2:00:00 AM -99999.99 -179968 -99999.99 -99999.99 -99999.99 -99999.99
6/2/2022 2:15:00 AM -99999.99 -179968 -99999.99 -99999.99 -99999.99 -99999.99
6/2/2022 2:30:00 AM -99999.99 -179968 -99999.99 -99999.99 -99999.99 -99999.99
6/2/2022 2:45:00 AM -99999.99 -179968 -99999.99 -99999.99 -99999.99 -99999.99
6/2/2022 3:00:00 AM -99999.99 -179968 -99999.99 -99999.99 -99999.99 -99999.99
6/2/2022 3:15:00 AM -99999.99 -179968 -99999.99 -99999.99 -99999.99 -99999.99
6/2/2022 3:30:00 AM -99999.99 -179968 -99999.99 -99999.99 -99999.99 -99999.99
6/2/2022 3:45:00 AM -99999.99 -179968 -99999.99 -99999.99 -99999.99 -99999.99
6/2/2022 4:00:00 AM -99999.99 -179968 -99999.99 -99999.99 -99999.99 -99999.99
6/2/2022 4:15:00 AM -99999.99 -179968 -99999.99 -99999.99 -99999.99 -99999.99
6/2/2022 4:30:00 AM -99999.99 -179968 -99999.99 -99999.99 -99999.99 -99999.99
6/2/2022 4:45:00 AM -99999.99 -179968 -99999.99 -99999.99 -99999.99 -99999.99
6/2/2022 5:00:00 AM -99999.99 -179968 -99999.99 -99999.99 -99999.99 -99999.99
6/2/2022 5:15:00 AM -99999.99 -179968 -99999.99 -99999.99 -99999.99 -99999.99
6/2/2022 5:30:00 AM -99999.99 -179968 -99999.99 -99999.99 -99999.99 -99999.99
6/2/2022 5:45:00 AM -99999.99 -179968 -99999.99 -99999.99 -99999.99 -99999.99
6/2/2022 6:00:00 AM -99999.99 -179968 -99999.99 -99999.99 -99999.99 -99999.99
6/2/2022 6:15:00 AM -99999.99 -179968 -99999.99 -99999.99 -99999.99 -99999.99
6/2/2022 6:30:00 AM -99999.99 -179968 -99999.99 -99999.99 -99999.99 -99999.99
6/2/2022 6:45:00 AM -99999.99 -179968 -99999.99 -99999.99 -99999.99 -99999.99
6/2/2022 7:00:00 AM -99999.99 -179968 -99999.99 -99999.99 -99999.99 -99999.99
6/2/2022 7:15:00 AM -99999.99 -179968 -99999.99 -99999.99 -99999.99 -99999.99
6/2/2022 7:30:00 AM -99999.99 -179968 -99999.99 -99999.99 -99999.99 -99999.99
6/2/2022 7:45:00 AM -99999.99 -179968 -99999.99 -99999.99 -99999.99 -99999.99
6/2/2022 8:00:00 AM -99999.99 -179968 -99999.99 -99999.99 -99999.99 -99999.99
6/2/2022 8:15:00 AM -99999.99 -179968 -99999.99 -99999.99 -99999.99 -99999.99
6/2/2022 8:30:00 AM -99999.99 -179968 -99999.99 -99999.99 -99999.99 -99999.99
6/2/2022 8:45:00 AM -99999.99 -179968 -99999.99 -99999.99 -99999.99 -99999.99
6/2/2022 9:00:00 AM -99999.99 -179968 -99999.99 -99999.99 -99999.99 -99999.99
6/2/2022 9:15:00 AM -99999.99 -179968 -99999.99 -99999.99 -99999.99 -99999.99
6/2/2022 9:30:00 AM -99999.99 -179968 -99999.99 -99999.99 -99999.99 -99999.99
6/2/2022 9:45:00 AM -99999.99 -179968 -99999.99 -99999.99 -99999.99 -99999.99
6/2/2022 10:00:00 AM -99999.99 -179968 -99999.99 -99999.99 -99999.99 -99999.99
6/2/2022 10:15:00 AM -99999.99 -179968 -99999.99 -99999.99 -99999.99 -99999.99
6/2/2022 10:30:00 AM -99999.99 -179968 -99999.99 -99999.99 -99999.99 -99999.99
6/2/2022 10:45:00 AM -99999.99 -179968 -99999.99 -99999.99 -99999.99 -99999.99
6/2/2022 11:00:00 AM -99999.99 -179968 -99999.99 -99999.99 -99999.99 -99999.99
6/2/2022 11:15:00 AM -99999.99 -179968 -99999.99 -99999.99 -99999.99 -99999.99
6/2/2022 11:30:00 AM -99999.99 -179968 -99999.99 -99999.99 -99999.99 -99999.99
6/2/2022 11:45:00 AM -99999.99 -179968 -99999.99 -99999.99 -99999.99 -99999.99
6/2/2022 12:00:00 PM -99999.99 -179968 -99999.99 -99999.99 -99999.99 -99999.99
6/2/2022 12:15:00 PM -99999.99 -179968 -99999.99 -99999.99 -99999.99 -99999.99
6/2/2022 12:30:00 PM -99999.99 -179968 -99999.99 -99999.99 -99999.99 -99999.99
6/2/2022 12:45:00 PM -99999.99 -179968 -99999.99 -99999.99 -99999.99 -99999.99
6/2/2022 1:00:00 PM -99999.99 -179968 -99999.99 -99999.99 -99999.99 -99999.99
6/2/2022 1:15:00 PM -99999.99 -179968 -99999.99 -99999.99 -99999.99 -99999.99
6/2/2022 1:30:00 PM -99999.99 -179968 -99999.99 -99999.99 -99999.99 -99999.99
6/2/2022 1:45:00 PM -99999.99 -179968 -99999.99 -99999.99 -99999.99 -99999.99
6/2/2022 2:00:00 PM -99999.99 -179968 -99999.99 -99999.99 -99999.99 -99999.99
6/2/2022 2:15:00 PM -99999.99 -179968 -99999.99 -99999.99 -99999.99 -99999.99
6/2/2022 2:30:00 PM -99999.99 -179968 -99999.99 -99999.99 -99999.99 -99999.99
6/2/2022 2:45:00 PM -99999.99 -179968 -99999.99 -99999.99 -99999.99 -99999.99
6/2/2022 3:00:00 PM -99999.99 -179968 -99999.99 -99999.99 -99999.99 -99999.99
6/2/2022 3:15:00 PM -99999.99 -179968 -99999.99 -99999.99 -99999.99 -99999.99
6/2/2022 3:30:00 PM -99999.99 -179968 -99999.99 -99999.99 -99999.99 -99999.99
6/2/2022 3:45:00 PM -99999.99 -179968 -99999.99 -99999.99 -99999.99 -99999.99
6/2/2022 4:00:00 PM -99999.99 -179968 -99999.99 -99999.99 -99999.99 -99999.99
6/2/2022 4:15:00 PM -99999.99 -179968 -99999.99 -99999.99 -99999.99 -99999.99
6/2/2022 4:30:00 PM -99999.99 -179968 -99999.99 -99999.99 -99999.99 -99999.99
6/2/2022 4:45:00 PM -99999.99 -179968 -99999.99 -99999.99 -99999.99 -99999.99
6/2/2022 5:00:00 PM -99999.99 -179968 -99999.99 -99999.99 -99999.99 -99999.99
6/2/2022 5:15:00 PM -99999.99 -179968 -99999.99 -99999.99 -99999.99 -99999.99
6/2/2022 5:30:00 PM -99999.99 -179968 -99999.99 -99999.99 -99999.99 -99999.99
6/2/2022 5:45:00 PM -99999.99 -179968 -99999.99 -99999.99 -99999.99 -99999.99
6/2/2022 6:00:00 PM -99999.99 -179968 -99999.99 -99999.99 -99999.99 -99999.99
6/2/2022 6:15:00 PM -99999.99 -179968 -99999.99 -99999.99 -99999.99 -99999.99
6/2/2022 6:30:00 PM -99999.99 -179968 -99999.99 -99999.99 -99999.99 -99999.99
6/2/2022 6:45:00 PM -99999.99 -179968 -99999.99 -99999.99 -99999.99 -99999.99
6/2/2022 7:00:00 PM -99999.99 -179968 -99999.99 -99999.99 -99999.99 -99999.99
6/2/2022 7:15:00 PM -99999.99 -179968 -99999.99 -99999.99 -99999.99 -99999.99
6/2/2022 7:30:00 PM -99999.99 -179968 -99999.99 -99999.99 -99999.99 -99999.99
6/2/2022 7:45:00 PM -99999.99 -179968 -99999.99 -99999.99 -99999.99 -99999.99
6/2/2022 8:00:00 PM -99999.99 -179968 -99999.99 -99999.99 -99999.99 -99999.99
6/2/2022 8:15:00 PM -99999.99 -179968 -99999.99 -99999.99 -99999.99 -99999.99
6/2/2022 8:30:00 PM -99999.99 -179968 -99999.99 -99999.99 -99999.99 -99999.99
6/2/2022 8:45:00 PM -99999.99 -179968 -99999.99 -99999.99 -99999.99 -99999.99
6/2/2022 9:00:00 PM -99999.99 -179968 -99999.99 -99999.99 -99999.99 -99999.99
6/2/2022 9:15:00 PM -99999.99 -179968 -99999.99 -99999.99 -99999.99 -99999.99
6/2/2022 9:30:00 PM -99999.99 -179968 -99999.99 -99999.99 -99999.99 -99999.99
6/2/2022 9:45:00 PM -99999.99 -179968 -99999.99 -99999.99 -99999.99 -99999.99
6/2/2022 10:00:00 PM -99999.99 -179968 -99999.99 -99999.99 -99999.99 -99999.99
6/2/2022 10:15:00 PM -99999.99 -179968 -99999.99 -99999.99 -99999.99 -99999.99
6/2/2022 10:30:00 PM -99999.99 -179968 -99999.99 -99999.99 -99999.99 -99999.99
6/2/2022 10:45:00 PM -99999.99 -179968 -99999.99 -99999.99 -99999.99 -99999.99
6/2/2022 11:00:00 PM -99999.99 -179968 -99999.99 -99999.99 -99999.99 -99999.99
6/2/2022 11:15:00 PM -99999.99 -179968 -99999.99 -99999.99 -99999.99 -99999.99
6/2/2022 11:30:00 PM -99999.99 -179968 -99999.99 -99999.99 -99999.99 -99999.99
6/2/2022 11:45:00 PM -99999.99 -179968 -99999.99 -99999.99 -99999.99 -99999.99
6/3/2022 12:00:00 AM -99999.99 -179968 -99999.99 -99999.99 -99999.99 -99999.99
6/3/2022 12:15:00 AM -99999.99 -179968 -99999.99 -99999.99 -99999.99 -99999.99
6/3/2022 12:30:00 AM -99999.99 -179968 -99999.99 -99999.99 -99999.99 -99999.99
6/3/2022 12:45:00 AM -99999.99 -179968 -99999.99 -99999.99 -99999.99 -99999.99
6/3/2022 1:00:00 AM -99999.99 -179968 -99999.99 -99999.99 -99999.99 -99999.99
6/3/2022 1:15:00 AM -99999.99 -179968 -99999.99 -99999.99 -99999.99 -99999.99
6/3/2022 1:30:00 AM -99999.99 -179968 -99999.99 -99999.99 -99999.99 -99999.99
6/3/2022 1:45:00 AM -99999.99 -179968 -99999.99 -99999.99 -99999.99 -99999.99
6/3/2022 2:00:00 AM -99999.99 -179968 -99999.99 -99999.99 -99999.99 -99999.99
6/3/2022 2:15:00 AM -99999.99 -179968 -99999.99 -99999.99 -99999.99 -99999.99
6/3/2022 2:30:00 AM -99999.99 -179968 -99999.99 -99999.99 -99999.99 -99999.99
6/3/2022 2:45:00 AM -99999.99 -179968 -99999.99 -99999.99 -99999.99 -99999.99
6/3/2022 3:00:00 AM -99999.99 -179968 -99999.99 -99999.99 -99999.99 -99999.99
6/3/2022 3:15:00 AM -99999.99 -179968 -99999.99 -99999.99 -99999.99 -99999.99
6/3/2022 3:30:00 AM -99999.99 -179968 -99999.99 -99999.99 -99999.99 -99999.99
6/3/2022 3:45:00 AM -99999.99 -179968 -99999.99 -99999.99 -99999.99 -99999.99
6/3/2022 4:00:00 AM -99999.99 -179968 -99999.99 -99999.99 -99999.99 -99999.99
6/3/2022 4:15:00 AM -99999.99 -179968 -99999.99 -99999.99 -99999.99 -99999.99
6/3/2022 4:30:00 AM -99999.99 -179968 -99999.99 -99999.99 -99999.99 -99999.99
6/3/2022 4:45:00 AM -99999.99 -179968 -99999.99 -99999.99 -99999.99 -99999.99
6/3/2022 5:00:00 AM -99999.99 -179968 -99999.99 -99999.99 -99999.99 -99999.99
6/3/2022 5:15:00 AM -99999.99 -179968 -99999.99 -99999.99 -99999.99 -99999.99
6/3/2022 5:30:00 AM -99999.99 -179968 -99999.99 -99999.99 -99999.99 -99999.99
6/3/2022 5:45:00 AM -99999.99 -179968 -99999.99 -99999.99 -99999.99 -99999.99
6/3/2022 6:00:00 AM -99999.99 -179968 -99999.99 -99999.99 -99999.99 -99999.99
6/3/2022 6:15:00 AM -99999.99 -179968 -99999.99 -99999.99 -99999.99 -99999.99
6/3/2022 6:30:00 AM -99999.99 -179968 -99999.99 -99999.99 -99999.99 -99999.99
6/3/2022 6:45:00 AM -99999.99 -179968 -99999.99 -99999.99 -99999.99 -99999.99
6/3/2022 7:00:00 AM -99999.99 -179968 -99999.99 -99999.99 -99999.99 -99999.99
6/3/2022 7:15:00 AM -99999.99 -179968 -99999.99 -99999.99 -99999.99 -99999.99
6/3/2022 7:30:00 AM -99999.99 -179968 -99999.99 -99999.99 -99999.99 -99999.99
6/3/2022 7:45:00 AM -99999.99 -179968 -99999.99 -99999.99 -99999.99 -99999.99
6/3/2022 8:00:00 AM -99999.99 -179968 -99999.99 -99999.99 -99999.99 -99999.99
6/3/2022 8:15:00 AM -99999.99 -179968 -99999.99 -99999.99 -99999.99 -99999.99
6/3/2022 8:30:00 AM -99999.99 -179968 -99999.99 -99999.99 -99999.99 -99999.99
6/3/2022 8:45:00 AM -99999.99 -179968 -99999.99 -99999.99 -99999.99 -99999.99
6/3/2022 9:00:00 AM -99999.99 -179968 -99999.99 -99999.99 -99999.99 -99999.99
6/3/2022 9:15:00 AM -99999.99 -179968 -99999.99 -99999.99 -99999.99 -99999.99
6/3/2022 9:30:00 AM -99999.99 -179968 -99999.99 -99999.99 -99999.99 -99999.99
6/3/2022 9:45:00 AM -99999.99 -179968 -99999.99 -99999.99 -99999.99 -99999.99
6/3/2022 10:00:00 AM -99999.99 -179968 -99999.99 -99999.99 -99999.99 -99999.99
6/3/2022 10:15:00 AM -99999.99 -179968 -99999.99 -99999.99 -99999.99 -99999.99
6/3/2022 10:30:00 AM -99999.99 -179968 -99999.99 -99999.99 -99999.99 -99999.99
6/3/2022 10:45:00 AM -99999.99 -179968 -99999.99 -99999.99 -99999.99 -99999.99
6/3/2022 11:00:00 AM -99999.99 -179968 -99999.99 -99999.99 -99999.99 -99999.99
6/3/2022 11:15:00 AM -99999.99 -179968 -99999.99 -99999.99 -99999.99 -99999.99
6/3/2022 11:30:00 AM -99999.99 -179968 -99999.99 -99999.99 -99999.99 -99999.99
6/3/2022 11:45:00 AM -99999.99 -179968 -99999.99 -99999.99 -99999.99 -99999.99
6/3/2022 12:00:00 PM -99999.99 -179968 -99999.99 -99999.99 -99999.99 -99999.99
6/3/2022 12:15:00 PM -99999.99 -179968 -99999.99 -99999.99 -99999.99 -99999.99
6/3/2022 12:30:00 PM -99999.99 -179968 -99999.99 -99999.99 -99999.99 -99999.99
6/3/2022 12:45:00 PM -99999.99 -179968 -99999.99 -99999.99 -99999.99 -99999.99
6/3/2022 1:00:00 PM -99999.99 -179968 -99999.99 -99999.99 -99999.99 -99999.99
6/3/2022 1:15:00 PM -99999.99 -179968 -99999.99 -99999.99 -99999.99 -99999.99
6/3/2022 1:30:00 PM -99999.99 -179968 -99999.99 -99999.99 -99999.99 -99999.99
6/3/2022 1:45:00 PM -99999.99 -179968 -99999.99 -99999.99 -99999.99 -99999.99
6/3/2022 2:00:00 PM -99999.99 -179968 -99999.99 -99999.99 -99999.99 -99999.99
6/3/2022 2:15:00 PM -99999.99 -179968 -99999.99 -99999.99 -99999.99 -99999.99
6/3/2022 2:30:00 PM -99999.99 -179968 -99999.99 -99999.99 -99999.99 -99999.99
6/3/2022 2:45:00 PM -99999.99 -179968 -99999.99 -99999.99 -99999.99 -99999.99
6/3/2022 3:00:00 PM -99999.99 -179968 -99999.99 -99999.99 -99999.99 -99999.99
6/3/2022 3:15:00 PM -99999.99 -179968 -99999.99 -99999.99 -99999.99 -99999.99
6/3/2022 3:30:00 PM -99999.99 -179968 -99999.99 -99999.99 -99999.99 -99999.99
6/3/2022 3:45:00 PM -99999.99 -179968 -99999.99 -99999.99 -99999.99 -99999.99
6/3/2022 4:00:00 PM -99999.99 -179968 -99999.99 -99999.99 -99999.99 -99999.99
6/3/2022 4:15:00 PM -99999.99 -179968 -99999.99 -99999.99 -99999.99 -99999.99
6/3/2022 4:30:00 PM -99999.99 -179968 -99999.99 -99999.99 -99999.99 -99999.99
6/3/2022 4:45:00 PM -99999.99 -179968 -99999.99 -99999.99 -99999.99 -99999.99
6/3/2022 5:00:00 PM -99999.99 -179968 -99999.99 -99999.99 -99999.99 -99999.99
6/3/2022 5:15:00 PM -99999.99 -179968 -99999.99 -99999.99 -99999.99 -99999.99
6/3/2022 5:30:00 PM -99999.99 -179968 -99999.99 -99999.99 -99999.99 -99999.99
6/3/2022 5:45:00 PM -99999.99 -179968 -99999.99 -99999.99 -99999.99 -99999.99
6/3/2022 6:00:00 PM -99999.99 -179968 -99999.99 -99999.99 -99999.99 -99999.99
6/3/2022 6:15:00 PM -99999.99 -179968 -99999.99 -99999.99 -99999.99 -99999.99
6/3/2022 6:30:00 PM -99999.99 -179968 -99999.99 -99999.99 -99999.99 -99999.99
6/3/2022 6:45:00 PM -99999.99 -179968 -99999.99 -99999.99 -99999.99 -99999.99
6/3/2022 7:00:00 PM -99999.99 -179968 -99999.99 -99999.99 -99999.99 -99999.99
6/3/2022 7:15:00 PM -99999.99 -179968 -99999.99 -99999.99 -99999.99 -99999.99
6/3/2022 7:30:00 PM -99999.99 -179968 -99999.99 -99999.99 -99999.99 -99999.99
6/3/2022 7:45:00 PM -99999.99 -179968 -99999.99 -99999.99 -99999.99 -99999.99
6/3/2022 8:00:00 PM -99999.99 -179968 -99999.99 -99999.99 -99999.99 -99999.99
6/3/2022 8:15:00 PM -99999.99 -179968 -99999.99 -99999.99 -99999.99 -99999.99
6/3/2022 8:30:00 PM -99999.99 -179968 -99999.99 -99999.99 -99999.99 -99999.99
6/3/2022 8:45:00 PM -99999.99 -179968 -99999.99 -99999.99 -99999.99 -99999.99
6/3/2022 9:00:00 PM -99999.99 -179968 -99999.99 -99999.99 -99999.99 -99999.99
6/3/2022 9:15:00 PM -99999.99 -179968 -99999.99 -99999.99 -99999.99 -99999.99
6/3/2022 9:30:00 PM -99999.99 -179968 -99999.99 -99999.99 -99999.99 -99999.99
6/3/2022 9:45:00 PM -99999.99 -179968 -99999.99 -99999.99 -99999.99 -99999.99
6/3/2022 10:00:00 PM -99999.99 -179968 -99999.99 -99999.99 -99999.99 -99999.99
6/3/2022 10:15:00 PM -99999.99 -179968 -99999.99 -99999.99 -99999.99 -99999.99
6/3/2022 10:30:00 PM -99999.99 -179968 -99999.99 -99999.99 -99999.99 -99999.99
6/3/2022 10:45:00 PM -99999.99 -179968 -99999.99 -99999.99 -99999.99 -99999.99
6/3/2022 11:00:00 PM -99999.99 -179968 -99999.99 -99999.99 -99999.99 -99999.99
6/3/2022 11:15:00 PM -99999.99 -179968 -99999.99 -99999.99 -99999.99 -99999.99
6/3/2022 11:30:00 PM -99999.99 -179968 -99999.99 -99999.99 -99999.99 -99999.99
6/3/2022 11:45:00 PM -99999.99 -179968 -99999.99 -99999.99 -99999.99 -99999.99
6/4/2022 12:00:00 AM -99999.99 -179968 -99999.99 -99999.99 -99999.99 -99999.99
6/4/2022 12:15:00 AM -99999.99 -179968 -99999.99 -99999.99 -99999.99 -99999.99
6/4/2022 12:30:00 AM -99999.99 -179968 -99999.99 -99999.99 -99999.99 -99999.99
6/4/2022 12:45:00 AM -99999.99 -179968 -99999.99 -99999.99 -99999.99 -99999.99
6/4/2022 1:00:00 AM -99999.99 -179968 -99999.99 -99999.99 -99999.99 -99999.99
6/4/2022 1:15:00 AM -99999.99 -179968 -99999.99 -99999.99 -99999.99 -99999.99
6/4/2022 1:30:00 AM -99999.99 -179968 -99999.99 -99999.99 -99999.99 -99999.99
6/4/2022 1:45:00 AM -99999.99 -179968 -99999.99 -99999.99 -99999.99 -99999.99
6/4/2022 2:00:00 AM -99999.99 -179968 -99999.99 -99999.99 -99999.99 -99999.99
6/4/2022 2:15:00 AM -99999.99 -179968 -99999.99 -99999.99 -99999.99 -99999.99
6/4/2022 2:30:00 AM -99999.99 -179968 -99999.99 -99999.99 -99999.99 -99999.99
6/4/2022 2:45:00 AM -99999.99 -179968 -99999.99 -99999.99 -99999.99 -99999.99
6/4/2022 3:00:00 AM -99999.99 -179968 -99999.99 -99999.99 -99999.99 -99999.99
6/4/2022 3:15:00 AM -99999.99 -179968 -99999.99 -99999.99 -99999.99 -99999.99
6/4/2022 3:30:00 AM -99999.99 -179968 -99999.99 -99999.99 -99999.99 -99999.99
6/4/2022 3:45:00 AM -99999.99 -179968 -99999.99 -99999.99 -99999.99 -99999.99
6/4/2022 4:00:00 AM -99999.99 -179968 -99999.99 -99999.99 -99999.99 -99999.99
6/4/2022 4:15:00 AM -99999.99 -179968 -99999.99 -99999.99 -99999.99 -99999.99
6/4/2022 4:30:00 AM -99999.99 -179968 -99999.99 -99999.99 -99999.99 -99999.99
6/4/2022 4:45:00 AM -99999.99 -179968 -99999.99 -99999.99 -99999.99 -99999.99
6/4/2022 5:00:00 AM -99999.99 -179968 -99999.99 -99999.99 -99999.99 -99999.99
6/4/2022 5:15:00 AM -99999.99 -179968 -99999.99 -99999.99 -99999.99 -99999.99
6/4/2022 5:30:00 AM -99999.99 -179968 -99999.99 -99999.99 -99999.99 -99999.99
6/4/2022 5:45:00 AM -99999.99 -179968 -99999.99 -99999.99 -99999.99 -99999.99
6/4/2022 6:00:00 AM -99999.99 -179968 -99999.99 -99999.99 -99999.99 -99999.99
6/4/2022 6:15:00 AM -99999.99 -179968 -99999.99 -99999.99 -99999.99 -99999.99
6/4/2022 6:30:00 AM -99999.99 -179968 -99999.99 -99999.99 -99999.99 -99999.99
6/4/2022 6:45:00 AM -99999.99 -179968 -99999.99 -99999.99 -99999.99 -99999.99
6/4/2022 7:00:00 AM -99999.99 -179968 -99999.99 -99999.99 -99999.99 -99999.99
6/4/2022 7:15:00 AM -99999.99 -179968 -99999.99 -99999.99 -99999.99 -99999.99
6/4/2022 7:30:00 AM -99999.99 -179968 -99999.99 -99999.99 -99999.99 -99999.99
6/4/2022 7:45:00 AM -99999.99 -179968 -99999.99 -99999.99 -99999.99 -99999.99
6/4/2022 8:00:00 AM -99999.99 -179968 -99999.99 -99999.99 -99999.99 -99999.99
6/4/2022 8:15:00 AM -99999.99 -179968 -99999.99 -99999.99 -99999.99 -99999.99
6/4/2022 8:30:00 AM -99999.99 -179968 -99999.99 -99999.99 -99999.99 -99999.99
6/4/2022 8:45:00 AM -99999.99 -179968 -99999.99 -99999.99 -99999.99 -99999.99
6/4/2022 9:00:00 AM -99999.99 -179968 -99999.99 -99999.99 -99999.99 -99999.99
6/4/2022 9:15:00 AM -99999.99 -179968 -99999.99 -99999.99 -99999.99 -99999.99
6/4/2022 9:30:00 AM -99999.99 -179968 -99999.99 -99999.99 -99999.99 -99999.99
6/4/2022 9:45:00 AM -99999.99 -179968 -99999.99 -99999.99 -99999.99 -99999.99
6/4/2022 10:00:00 AM -99999.99 -179968 -99999.99 -99999.99 -99999.99 -99999.99
6/4/2022 10:15:00 AM -99999.99 -179968 -99999.99 -99999.99 -99999.99 -99999.99
6/4/2022 10:30:00 AM -99999.99 -179968 -99999.99 -99999.99 -99999.99 -99999.99
6/4/2022 10:45:00 AM -99999.99 -179968 -99999.99 -99999.99 -99999.99 -99999.99
6/4/2022 11:00:00 AM -99999.99 -179968 -99999.99 -99999.99 -99999.99 -99999.99
6/4/2022 11:15:00 AM -99999.99 -179968 -99999.99 -99999.99 -99999.99 -99999.99
6/4/2022 11:30:00 AM -99999.99 -179968 -99999.99 -99999.99 -99999.99 -99999.99
6/4/2022 11:45:00 AM -99999.99 -179968 -99999.99 -99999.99 -99999.99 -99999.99
6/4/2022 12:00:00 PM -99999.99 -179968 -99999.99 -99999.99 -99999.99 -99999.99
6/4/2022 12:15:00 PM -99999.99 -179968 -99999.99 -99999.99 -99999.99 -99999.99
6/4/2022 12:30:00 PM -99999.99 -179968 -99999.99 -99999.99 -99999.99 -99999.99
6/4/2022 12:45:00 PM -99999.99 -179968 -99999.99 -99999.99 -99999.99 -99999.99
6/4/2022 1:00:00 PM -99999.99 -179968 -99999.99 -99999.99 -99999.99 -99999.99
6/4/2022 1:15:00 PM -99999.99 -179968 -99999.99 -99999.99 -99999.99 -99999.99
6/4/2022 1:30:00 PM -99999.99 -179968 -99999.99 -99999.99 -99999.99 -99999.99
6/4/2022 1:45:00 PM -99999.99 -179968 -99999.99 -99999.99 -99999.99 -99999.99
6/4/2022 2:00:00 PM -99999.99 -179968 -99999.99 -99999.99 -99999.99 -99999.99
6/4/2022 2:15:00 PM -99999.99 -179968 -99999.99 -99999.99 -99999.99 -99999.99
6/4/2022 2:30:00 PM -99999.99 -179968 -99999.99 -99999.99 -99999.99 -99999.99
6/4/2022 2:45:00 PM -99999.99 -179968 -99999.99 -99999.99 -99999.99 -99999.99
6/4/2022 3:00:00 PM -99999.99 -179968 -99999.99 -99999.99 -99999.99 -99999.99
6/4/2022 3:15:00 PM -99999.99 -179968 -99999.99 -99999.99 -99999.99 -99999.99
6/4/2022 3:30:00 PM -99999.99 -179968 -99999.99 -99999.99 -99999.99 -99999.99
6/4/2022 3:45:00 PM -99999.99 -179968 -99999.99 -99999.99 -99999.99 -99999.99
6/4/2022 4:00:00 PM -99999.99 -179968 -99999.99 -99999.99 -99999.99 -99999.99
6/4/2022 4:15:00 PM -99999.99 -179968 -99999.99 -99999.99 -99999.99 -99999.99
6/4/2022 4:30:00 PM -99999.99 -179968 -99999.99 -99999.99 -99999.99 -99999.99
6/4/2022 4:45:00 PM -99999.99 -179968 -99999.99 -99999.99 -99999.99 -99999.99
6/4/2022 5:00:00 PM -99999.99 -179968 -99999.99 -99999.99 -99999.99 -99999.99
6/4/2022 5:15:00 PM -99999.99 -179968 -99999.99 -99999.99 -99999.99 -99999.99
6/4/2022 5:30:00 PM -99999.99 -179968 -99999.99 -99999.99 -99999.99 -99999.99
6/4/2022 5:45:00 PM -99999.99 -179968 -99999.99 -99999.99 -99999.99 -99999.99
6/4/2022 6:00:00 PM -99999.99 -179968 -99999.99 -99999.99 -99999.99 -99999.99
6/4/2022 6:15:00 PM -99999.99 -179968 -99999.99 -99999.99 -99999.99 -99999.99
6/4/2022 6:30:00 PM -99999.99 -179968 -99999.99 -99999.99 -99999.99 -99999.99
6/4/2022 6:45:00 PM -99999.99 -179968 -99999.99 -99999.99 -99999.99 -99999.99
6/4/2022 7:00:00 PM -99999.99 -179968 -99999.99 -99999.99 -99999.99 -99999.99
6/4/2022 7:15:00 PM -99999.99 -179968 -99999.99 -99999.99 -99999.99 -99999.99
6/4/2022 7:30:00 PM -99999.99 -179968 -99999.99 -99999.99 -99999.99 -99999.99
6/4/2022 7:45:00 PM -99999.99 -179968 -99999.99 -99999.99 -99999.99 -99999.99
6/4/2022 8:00:00 PM -99999.99 -179968 -99999.99 -99999.99 -99999.99 -99999.99
6/4/2022 8:15:00 PM -99999.99 -179968 -99999.99 -99999.99 -99999.99 -99999.99
6/4/2022 8:30:00 PM -99999.99 -179968 -99999.99 -99999.99 -99999.99 -99999.99
6/4/2022 8:45:00 PM -99999.99 -179968 -99999.99 -99999.99 -99999.99 -99999.99
6/4/2022 9:00:00 PM -99999.99 -179968 -99999.99 -99999.99 -99999.99 -99999.99
6/4/2022 9:15:00 PM -99999.99 -179968 -99999.99 -99999.99 -99999.99 -99999.99
6/4/2022 9:30:00 PM -99999.99 -179968 -99999.99 -99999.99 -99999.99 -99999.99
6/4/2022 9:45:00 PM -99999.99 -179968 -99999.99 -99999.99 -99999.99 -99999.99
6/4/2022 10:00:00 PM -99999.99 -179968 -99999.99 -99999.99 -99999.99 -99999.99
6/4/2022 10:15:00 PM -99999.99 -179968 -99999.99 -99999.99 -99999.99 -99999.99
6/4/2022 10:30:00 PM -99999.99 -179968 -99999.99 -99999.99 -99999.99 -99999.99
6/4/2022 10:45:00 PM -99999.99 -179968 -99999.99 -99999.99 -99999.99 -99999.99
6/4/2022 11:00:00 PM -99999.99 -179968 -99999.99 -99999.99 -99999.99 -99999.99
6/4/2022 11:15:00 PM -99999.99 -179968 -99999.99 -99999.99 -99999.99 -99999.99
6/4/2022 11:30:00 PM -99999.99 -179968 -99999.99 -99999.99 -99999.99 -99999.99
6/4/2022 11:45:00 PM -99999.99 -179968 -99999.99 -99999.99 -99999.99 -99999.99
6/5/2022 12:00:00 AM -99999.99 -179968 -99999.99 -99999.99 -99999.99 -99999.99
6/5/2022 12:15:00 AM -99999.99 -179968 -99999.99 -99999.99 -99999.99 -99999.99
6/5/2022 12:30:00 AM -99999.99 -179968 -99999.99 -99999.99 -99999.99 -99999.99
6/5/2022 12:45:00 AM -99999.99 -179968 -99999.99 -99999.99 -99999.99 -99999.99
6/5/2022 1:00:00 AM -99999.99 -179968 -99999.99 -99999.99 -99999.99 -99999.99
6/5/2022 1:15:00 AM -99999.99 -179968 -99999.99 -99999.99 -99999.99 -99999.99
6/5/2022 1:30:00 AM -99999.99 -179968 -99999.99 -99999.99 -99999.99 -99999.99
6/5/2022 1:45:00 AM -99999.99 -179968 -99999.99 -99999.99 -99999.99 -99999.99
6/5/2022 2:00:00 AM -99999.99 -179968 -99999.99 -99999.99 -99999.99 -99999.99
6/5/2022 2:15:00 AM -99999.99 -179968 -99999.99 -99999.99 -99999.99 -99999.99
6/5/2022 2:30:00 AM -99999.99 -179968 -99999.99 -99999.99 -99999.99 -99999.99
6/5/2022 2:45:00 AM -99999.99 -179968 -99999.99 -99999.99 -99999.99 -99999.99
6/5/2022 3:00:00 AM -99999.99 -179968 -99999.99 -99999.99 -99999.99 -99999.99
6/5/2022 3:15:00 AM -99999.99 -179968 -99999.99 -99999.99 -99999.99 -99999.99
6/5/2022 3:30:00 AM -99999.99 -179968 -99999.99 -99999.99 -99999.99 -99999.99
6/5/2022 3:45:00 AM -99999.99 -179968 -99999.99 -99999.99 -99999.99 -99999.99
6/5/2022 4:00:00 AM -99999.99 -179968 -99999.99 -99999.99 -99999.99 -99999.99
6/5/2022 4:15:00 AM -99999.99 -179968 -99999.99 -99999.99 -99999.99 -99999.99
6/5/2022 4:30:00 AM -99999.99 -179968 -99999.99 -99999.99 -99999.99 -99999.99
6/5/2022 4:45:00 AM -99999.99 -179968 -99999.99 -99999.99 -99999.99 -99999.99
6/5/2022 5:00:00 AM -99999.99 -179968 -99999.99 -99999.99 -99999.99 -99999.99
6/5/2022 5:15:00 AM -99999.99 -179968 -99999.99 -99999.99 -99999.99 -99999.99
6/5/2022 5:30:00 AM -99999.99 -179968 -99999.99 -99999.99 -99999.99 -99999.99
6/5/2022 5:45:00 AM -99999.99 -179968 -99999.99 -99999.99 -99999.99 -99999.99
6/5/2022 6:00:00 AM -99999.99 -179968 -99999.99 -99999.99 -99999.99 -99999.99
6/5/2022 6:15:00 AM -99999.99 -179968 -99999.99 -99999.99 -99999.99 -99999.99
6/5/2022 6:30:00 AM -99999.99 -179968 -99999.99 -99999.99 -99999.99 -99999.99
6/5/2022 6:45:00 AM -99999.99 -179968 -99999.99 -99999.99 -99999.99 -99999.99
6/5/2022 7:00:00 AM -99999.99 -179968 -99999.99 -99999.99 -99999.99 -99999.99
6/5/2022 7:15:00 AM -99999.99 -179968 -99999.99 -99999.99 -99999.99 -99999.99
6/5/2022 7:30:00 AM -99999.99 -179968 -99999.99 -99999.99 -99999.99 -99999.99
6/5/2022 7:45:00 AM -99999.99 -179968 -99999.99 -99999.99 -99999.99 -99999.99
6/5/2022 8:00:00 AM -99999.99 -179968 -99999.99 -99999.99 -99999.99 -99999.99
6/5/2022 8:15:00 AM -99999.99 -179968 -99999.99 -99999.99 -99999.99 -99999.99
6/5/2022 8:30:00 AM -99999.99 -179968 -99999.99 -99999.99 -99999.99 -99999.99
6/5/2022 8:45:00 AM -99999.99 -179968 -99999.99 -99999.99 -99999.99 -99999.99
6/5/2022 9:00:00 AM -99999.99 -179968 -99999.99 -99999.99 -99999.99 -99999.99
6/5/2022 9:15:00 AM -99999.99 -179968 -99999.99 -99999.99 -99999.99 -99999.99
6/5/2022 9:30:00 AM -99999.99 -179968 -99999.99 -99999.99 -99999.99 -99999.99
6/5/2022 9:45:00 AM -99999.99 -179968 -99999.99 -99999.99 -99999.99 -99999.99
6/5/2022 10:00:00 AM -99999.99 -179968 -99999.99 -99999.99 -99999.99 -99999.99
6/5/2022 10:15:00 AM -99999.99 -179968 -99999.99 -99999.99 -99999.99 -99999.99
6/5/2022 10:30:00 AM -99999.99 -179968 -99999.99 -99999.99 -99999.99 -99999.99
6/5/2022 10:45:00 AM -99999.99 -179968 -99999.99 -99999.99 -99999.99 -99999.99
6/5/2022 11:00:00 AM -99999.99 -179968 -99999.99 -99999.99 -99999.99 -99999.99
6/5/2022 11:15:00 AM -99999.99 -179968 -99999.99 -99999.99 -99999.99 -99999.99
6/5/2022 11:30:00 AM -99999.99 -179968 -99999.99 -99999.99 -99999.99 -99999.99
6/5/2022 11:45:00 AM -99999.99 -179968 -99999.99 -99999.99 -99999.99 -99999.99
6/5/2022 12:00:00 PM -99999.99 -179968 -99999.99 -99999.99 -99999.99 -99999.99
6/5/2022 12:15:00 PM -99999.99 -179968 -99999.99 -99999.99 -99999.99 -99999.99
6/5/2022 12:30:00 PM -99999.99 -179968 -99999.99 -99999.99 -99999.99 -99999.99
6/5/2022 12:45:00 PM -99999.99 -179968 -99999.99 -99999.99 -99999.99 -99999.99
6/5/2022 1:00:00 PM -99999.99 -179968 -99999.99 -99999.99 -99999.99 -99999.99
6/5/2022 1:15:00 PM -99999.99 -179968 -99999.99 -99999.99 -99999.99 -99999.99
6/5/2022 1:30:00 PM -99999.99 -179968 -99999.99 -99999.99 -99999.99 -99999.99
6/5/2022 1:45:00 PM -99999.99 -179968 -99999.99 -99999.99 -99999.99 -99999.99
6/5/2022 2:00:00 PM -99999.99 -179968 -99999.99 -99999.99 -99999.99 -99999.99
6/5/2022 2:15:00 PM -99999.99 -179968 -99999.99 -99999.99 -99999.99 -99999.99
6/5/2022 2:30:00 PM -99999.99 -179968 -99999.99 -99999.99 -99999.99 -99999.99
6/5/2022 2:45:00 PM -99999.99 -179968 -99999.99 -99999.99 -99999.99 -99999.99
6/5/2022 3:00:00 PM -99999.99 -179968 -99999.99 -99999.99 -99999.99 -99999.99
6/5/2022 3:15:00 PM -99999.99 -179968 -99999.99 -99999.99 -99999.99 -99999.99
6/5/2022 3:30:00 PM -99999.99 -179968 -99999.99 -99999.99 -99999.99 -99999.99
6/5/2022 3:45:00 PM -99999.99 -179968 -99999.99 -99999.99 -99999.99 -99999.99
6/5/2022 4:00:00 PM -99999.99 -179968 -99999.99 -99999.99 -99999.99 -99999.99
6/5/2022 4:15:00 PM -99999.99 -179968 -99999.99 -99999.99 -99999.99 -99999.99
6/5/2022 4:30:00 PM -99999.99 -179968 -99999.99 -99999.99 -99999.99 -99999.99
6/5/2022 4:45:00 PM -99999.99 -179968 -99999.99 -99999.99 -99999.99 -99999.99
6/5/2022 5:00:00 PM -99999.99 -179968 -99999.99 -99999.99 -99999.99 -99999.99
6/5/2022 5:15:00 PM -99999.99 -179968 -99999.99 -99999.99 -99999.99 -99999.99
6/5/2022 5:30:00 PM -99999.99 -179968 -99999.99 -99999.99 -99999.99 -99999.99
6/5/2022 5:45:00 PM -99999.99 -179968 -99999.99 -99999.99 -99999.99 -99999.99
6/5/2022 6:00:00 PM -99999.99 -179968 -99999.99 -99999.99 -99999.99 -99999.99
6/5/2022 6:15:00 PM -99999.99 -179968 -99999.99 -99999.99 -99999.99 -99999.99
6/5/2022 6:30:00 PM -99999.99 -179968 -99999.99 -99999.99 -99999.99 -99999.99
6/5/2022 6:45:00 PM -99999.99 -179968 -99999.99 -99999.99 -99999.99 -99999.99
6/5/2022 7:00:00 PM -99999.99 -179968 -99999.99 -99999.99 -99999.99 -99999.99
6/5/2022 7:15:00 PM -99999.99 -179968 -99999.99 -99999.99 -99999.99 -99999.99
6/5/2022 7:30:00 PM -99999.99 -179968 -99999.99 -99999.99 -99999.99 -99999.99
6/5/2022 7:45:00 PM -99999.99 -179968 -99999.99 -99999.99 -99999.99 -99999.99
6/5/2022 8:00:00 PM -99999.99 -179968 -99999.99 -99999.99 -99999.99 -99999.99
6/5/2022 8:15:00 PM -99999.99 -179968 -99999.99 -99999.99 -99999.99 -99999.99
6/5/2022 8:30:00 PM -99999.99 -179968 -99999.99 -99999.99 -99999.99 -99999.99
6/5/2022 8:45:00 PM -99999.99 -179968 -99999.99 -99999.99 -99999.99 -99999.99
6/5/2022 9:00:00 PM -99999.99 -179968 -99999.99 -99999.99 -99999.99 -99999.99
6/5/2022 9:15:00 PM -99999.99 -179968 -99999.99 -99999.99 -99999.99 -99999.99
6/5/2022 9:30:00 PM -99999.99 -179968 -99999.99 -99999.99 -99999.99 -99999.99
6/5/2022 9:45:00 PM -99999.99 -179968 -99999.99 -99999.99 -99999.99 -99999.99
6/5/2022 10:00:00 PM -99999.99 -179968 -99999.99 -99999.99 -99999.99 -99999.99
6/5/2022 10:15:00 PM -99999.99 -179968 -99999.99 -99999.99 -99999.99 -99999.99
6/5/2022 10:30:00 PM -99999.99 -179968 -99999.99 -99999.99 -99999.99 -99999.99
6/5/2022 10:45:00 PM -99999.99 -179968 -99999.99 -99999.99 -99999.99 -99999.99
6/5/2022 11:00:00 PM -99999.99 -179968 -99999.99 -99999.99 -99999.99 -99999.99
6/5/2022 11:15:00 PM -99999.99 -179968 -99999.99 -99999.99 -99999.99 -99999.99
6/5/2022 11:30:00 PM -99999.99 -179968 -99999.99 -99999.99 -99999.99 -99999.99
6/5/2022 11:45:00 PM -99999.99 -179968 -99999.99 -99999.99 -99999.99 -99999.99
6/6/2022 12:00:00 AM -99999.99 -179968 -99999.99 -99999.99 -99999.99 -99999.99
6/6/2022 12:15:00 AM -99999.99 -179968 -99999.99 -99999.99 -99999.99 -99999.99
6/6/2022 12:30:00 AM -99999.99 -179968 -99999.99 -99999.99 -99999.99 -99999.99
6/6/2022 12:45:00 AM -99999.99 -179968 -99999.99 -99999.99 -99999.99 -99999.99
6/6/2022 1:00:00 AM -99999.99 -179968 -99999.99 -99999.99 -99999.99 -99999.99
6/6/2022 1:15:00 AM -99999.99 -179968 -99999.99 -99999.99 -99999.99 -99999.99
6/6/2022 1:30:00 AM -99999.99 -179968 -99999.99 -99999.99 -99999.99 -99999.99
6/6/2022 1:45:00 AM -99999.99 -179968 -99999.99 -99999.99 -99999.99 -99999.99
6/6/2022 2:00:00 AM -99999.99 -179968 -99999.99 -99999.99 -99999.99 -99999.99
6/6/2022 2:15:00 AM -99999.99 -179968 -99999.99 -99999.99 -99999.99 -99999.99
6/6/2022 2:30:00 AM -99999.99 -179968 -99999.99 -99999.99 -99999.99 -99999.99
6/6/2022 2:45:00 AM -99999.99 -179968 -99999.99 -99999.99 -99999.99 -99999.99
6/6/2022 3:00:00 AM -99999.99 -179968 -99999.99 -99999.99 -99999.99 -99999.99
6/6/2022 3:15:00 AM -99999.99 -179968 -99999.99 -99999.99 -99999.99 -99999.99
6/6/2022 3:30:00 AM -99999.99 -179968 -99999.99 -99999.99 -99999.99 -99999.99
6/6/2022 3:45:00 AM -99999.99 -179968 -99999.99 -99999.99 -99999.99 -99999.99
6/6/2022 4:00:00 AM -99999.99 -179968 -99999.99 -99999.99 -99999.99 -99999.99
6/6/2022 4:15:00 AM -99999.99 -179968 -99999.99 -99999.99 -99999.99 -99999.99
6/6/2022 4:30:00 AM -99999.99 -179968 -99999.99 -99999.99 -99999.99 -99999.99
6/6/2022 4:45:00 AM -99999.99 -179968 -99999.99 -99999.99 -99999.99 -99999.99
6/6/2022 5:00:00 AM -99999.99 -179968 -99999.99 -99999.99 -99999.99 -99999.99
6/6/2022 5:15:00 AM -99999.99 -179968 -99999.99 -99999.99 -99999.99 -99999.99
6/6/2022 5:30:00 AM -99999.99 -179968 -99999.99 -99999.99 -99999.99 -99999.99
6/6/2022 5:45:00 AM -99999.99 -179968 -99999.99 -99999.99 -99999.99 -99999.99
6/6/2022 6:00:00 AM -99999.99 -179968 -99999.99 -99999.99 -99999.99 -99999.99
6/6/2022 6:15:00 AM -99999.99 -179968 -99999.99 -99999.99 -99999.99 -99999.99
6/6/2022 6:30:00 AM -99999.99 -179968 -99999.99 -99999.99 -99999.99 -99999.99
6/6/2022 6:45:00 AM -99999.99 -179968 -99999.99 -99999.99 -99999.99 -99999.99
6/6/2022 7:00:00 AM -99999.99 -179968 -99999.99 -99999.99 -99999.99 -99999.99
6/6/2022 7:15:00 AM -99999.99 -179968 -99999.99 -99999.99 -99999.99 -99999.99
6/6/2022 7:30:00 AM -99999.99 -179968 -99999.99 -99999.99 -99999.99 -99999.99
6/6/2022 7:45:00 AM -99999.99 -179968 -99999.99 -99999.99 -99999.99 -99999.99
6/6/2022 8:00:00 AM -99999.99 -179968 -99999.99 -99999.99 -99999.99 -99999.99
6/6/2022 8:15:00 AM -99999.99 -179968 -99999.99 -99999.99 -99999.99 -99999.99
6/6/2022 8:30:00 AM -99999.99 -179968 -99999.99 -99999.99 -99999.99 -99999.99
6/6/2022 8:45:00 AM -99999.99 -179968 -99999.99 -99999.99 -99999.99 -99999.99
6/6/2022 9:00:00 AM -99999.99 -179968 -99999.99 -99999.99 -99999.99 -99999.99
6/6/2022 9:15:00 AM -99999.99 -179968 -99999.99 -99999.99 -99999.99 -99999.99
6/6/2022 9:30:00 AM -99999.99 -179968 -99999.99 -99999.99 -99999.99 -99999.99
6/6/2022 9:45:00 AM -99999.99 -179968 -99999.99 -99999.99 -99999.99 -99999.99
6/6/2022 10:00:00 AM -99999.99 -179968 -99999.99 -99999.99 -99999.99 -99999.99
6/6/2022 10:15:00 AM -99999.99 -179968 -99999.99 -99999.99 -99999.99 -99999.99
6/6/2022 10:30:00 AM -99999.99 -179968 -99999.99 -99999.99 -99999.99 -99999.99
6/6/2022 10:45:00 AM -99999.99 -179968 -99999.99 -99999.99 -99999.99 -99999.99
6/6/2022 11:00:00 AM -99999.99 -179968 -99999.99 -99999.99 -99999.99 -99999.99
6/6/2022 11:15:00 AM -99999.99 -179968 -99999.99 -99999.99 -99999.99 -99999.99
6/6/2022 11:30:00 AM -99999.99 -179968 -99999.99 -99999.99 -99999.99 -99999.99
6/6/2022 11:45:00 AM -99999.99 -179968 -99999.99 -99999.99 -99999.99 -99999.99
6/6/2022 12:00:00 PM -99999.99 -179968 -99999.99 -99999.99 -99999.99 -99999.99
6/6/2022 12:15:00 PM -99999.99 -179968 -99999.99 -99999.99 -99999.99 -99999.99
6/6/2022 12:30:00 PM -99999.99 -179968 -99999.99 -99999.99 -99999.99 -99999.99
6/6/2022 12:45:00 PM -99999.99 -179968 -99999.99 -99999.99 -99999.99 -99999.99
6/6/2022 1:00:00 PM -99999.99 -179968 -99999.99 -99999.99 -99999.99 -99999.99
6/6/2022 1:15:00 PM -99999.99 -179968 -99999.99 -99999.99 -99999.99 -99999.99
6/6/2022 1:30:00 PM -99999.99 -179968 -99999.99 -99999.99 -99999.99 -99999.99
6/6/2022 1:45:00 PM -99999.99 -179968 -99999.99 -99999.99 -99999.99 -99999.99
6/6/2022 2:00:00 PM -99999.99 -179968 -99999.99 -99999.99 -99999.99 -99999.99
6/6/2022 2:15:00 PM -99999.99 -179968 -99999.99 -99999.99 -99999.99 -99999.99
6/6/2022 2:30:00 PM -99999.99 -179968 -99999.99 -99999.99 -99999.99 -99999.99
6/6/2022 2:45:00 PM -99999.99 -179968 -99999.99 -99999.99 -99999.99 -99999.99
6/6/2022 3:00:00 PM -99999.99 -179968 -99999.99 -99999.99 -99999.99 -99999.99
6/6/2022 3:15:00 PM -99999.99 -179968 -99999.99 -99999.99 -99999.99 -99999.99
6/6/2022 3:30:00 PM -99999.99 -179968 -99999.99 -99999.99 -99999.99 -99999.99
6/6/2022 3:45:00 PM -99999.99 -179968 -99999.99 -99999.99 -99999.99 -99999.99
6/6/2022 4:00:00 PM -99999.99 -179968 -99999.99 -99999.99 -99999.99 -99999.99
6/6/2022 4:15:00 PM -99999.99 -179968 -99999.99 -99999.99 -99999.99 -99999.99
6/6/2022 4:30:00 PM -99999.99 -179968 -99999.99 -99999.99 -99999.99 -99999.99
6/6/2022 4:45:00 PM -99999.99 -179968 -99999.99 -99999.99 -99999.99 -99999.99
6/6/2022 5:00:00 PM -99999.99 -179968 -99999.99 -99999.99 -99999.99 -99999.99
6/6/2022 5:15:00 PM -99999.99 -179968 -99999.99 -99999.99 -99999.99 -99999.99
6/6/2022 5:30:00 PM -99999.99 -179968 -99999.99 -99999.99 -99999.99 -99999.99
6/6/2022 5:45:00 PM -99999.99 -179968 -99999.99 -99999.99 -99999.99 -99999.99
6/6/2022 6:00:00 PM -99999.99 -179968 -99999.99 -99999.99 -99999.99 -99999.99
6/6/2022 6:15:00 PM -99999.99 -179968 -99999.99 -99999.99 -99999.99 -99999.99
6/6/2022 6:30:00 PM -99999.99 -179968 -99999.99 -99999.99 -99999.99 -99999.99
6/6/2022 6:45:00 PM -99999.99 -179968 -99999.99 -99999.99 -99999.99 -99999.99
6/6/2022 7:00:00 PM -99999.99 -179968 -99999.99 -99999.99 -99999.99 -99999.99
6/6/2022 7:15:00 PM -99999.99 -179968 -99999.99 -99999.99 -99999.99 -99999.99
6/6/2022 7:30:00 PM -99999.99 -179968 -99999.99 -99999.99 -99999.99 -99999.99
6/6/2022 7:45:00 PM -99999.99 -179968 -99999.99 -99999.99 -99999.99 -99999.99
6/6/2022 8:00:00 PM -99999.99 -179968 -99999.99 -99999.99 -99999.99 -99999.99
6/6/2022 8:15:00 PM -99999.99 -179968 -99999.99 -99999.99 -99999.99 -99999.99
6/6/2022 8:30:00 PM -99999.99 -179968 -99999.99 -99999.99 -99999.99 -99999.99
6/6/2022 8:45:00 PM -99999.99 -179968 -99999.99 -99999.99 -99999.99 -99999.99
6/6/2022 9:00:00 PM -99999.99 -179968 -99999.99 -99999.99 -99999.99 -99999.99
6/6/2022 9:15:00 PM -99999.99 -179968 -99999.99 -99999.99 -99999.99 -99999.99
6/6/2022 9:30:00 PM -99999.99 -179968 -99999.99 -99999.99 -99999.99 -99999.99
6/6/2022 9:45:00 PM -99999.99 -179968 -99999.99 -99999.99 -99999.99 -99999.99
6/6/2022 10:00:00 PM -99999.99 -179968 -99999.99 -99999.99 -99999.99 -99999.99
6/6/2022 10:15:00 PM -99999.99 -179968 -99999.99 -99999.99 -99999.99 -99999.99
6/6/2022 10:30:00 PM -99999.99 -179968 -99999.99 -99999.99 -99999.99 -99999.99
6/6/2022 10:45:00 PM -99999.99 -179968 -99999.99 -99999.99 -99999.99 -99999.99
6/6/2022 11:00:00 PM -99999.99 -179968 -99999.99 -99999.99 -99999.99 -99999.99
6/6/2022 11:15:00 PM -99999.99 -179968 -99999.99 -99999.99 -99999.99 -99999.99
6/6/2022 11:30:00 PM -99999.99 -179968 -99999.99 -99999.99 -99999.99 -99999.99
6/6/2022 11:45:00 PM -99999.99 -179968 -99999.99 -99999.99 -99999.99 -99999.99
6/7/2022 12:00:00 AM -99999.99 -179968 -99999.99 -99999.99 -99999.99 -99999.99
6/7/2022 12:15:00 AM -99999.99 -179968 -99999.99 -99999.99 -99999.99 -99999.99
6/7/2022 12:30:00 AM -99999.99 -179968 -99999.99 -99999.99 -99999.99 -99999.99
6/7/2022 12:45:00 AM -99999.99 -179968 -99999.99 -99999.99 -99999.99 -99999.99
6/7/2022 1:00:00 AM -99999.99 -179968 -99999.99 -99999.99 -99999.99 -99999.99
6/7/2022 1:15:00 AM -99999.99 -179968 -99999.99 -99999.99 -99999.99 -99999.99
6/7/2022 1:30:00 AM -99999.99 -179968 -99999.99 -99999.99 -99999.99 -99999.99
6/7/2022 1:45:00 AM -99999.99 -179968 -99999.99 -99999.99 -99999.99 -99999.99
6/7/2022 2:00:00 AM -99999.99 -179968 -99999.99 -99999.99 -99999.99 -99999.99
6/7/2022 2:15:00 AM -99999.99 -179968 -99999.99 -99999.99 -99999.99 -99999.99
6/7/2022 2:30:00 AM -99999.99 -179968 -99999.99 -99999.99 -99999.99 -99999.99
6/7/2022 2:45:00 AM -99999.99 -179968 -99999.99 -99999.99 -99999.99 -99999.99
6/7/2022 3:00:00 AM -99999.99 -179968 -99999.99 -99999.99 -99999.99 -99999.99
6/7/2022 3:15:00 AM -99999.99 -179968 -99999.99 -99999.99 -99999.99 -99999.99
6/7/2022 3:30:00 AM -99999.99 -179968 -99999.99 -99999.99 -99999.99 -99999.99
6/7/2022 3:45:00 AM -99999.99 -179968 -99999.99 -99999.99 -99999.99 -99999.99
6/7/2022 4:00:00 AM -99999.99 -179968 -99999.99 -99999.99 -99999.99 -99999.99
6/7/2022 4:15:00 AM -99999.99 -179968 -99999.99 -99999.99 -99999.99 -99999.99
6/7/2022 4:30:00 AM -99999.99 -179968 -99999.99 -99999.99 -99999.99 -99999.99
6/7/2022 4:45:00 AM -99999.99 -179968 -99999.99 -99999.99 -99999.99 -99999.99
6/7/2022 5:00:00 AM -99999.99 -179968 -99999.99 -99999.99 -99999.99 -99999.99
6/7/2022 5:15:00 AM -99999.99 -179968 -99999.99 -99999.99 -99999.99 -99999.99
6/7/2022 5:30:00 AM -99999.99 -179968 -99999.99 -99999.99 -99999.99 -99999.99
6/7/2022 5:45:00 AM -99999.99 -179968 -99999.99 -99999.99 -99999.99 -99999.99
6/7/2022 6:00:00 AM -99999.99 -179968 -99999.99 -99999.99 -99999.99 -99999.99
6/7/2022 6:15:00 AM -99999.99 -179968 -99999.99 -99999.99 -99999.99 -99999.99
6/7/2022 6:30:00 AM -99999.99 -179968 -99999.99 -99999.99 -99999.99 -99999.99
6/7/2022 6:45:00 AM -99999.99 -179968 -99999.99 -99999.99 -99999.99 -99999.99
6/7/2022 7:00:00 AM -99999.99 -179968 -99999.99 -99999.99 -99999.99 -99999.99
6/7/2022 7:15:00 AM -99999.99 -179968 -99999.99 -99999.99 -99999.99 -99999.99
6/7/2022 7:30:00 AM -99999.99 -179968 -99999.99 -99999.99 -99999.99 -99999.99
6/7/2022 7:45:00 AM -99999.99 -179968 -99999.99 -99999.99 -99999.99 -99999.99
6/7/2022 8:00:00 AM -99999.99 -179968 -99999.99 -99999.99 -99999.99 -99999.99
6/7/2022 8:15:00 AM -99999.99 -179968 -99999.99 -99999.99 -99999.99 -99999.99
6/7/2022 8:30:00 AM -99999.99 -179968 -99999.99 -99999.99 -99999.99 -99999.99
6/7/2022 8:45:00 AM -99999.99 -179968 -99999.99 -99999.99 -99999.99 -99999.99
6/7/2022 9:00:00 AM -99999.99 -179968 -99999.99 -99999.99 -99999.99 -99999.99
6/7/2022 9:15:00 AM -99999.99 -179968 -99999.99 -99999.99 -99999.99 -99999.99
6/7/2022 9:30:00 AM -99999.99 -179968 -99999.99 -99999.99 -99999.99 -99999.99
6/7/2022 9:45:00 AM -99999.99 -179968 -99999.99 -99999.99 -99999.99 -99999.99
6/7/2022 10:00:00 AM -99999.99 -179968 -99999.99 -99999.99 -99999.99 -99999.99
6/7/2022 10:15:00 AM -99999.99 -179968 -99999.99 -99999.99 -99999.99 -99999.99
6/7/2022 10:30:00 AM -99999.99 -179968 -99999.99 -99999.99 -99999.99 -99999.99
6/7/2022 10:45:00 AM -99999.99 -179968 -99999.99 -99999.99 -99999.99 -99999.99
6/7/2022 11:00:00 AM -99999.99 -179968 -99999.99 -99999.99 -99999.99 -99999.99
6/7/2022 11:15:00 AM -99999.99 -179968 -99999.99 -99999.99 -99999.99 -99999.99
6/7/2022 11:30:00 AM -99999.99 -179968 -99999.99 -99999.99 -99999.99 -99999.99
6/7/2022 11:45:00 AM -99999.99 -179968 -99999.99 -99999.99 -99999.99 -99999.99
6/7/2022 12:00:00 PM -99999.99 -179968 -99999.99 -99999.99 -99999.99 -99999.99
6/7/2022 12:15:00 PM -99999.99 -179968 -99999.99 -99999.99 -99999.99 -99999.99
6/7/2022 12:30:00 PM 19.38 66.884 0.15 8.09 6.3 9.25
6/7/2022 12:45:00 PM 19.41 66.938 0.15 8.09 6.03 9.14
6/7/2022 1:00:00 PM 19.42 66.956 0.15 8.07 5.13 9.08
6/7/2022 1:15:00 PM 19.37 66.866 0.15 8.04 3.78 9.06
6/7/2022 1:30:00 PM 19.33 66.794 0.15 8 3.76 9.02
6/7/2022 1:45:00 PM 19.3 66.74 0.15 7.96 3.68 8.98
6/7/2022 2:00:00 PM 19.28 66.704 0.15 7.91 3.68 8.95
6/7/2022 2:15:00 PM 19.26 66.668 0.15 7.88 3.72 8.9
6/7/2022 2:30:00 PM 19.23 66.614 0.15 7.84 3.72 8.85
6/7/2022 2:45:00 PM 19.19 66.542 0.15 7.81 3.63 8.84
6/7/2022 3:00:00 PM 19.15 66.47 0.15 7.79 3.91 8.82
6/7/2022 3:15:00 PM 19.12 66.416 0.15 7.78 3.98 8.83
6/7/2022 3:30:00 PM 19.12 66.416 0.15 7.77 3.66 8.88
6/7/2022 3:45:00 PM 19.16 66.488 0.15 7.77 3.63 8.97
6/7/2022 4:00:00 PM 19.15 66.47 0.15 7.78 3.74 8.88
6/7/2022 4:15:00 PM 19.15 66.47 0.15 7.74 3.75 8.76
6/7/2022 4:30:00 PM 19.15 66.47 0.15 7.71 3.79 8.68
6/7/2022 4:45:00 PM 19.15 66.47 0.15 7.69 3.81 8.68
6/7/2022 5:00:00 PM 19.13 66.434 0.151 7.68 3.74 8.64
6/7/2022 5:15:00 PM 19.1 66.38 0.151 7.66 3.71 8.63
6/7/2022 5:30:00 PM 19.08 66.344 0.151 7.65 3.78 8.57
6/7/2022 5:45:00 PM 19.06 66.308 0.151 7.61 4.15 8.55
6/7/2022 6:00:00 PM 19.04 66.272 0.151 7.61 3.89 8.53
6/7/2022 6:15:00 PM 19.01 66.218 0.151 7.6 4.17 8.53
6/7/2022 6:30:00 PM 18.97 66.146 0.151 7.6 4.23 8.52
6/7/2022 6:45:00 PM 18.93 66.074 0.151 7.56 4.06 8.52
6/7/2022 7:00:00 PM 18.89 66.002 0.151 7.57 4.14 8.52
6/7/2022 7:15:00 PM 18.85 65.93 0.151 7.55 4.19 8.52
6/7/2022 7:30:00 PM 18.81 65.858 0.151 7.55 4.1 8.52
6/7/2022 7:45:00 PM 18.78 65.804 0.151 7.55 3.98 8.52
6/7/2022 8:00:00 PM 18.76 65.768 0.151 7.53 4.59 8.55
6/7/2022 8:15:00 PM 18.72 65.696 0.151 7.51 5.47 8.53
6/7/2022 8:30:00 PM 18.69 65.642 0.151 7.51 5.04 8.52
6/7/2022 8:45:00 PM 18.66 65.588 0.151 7.5 4.59 8.5
6/7/2022 9:00:00 PM 18.63 65.534 0.151 7.52 4.53 8.5
6/7/2022 9:15:00 PM 18.6 65.48 0.151 7.51 5.67 8.49
6/7/2022 9:30:00 PM 18.57 65.426 0.152 7.49 5.15 8.48
6/7/2022 9:45:00 PM 18.54 65.372 0.152 7.5 6.71 8.49
6/7/2022 10:00:00 PM 18.51 65.318 0.152 7.5 5.1 8.48
6/7/2022 10:15:00 PM 18.48 65.264 0.152 7.47 5.81 8.5
6/7/2022 10:30:00 PM 18.44 65.192 0.152 7.48 5.08 8.51
6/7/2022 10:45:00 PM 18.41 65.138 0.152 7.48 5.2 8.51
6/7/2022 11:00:00 PM 18.37 65.066 0.152 7.49 5.61 8.52
6/7/2022 11:15:00 PM 18.33 64.994 0.152 7.48 5.38 8.53
6/7/2022 11:30:00 PM 18.3 64.94 0.152 7.46 4.97 8.53
6/7/2022 11:45:00 PM 18.26 64.868 0.152 7.46 6.51 8.54
6/8/2022 12:00:00 AM 18.24 64.832 0.152 7.45 5.64 8.55
6/8/2022 12:15:00 AM 18.21 64.778 0.152 7.45 6.2 8.55
6/8/2022 12:30:00 AM 18.18 64.724 0.152 7.44 5.42 8.56
6/8/2022 12:45:00 AM 18.16 64.688 0.152 7.46 5.31 8.57
6/8/2022 1:00:00 AM 18.14 64.652 0.153 7.46 5.63 8.57
6/8/2022 1:15:00 AM 18.11 64.598 0.152 7.46 4.92 8.58
6/8/2022 1:30:00 AM 18.09 64.562 0.153 7.45 7.31 8.59
6/8/2022 1:45:00 AM 18.07 64.526 0.153 7.46 5.32 8.59
6/8/2022 2:00:00 AM 18.04 64.472 0.153 7.45 5.05 8.6
6/8/2022 2:15:00 AM 18.02 64.436 0.153 7.44 4.89 8.6
6/8/2022 2:30:00 AM 18 64.4 0.153 7.44 6.77 8.62
6/8/2022 2:45:00 AM 17.97 64.346 0.153 7.41 5.14 8.62
6/8/2022 3:00:00 AM 17.94 64.292 0.153 7.43 5.2 8.62
6/8/2022 3:15:00 AM 17.9 64.22 0.153 7.4 5.09 8.63
6/8/2022 3:30:00 AM 17.87 64.166 0.153 7.4 8.53 8.64
6/8/2022 3:45:00 AM 17.83 64.094 0.153 7.42 5.31 8.65
6/8/2022 4:00:00 AM 17.79 64.022 0.153 7.4 5.75 8.67
6/8/2022 4:15:00 AM 17.76 63.968 0.153 7.43 5.85 8.67
6/8/2022 4:30:00 AM 17.72 63.896 0.153 7.44 6.06 8.68
6/8/2022 4:45:00 AM 17.69 63.842 0.153 7.45 7.14 8.7
6/8/2022 5:00:00 AM 17.64 63.752 0.153 7.46 6.07 8.72
6/8/2022 5:15:00 AM 17.6 63.68 0.154 7.45 5.42 8.73
6/8/2022 5:30:00 AM 17.56 63.608 0.154 7.47 5.73 8.75
6/8/2022 5:45:00 AM 17.52 63.536 0.154 7.48 5.53 8.77
6/8/2022 6:00:00 AM 17.48 63.464 0.154 7.46 5.61 8.8
6/8/2022 6:15:00 AM 17.45 63.41 0.154 7.48 5.62 8.83
6/8/2022 6:30:00 AM 17.42 63.356 0.154 7.5 6.2 8.86
6/8/2022 6:45:00 AM 17.39 63.302 0.154 7.51 6.13 8.91
6/8/2022 7:00:00 AM 17.35 63.23 0.153 7.53 5.56 8.95
6/8/2022 7:15:00 AM 17.33 63.194 0.153 7.54 6.2 9
6/8/2022 7:30:00 AM 17.34 63.212 0.153 7.57 5.56 9.09
6/8/2022 7:45:00 AM 17.35 63.23 0.153 7.59 5.03 9.16
6/8/2022 8:00:00 AM 17.41 63.338 0.152 7.6 4.88 9.24
6/8/2022 8:15:00 AM 17.42 63.356 0.152 7.65 5.03 9.26
6/8/2022 8:30:00 AM 17.42 63.356 0.152 7.67 4.99 9.25
6/8/2022 8:45:00 AM 17.4 63.32 0.152 7.66 5.19 9.28
6/8/2022 9:00:00 AM 17.44 63.392 0.152 7.7 5.35 9.34
6/8/2022 9:15:00 AM 17.55 63.59 0.151 7.71 5.46 9.38
6/8/2022 9:30:00 AM 17.79 64.022 0.151 7.75 5.6 9.42
6/8/2022 9:45:00 AM 17.95 64.31 0.151 7.79 5.46 9.43
6/8/2022 10:00:00 AM 17.91 64.238 0.151 7.8 7.27 9.39
6/8/2022 10:15:00 AM 18.08 64.544 0.151 7.83 45.1 9.4
6/8/2022 10:30:00 AM 18.13 64.634 0.151 7.84 6.46 9.38
6/8/2022 10:45:00 AM 18.29 64.922 0.15 7.87 6.41 9.42
6/8/2022 11:00:00 AM 18.52 65.336 0.15 7.9 6.55 9.45
6/8/2022 11:15:00 AM 18.75 65.75 0.15 7.93 6.91 9.44
6/8/2022 11:30:00 AM 18.83 65.894 0.15 7.94 7.39 9.37
6/8/2022 11:45:00 AM 18.97 66.146 0.149 7.97 6.37 9.37
6/8/2022 12:00:00 PM 19.18 66.524 0.149 8.01 7.01 9.38
6/8/2022 12:15:00 PM 19.45 67.01 0.149 8.05 6.77 9.37
6/8/2022 12:30:00 PM 19.51 67.118 0.148 8.05 6.77 9.27
6/8/2022 12:45:00 PM 19.77 67.586 0.148 8.05 6.63 9.31
6/8/2022 1:00:00 PM 19.84 67.712 0.148 8.08 9.16 9.28
6/8/2022 1:15:00 PM 19.93 67.874 0.148 8.1 6.28 9.27
6/8/2022 1:30:00 PM 20.14 68.252 0.149 8.09 6.74 9.26
6/8/2022 1:45:00 PM 20.42 68.756 0.149 8.13 6.37 9.24
6/8/2022 2:00:00 PM 20.75 69.35 0.149 8.17 6.46 9.19
6/8/2022 2:15:00 PM 20.99 69.782 0.149 8.2 6.66 9.15
6/8/2022 2:30:00 PM 20.99 69.782 0.149 8.18 6.67 9.05
6/8/2022 2:45:00 PM 21.18 70.124 0.149 8.18 7.99 9.04
6/8/2022 3:00:00 PM 21.29 70.32201 0.149 8.19 7.36 9.02
6/8/2022 3:15:00 PM 21.42 70.556 0.149 8.2 7.13 8.97
6/8/2022 3:30:00 PM 21.54 70.772 0.149 8.2 6.71 8.93
6/8/2022 3:45:00 PM 21.66 70.988 0.149 8.18 6.64 8.89
6/8/2022 4:00:00 PM 21.74 71.132 0.149 8.17 6.7 8.84
6/8/2022 4:15:00 PM 21.8 71.24 0.149 8.16 6.71 8.8
6/8/2022 4:30:00 PM 21.82 71.276 0.149 8.12 6.94 8.74
6/8/2022 4:45:00 PM 21.78 71.204 0.149 8.1 7.05 8.7
6/8/2022 5:00:00 PM 21.72 71.096 0.148 8.04 7.22 8.65
6/8/2022 5:15:00 PM 21.63 70.934 0.148 8 7.34 8.63
6/8/2022 5:30:00 PM 21.53 70.754 0.148 7.97 7.29 8.59
6/8/2022 5:45:00 PM 21.4 70.52 0.147 7.91 7.1 8.55
6/8/2022 6:00:00 PM 21.25 70.25 0.147 7.88 7.56 8.54
6/8/2022 6:15:00 PM 21.12 70.016 0.147 7.85 7.43 8.51
6/8/2022 6:30:00 PM 21 69.8 0.147 7.8 7.43 8.48
6/8/2022 6:45:00 PM 20.91 69.638 0.146 7.77 7.38 8.47
6/8/2022 7:00:00 PM 20.81 69.458 0.146 7.75 7.1 8.45
6/8/2022 7:15:00 PM 20.73 69.314 0.146 7.73 7.9 8.44
6/8/2022 7:30:00 PM 20.67 69.206 0.145 7.68 7.71 8.42
6/8/2022 7:45:00 PM 20.61 69.098 0.145 7.68 7.58 8.4
6/8/2022 8:00:00 PM 20.56 69.008 0.145 7.64 7.47 8.37
6/8/2022 8:15:00 PM 20.52 68.936 0.145 7.64 8.1 8.34
6/8/2022 8:30:00 PM 20.47 68.846 0.145 7.61 8.32 8.31
6/8/2022 8:45:00 PM 20.44 68.792 0.144 7.59 8.72 8.29
6/8/2022 9:00:00 PM 20.4 68.72 0.144 7.58 9.67 8.27
6/8/2022 9:15:00 PM 20.36 68.648 0.144 7.55 8.76 8.25
6/8/2022 9:30:00 PM 20.31 68.558 0.144 7.56 13.7 8.24
6/8/2022 9:45:00 PM 20.27 68.486 0.144 7.52 9.5 8.24
6/8/2022 10:00:00 PM 20.23 68.414 0.144 7.51 9.07 8.25
6/8/2022 10:15:00 PM 20.19 68.342 0.144 7.52 8.79 8.24
6/8/2022 10:30:00 PM 20.15 68.27 0.144 7.49 9.33 8.25
6/8/2022 10:45:00 PM 20.1 68.18 0.144 7.49 9.71 8.25
6/8/2022 11:00:00 PM 20.05 68.09 0.144 7.5 9.07 8.26
6/8/2022 11:15:00 PM 20 68 0.144 7.5 9.06 8.26
6/8/2022 11:30:00 PM 19.94 67.892 0.145 7.49 9.38 8.27
6/8/2022 11:45:00 PM 19.88 67.784 0.145 7.47 9.16 8.28
6/9/2022 12:00:00 AM 19.82 67.676 0.145 7.49 9.22 8.29
6/9/2022 12:15:00 AM 19.77 67.586 0.145 7.46 9.1 8.29
6/9/2022 12:30:00 AM 19.71 67.478 0.145 7.46 17.2 8.31
6/9/2022 12:45:00 AM 19.66 67.388 0.146 7.47 9.26 8.31
6/9/2022 1:00:00 AM 19.54 67.172 0.145 7.49 9.84 8.35
6/9/2022 1:15:00 AM 19.48 67.064 0.145 7.47 9.61 8.35
6/9/2022 1:30:00 AM 19.41 66.938 0.145 7.47 9.08 8.36
6/9/2022 1:45:00 AM 19.35 66.83 0.145 7.46 9.57 8.36
6/9/2022 2:00:00 AM 19.28 66.704 0.145 7.48 9.05 8.37
6/9/2022 2:15:00 AM 19.19 66.542 0.145 7.46 9.61 8.39
6/9/2022 2:30:00 AM 19.11 66.398 0.144 7.45 10.02 8.41
6/9/2022 2:45:00 AM 19.04 66.272 0.144 7.45 9.89 8.42
6/9/2022 3:00:00 AM 18.94 66.092 0.144 7.46 10.16 8.43
6/9/2022 3:15:00 AM 18.84 65.912 0.143 7.43 10.82 8.45
6/9/2022 3:30:00 AM 18.7 65.66 0.141 7.43 11.52 8.47
6/9/2022 3:45:00 AM 18.64 65.552 0.141 7.44 12.26 8.46
6/9/2022 4:00:00 AM 18.55 65.39 0.141 7.44 13.37 8.48
6/9/2022 4:15:00 AM 18.41 65.138 0.139 7.43 14.3 8.51
6/9/2022 4:30:00 AM 18.35 65.03 0.139 7.4 15.13 8.51
6/9/2022 4:45:00 AM 18.28 64.904 0.139 7.41 15.65 8.52
6/9/2022 5:00:00 AM 18.21 64.778 0.139 7.41 16.59 8.52
6/9/2022 5:15:00 AM 18.16 64.688 0.139 7.41 15.49 8.53
6/9/2022 5:30:00 AM 18.11 64.598 0.139 7.41 15.66 8.54
6/9/2022 5:45:00 AM 18.05 64.49 0.139 7.39 16.3 8.56
6/9/2022 6:00:00 AM 17.98 64.364 0.139 7.38 16.2 8.58
6/9/2022 6:15:00 AM 17.91 64.238 0.139 7.39 15.42 8.61
6/9/2022 6:30:00 AM 17.84 64.112 0.139 7.41 16.28 8.65
6/9/2022 6:45:00 AM 17.77 63.986 0.139 7.42 22.41 8.69
6/9/2022 7:00:00 AM 17.69 63.842 0.14 7.43 17.14 8.73
6/9/2022 7:15:00 AM 17.61 63.698 0.14 7.41 17.76 8.77
6/9/2022 7:30:00 AM 17.57 63.626 0.14 7.45 18.71 8.81
6/9/2022 7:45:00 AM 17.56 63.608 0.141 7.46 17.24 8.84
6/9/2022 8:00:00 AM 17.61 63.698 0.142 7.48 18.06 8.88
6/9/2022 8:15:00 AM 17.63 63.734 0.142 7.48 16.48 8.87
6/9/2022 8:30:00 AM 17.65 63.77 0.142 7.49 16.66 8.88
6/9/2022 8:45:00 AM 17.72 63.896 0.142 7.5 16.79 8.92
6/9/2022 9:00:00 AM 17.8 64.04 0.142 7.53 16.01 8.96
6/9/2022 9:15:00 AM 17.8 64.04 0.142 7.54 14.37 8.95
6/9/2022 9:30:00 AM 17.79 64.022 0.143 7.52 15.06 8.93
6/9/2022 9:45:00 AM 17.77 63.986 0.144 7.53 15.5 8.92
6/9/2022 10:00:00 AM 17.75 63.95 0.145 7.53 18.27 8.91
6/9/2022 10:15:00 AM 17.83 64.094 0.145 7.54 19.19 8.95
6/9/2022 10:30:00 AM 17.99 64.382 0.145 7.54 18.05 8.99
6/9/2022 10:45:00 AM 18.18 64.724 0.145 7.58 18.03 9.02
6/9/2022 11:00:00 AM 18.2 64.76 0.144 7.59 19.59 9.01
6/9/2022 11:15:00 AM 18.15 64.67 0.143 7.59 21.39 9
6/9/2022 11:30:00 AM 18.1 64.58 0.141 7.6 18.16 8.98
6/9/2022 11:45:00 AM 18.04 64.472 0.14 7.57 25.15 8.95
6/9/2022 12:00:00 PM 17.99 64.382 0.139 7.54 20.04 8.93
6/9/2022 12:15:00 PM 18.03 64.454 0.139 7.56 18.73 8.95
6/9/2022 12:30:00 PM 18.16 64.688 0.138 7.56 18.61 9
6/9/2022 12:45:00 PM 18.36 65.048 0.138 7.6 19.18 9.03
6/9/2022 1:00:00 PM 18.43 65.174 0.139 7.64 23.69 9.03
6/9/2022 1:15:00 PM 18.47 65.246 0.141 7.64 23.55 9.02
6/9/2022 1:30:00 PM 18.48 65.264 0.144 7.64 24.31 9.01
6/9/2022 1:45:00 PM 18.5 65.3 0.147 7.64 24.48 9
6/9/2022 2:00:00 PM 18.52 65.336 0.149 7.64 27.73 8.98
6/9/2022 2:15:00 PM 18.52 65.336 0.149 7.61 25.32 8.95
6/9/2022 2:30:00 PM 18.58 65.444 0.147 7.61 24.8 8.95
6/9/2022 2:45:00 PM 18.63 65.534 0.145 7.61 28.17 8.91
6/9/2022 3:00:00 PM 18.66 65.588 0.142 7.6 26.67 8.89
6/9/2022 3:15:00 PM 18.78 65.804 0.14 7.59 25.97 8.89
6/9/2022 3:30:00 PM 18.86 65.948 0.138 7.59 23.88 8.88
6/9/2022 3:45:00 PM 18.98 66.164 0.137 7.6 26.14 8.87
6/9/2022 4:00:00 PM 19.05 66.29 0.136 7.6 24.51 8.85
6/9/2022 4:15:00 PM 19.1 66.38 0.135 7.59 26.27 8.82
6/9/2022 4:30:00 PM 19.18 66.524 0.134 7.59 24.82 8.8
6/9/2022 4:45:00 PM 19.24 66.632 0.133 7.57 24.48 8.78
6/9/2022 5:00:00 PM 19.28 66.704 0.132 7.57 26.71 8.74
6/9/2022 5:15:00 PM 19.3 66.74 0.131 7.56 28.11 8.7
6/9/2022 5:30:00 PM 19.3 66.74 0.131 7.56 30.24 8.67
6/9/2022 5:45:00 PM 19.31 66.758 0.132 7.55 31.03 8.66
6/9/2022 6:00:00 PM 19.31 66.758 0.133 7.54 31.85 8.65
6/9/2022 6:15:00 PM 19.28 66.704 0.135 7.49 32.7 8.64
6/9/2022 6:30:00 PM 19.21 66.578 0.135 7.51 34.16 8.62
6/9/2022 6:45:00 PM 19.13 66.434 0.134 7.48 34.59 8.63
6/9/2022 7:00:00 PM 19.04 66.272 0.132 7.48 37.34 8.64
6/9/2022 7:15:00 PM 18.96 66.128 0.13 7.46 37.02 8.64
6/9/2022 7:30:00 PM 18.87 65.966 0.128 7.44 36.42 8.65
6/9/2022 7:45:00 PM 18.76 65.768 0.127 7.43 36.3 8.66
6/9/2022 8:00:00 PM 18.66 65.588 0.126 7.43 36.81 8.68
6/9/2022 8:15:00 PM 18.57 65.426 0.126 7.42 36.76 8.69
6/9/2022 8:30:00 PM 18.49 65.282 0.126 7.44 35.72 8.7
6/9/2022 8:45:00 PM 18.39 65.102 0.127 7.41 37 8.71
6/9/2022 9:00:00 PM 18.29 64.922 0.127 7.4 37.25 8.73
6/9/2022 9:15:00 PM 18.18 64.724 0.127 7.4 44.16 8.75
6/9/2022 9:30:00 PM 18.07 64.526 0.127 7.42 38.31 8.77
6/9/2022 9:45:00 PM 17.96 64.328 0.127 7.38 38.23 8.79
6/9/2022 10:00:00 PM 17.86 64.148 0.127 7.39 37.25 8.8
6/9/2022 10:15:00 PM 17.76 63.968 0.127 7.37 36.53 8.82
6/9/2022 10:30:00 PM 17.67 63.806 0.127 7.4 28.91 8.84
6/9/2022 10:45:00 PM 17.6 63.68 0.127 7.37 33.23 8.86
6/9/2022 11:00:00 PM 17.54 63.572 0.127 7.39 33.54 8.86
6/9/2022 11:15:00 PM 17.49 63.482 0.127 7.4 31.23 8.88
6/9/2022 11:30:00 PM 17.44 63.392 0.127 7.38 29.6 8.89
6/9/2022 11:45:00 PM 17.39 63.302 0.126 7.4 28.6 8.9
6/10/2022 12:00:00 AM 17.34 63.212 0.126 7.37 28.5 8.91
6/10/2022 12:15:00 AM 17.29 63.122 0.125 7.38 27.59 8.91
6/10/2022 12:30:00 AM 17.24 63.032 0.125 7.36 26.85 8.93
6/10/2022 12:45:00 AM 17.18 62.924 0.124 7.36 25.68 8.93
6/10/2022 1:00:00 AM 17.11 62.798 0.123 7.37 23.45 8.95
6/10/2022 1:15:00 AM 17.04 62.672 0.123 7.38 25.1 8.96
6/10/2022 1:30:00 AM 16.97 62.546 0.122 7.38 25.33 8.96
6/10/2022 1:45:00 AM 16.9 62.42 0.122 7.34 25.26 8.98
6/10/2022 2:00:00 AM 16.83 62.294 0.122 7.33 24.26 9
6/10/2022 2:15:00 AM 16.75 62.15 0.121 7.36 26.01 9
6/10/2022 2:30:00 AM 16.68 62.024 0.121 7.31 23.76 9.02